<?xml version="1.0" encoding="UTF-8" standalone="no" ?>
<gpx xmlns="http://www.topografix.com/GPX/1/1" xmlns:xsi="http://www.w3.org/2001/XMLSchema-instance" xsi:schemaLocation="http://www.topografix.com/GPX/1/1 http://www.topografix.com/GPX/1/1/gpx.xsd" version="1.1" creator="VisuGPX - https://www.visugpx.com">
  <metadata>
    <name>20130818_Course_St-Yorre</name>
    <desc><![CDATA[St yorre]]></desc>
  </metadata>
  <trk>
    <name><![CDATA[20130818_Course_St-Yorre_1]]></name>
    <trkseg>
      <trkpt lat="46.0721" lon="3.47848">
        <ele>376</ele>
        <time>2013-08-18T07:44:33.000Z</time>
      </trkpt>
      <trkpt lat="46.0721" lon="3.4785">
        <ele>376</ele>
        <time>2013-08-18T07:44:34.000Z</time>
      </trkpt>
      <trkpt lat="46.07211" lon="3.47854">
        <ele>375</ele>
        <time>2013-08-18T07:44:35.000Z</time>
      </trkpt>
      <trkpt lat="46.07211" lon="3.47854">
        <ele>375</ele>
        <time>2013-08-18T07:44:37.000Z</time>
      </trkpt>
      <trkpt lat="46.07211" lon="3.47854">
        <ele>375</ele>
        <time>2013-08-18T07:44:39.000Z</time>
      </trkpt>
      <trkpt lat="46.0721" lon="3.47878">
        <ele>373</ele>
        <time>2013-08-18T07:44:43.000Z</time>
      </trkpt>
      <trkpt lat="46.07212" lon="3.47896">
        <ele>372</ele>
        <time>2013-08-18T07:44:51.000Z</time>
      </trkpt>
      <trkpt lat="46.07212" lon="3.47896">
        <ele>372</ele>
        <time>2013-08-18T07:44:53.000Z</time>
      </trkpt>
      <trkpt lat="46.07212" lon="3.47896">
        <ele>372</ele>
        <time>2013-08-18T07:44:55.000Z</time>
      </trkpt>
      <trkpt lat="46.07218" lon="3.47907">
        <ele>368</ele>
        <time>2013-08-18T07:44:59.000Z</time>
      </trkpt>
      <trkpt lat="46.07218" lon="3.47907">
        <ele>368</ele>
        <time>2013-08-18T07:45:01.000Z</time>
      </trkpt>
      <trkpt lat="46.07222" lon="3.47927">
        <ele>368</ele>
        <time>2013-08-18T07:45:05.000Z</time>
      </trkpt>
      <trkpt lat="46.07222" lon="3.47927">
        <ele>368</ele>
        <time>2013-08-18T07:45:11.000Z</time>
      </trkpt>
      <trkpt lat="46.07222" lon="3.47927">
        <ele>368</ele>
        <time>2013-08-18T07:45:13.000Z</time>
      </trkpt>
      <trkpt lat="46.07222" lon="3.47927">
        <ele>368</ele>
        <time>2013-08-18T07:45:15.000Z</time>
      </trkpt>
      <trkpt lat="46.07234" lon="3.47958">
        <ele>379</ele>
        <time>2013-08-18T07:45:21.000Z</time>
      </trkpt>
      <trkpt lat="46.07241" lon="3.47968">
        <ele>378</ele>
        <time>2013-08-18T07:45:25.000Z</time>
      </trkpt>
      <trkpt lat="46.07241" lon="3.47968">
        <ele>378</ele>
        <time>2013-08-18T07:45:29.000Z</time>
      </trkpt>
      <trkpt lat="46.07241" lon="3.47968">
        <ele>378</ele>
        <time>2013-08-18T07:45:31.000Z</time>
      </trkpt>
      <trkpt lat="46.07241" lon="3.47968">
        <ele>378</ele>
        <time>2013-08-18T07:45:33.000Z</time>
      </trkpt>
      <trkpt lat="46.07241" lon="3.47968">
        <ele>378</ele>
        <time>2013-08-18T07:45:35.000Z</time>
      </trkpt>
      <trkpt lat="46.07241" lon="3.47968">
        <ele>378</ele>
        <time>2013-08-18T07:45:37.000Z</time>
      </trkpt>
      <trkpt lat="46.07241" lon="3.47968">
        <ele>378</ele>
        <time>2013-08-18T07:45:39.000Z</time>
      </trkpt>
      <trkpt lat="46.07241" lon="3.47968">
        <ele>378</ele>
        <time>2013-08-18T07:45:41.000Z</time>
      </trkpt>
      <trkpt lat="46.07254" lon="3.47972">
        <ele>377</ele>
        <time>2013-08-18T07:45:51.000Z</time>
      </trkpt>
      <trkpt lat="46.07263" lon="3.47974">
        <ele>379</ele>
        <time>2013-08-18T07:45:53.000Z</time>
      </trkpt>
      <trkpt lat="46.07269" lon="3.47974">
        <ele>380</ele>
        <time>2013-08-18T07:45:55.000Z</time>
      </trkpt>
      <trkpt lat="46.07273" lon="3.47973">
        <ele>382</ele>
        <time>2013-08-18T07:45:57.000Z</time>
      </trkpt>
      <trkpt lat="46.07278" lon="3.47972">
        <ele>384</ele>
        <time>2013-08-18T07:46:01.000Z</time>
      </trkpt>
      <trkpt lat="46.07285" lon="3.47971">
        <ele>386</ele>
        <time>2013-08-18T07:46:05.000Z</time>
      </trkpt>
      <trkpt lat="46.0729" lon="3.47971">
        <ele>388</ele>
        <time>2013-08-18T07:46:07.000Z</time>
      </trkpt>
      <trkpt lat="46.07296" lon="3.4797">
        <ele>391</ele>
        <time>2013-08-18T07:46:11.000Z</time>
      </trkpt>
      <trkpt lat="46.07301" lon="3.4797">
        <ele>392</ele>
        <time>2013-08-18T07:46:15.000Z</time>
      </trkpt>
      <trkpt lat="46.07301" lon="3.4797">
        <ele>392</ele>
        <time>2013-08-18T07:46:17.000Z</time>
      </trkpt>
      <trkpt lat="46.07301" lon="3.4797">
        <ele>392</ele>
        <time>2013-08-18T07:46:19.000Z</time>
      </trkpt>
      <trkpt lat="46.07301" lon="3.4797">
        <ele>392</ele>
        <time>2013-08-18T07:46:21.000Z</time>
      </trkpt>
      <trkpt lat="46.07301" lon="3.4797">
        <ele>392</ele>
        <time>2013-08-18T07:46:23.000Z</time>
      </trkpt>
      <trkpt lat="46.07301" lon="3.4797">
        <ele>392</ele>
        <time>2013-08-18T07:46:25.000Z</time>
      </trkpt>
      <trkpt lat="46.07301" lon="3.4797">
        <ele>392</ele>
        <time>2013-08-18T07:46:27.000Z</time>
      </trkpt>
      <trkpt lat="46.07301" lon="3.4797">
        <ele>392</ele>
        <time>2013-08-18T07:46:29.000Z</time>
      </trkpt>
      <trkpt lat="46.07301" lon="3.4797">
        <ele>392</ele>
        <time>2013-08-18T07:46:31.000Z</time>
      </trkpt>
      <trkpt lat="46.07301" lon="3.4797">
        <ele>392</ele>
        <time>2013-08-18T07:46:33.000Z</time>
      </trkpt>
      <trkpt lat="46.07322" lon="3.47977">
        <ele>400</ele>
        <time>2013-08-18T07:46:39.000Z</time>
      </trkpt>
      <trkpt lat="46.07333" lon="3.47983">
        <ele>401</ele>
        <time>2013-08-18T07:46:41.000Z</time>
      </trkpt>
      <trkpt lat="46.07341" lon="3.47988">
        <ele>401</ele>
        <time>2013-08-18T07:46:43.000Z</time>
      </trkpt>
      <trkpt lat="46.07346" lon="3.47992">
        <ele>401</ele>
        <time>2013-08-18T07:46:45.000Z</time>
      </trkpt>
      <trkpt lat="46.07351" lon="3.47996">
        <ele>400</ele>
        <time>2013-08-18T07:46:49.000Z</time>
      </trkpt>
      <trkpt lat="46.07355" lon="3.48">
        <ele>400</ele>
        <time>2013-08-18T07:46:51.000Z</time>
      </trkpt>
      <trkpt lat="46.07359" lon="3.48006">
        <ele>399</ele>
        <time>2013-08-18T07:46:55.000Z</time>
      </trkpt>
      <trkpt lat="46.07359" lon="3.48006">
        <ele>399</ele>
        <time>2013-08-18T07:46:57.000Z</time>
      </trkpt>
      <trkpt lat="46.07359" lon="3.48006">
        <ele>399</ele>
        <time>2013-08-18T07:46:59.000Z</time>
      </trkpt>
      <trkpt lat="46.07359" lon="3.48006">
        <ele>399</ele>
        <time>2013-08-18T07:47:01.000Z</time>
      </trkpt>
      <trkpt lat="46.07359" lon="3.48006">
        <ele>399</ele>
        <time>2013-08-18T07:47:03.000Z</time>
      </trkpt>
      <trkpt lat="46.07369" lon="3.48021">
        <ele>397</ele>
        <time>2013-08-18T07:47:07.000Z</time>
      </trkpt>
      <trkpt lat="46.07375" lon="3.48029">
        <ele>398</ele>
        <time>2013-08-18T07:47:09.000Z</time>
      </trkpt>
      <trkpt lat="46.07375" lon="3.48029">
        <ele>398</ele>
        <time>2013-08-18T07:47:11.000Z</time>
      </trkpt>
      <trkpt lat="46.07375" lon="3.48029">
        <ele>398</ele>
        <time>2013-08-18T07:47:13.000Z</time>
      </trkpt>
      <trkpt lat="46.07375" lon="3.48029">
        <ele>398</ele>
        <time>2013-08-18T07:47:15.000Z</time>
      </trkpt>
      <trkpt lat="46.07375" lon="3.48029">
        <ele>398</ele>
        <time>2013-08-18T07:47:17.000Z</time>
      </trkpt>
      <trkpt lat="46.07375" lon="3.48029">
        <ele>398</ele>
        <time>2013-08-18T07:47:19.000Z</time>
      </trkpt>
      <trkpt lat="46.07391" lon="3.48041">
        <ele>405</ele>
        <time>2013-08-18T07:47:23.000Z</time>
      </trkpt>
      <trkpt lat="46.07401" lon="3.48048">
        <ele>405</ele>
        <time>2013-08-18T07:47:25.000Z</time>
      </trkpt>
      <trkpt lat="46.07409" lon="3.48054">
        <ele>404</ele>
        <time>2013-08-18T07:47:27.000Z</time>
      </trkpt>
      <trkpt lat="46.07413" lon="3.48059">
        <ele>405</ele>
        <time>2013-08-18T07:47:29.000Z</time>
      </trkpt>
      <trkpt lat="46.07417" lon="3.48064">
        <ele>405</ele>
        <time>2013-08-18T07:47:31.000Z</time>
      </trkpt>
      <trkpt lat="46.07417" lon="3.48064">
        <ele>405</ele>
        <time>2013-08-18T07:47:33.000Z</time>
      </trkpt>
      <trkpt lat="46.07417" lon="3.48064">
        <ele>405</ele>
        <time>2013-08-18T07:47:35.000Z</time>
      </trkpt>
      <trkpt lat="46.07417" lon="3.48064">
        <ele>405</ele>
        <time>2013-08-18T07:47:37.000Z</time>
      </trkpt>
      <trkpt lat="46.07434" lon="3.48092">
        <ele>401</ele>
        <time>2013-08-18T07:47:41.000Z</time>
      </trkpt>
      <trkpt lat="46.07442" lon="3.48105">
        <ele>399</ele>
        <time>2013-08-18T07:47:47.000Z</time>
      </trkpt>
      <trkpt lat="46.07442" lon="3.48105">
        <ele>399</ele>
        <time>2013-08-18T07:47:49.000Z</time>
      </trkpt>
      <trkpt lat="46.07442" lon="3.48105">
        <ele>399</ele>
        <time>2013-08-18T07:47:51.000Z</time>
      </trkpt>
      <trkpt lat="46.07442" lon="3.48105">
        <ele>399</ele>
        <time>2013-08-18T07:47:53.000Z</time>
      </trkpt>
      <trkpt lat="46.07442" lon="3.48105">
        <ele>399</ele>
        <time>2013-08-18T07:47:55.000Z</time>
      </trkpt>
      <trkpt lat="46.07463" lon="3.48115">
        <ele>401</ele>
        <time>2013-08-18T07:47:59.000Z</time>
      </trkpt>
      <trkpt lat="46.07475" lon="3.48119">
        <ele>404</ele>
        <time>2013-08-18T07:48:05.000Z</time>
      </trkpt>
      <trkpt lat="46.07475" lon="3.48119">
        <ele>404</ele>
        <time>2013-08-18T07:48:07.000Z</time>
      </trkpt>
      <trkpt lat="46.07475" lon="3.48119">
        <ele>404</ele>
        <time>2013-08-18T07:48:09.000Z</time>
      </trkpt>
      <trkpt lat="46.07475" lon="3.48119">
        <ele>404</ele>
        <time>2013-08-18T07:48:11.000Z</time>
      </trkpt>
      <trkpt lat="46.07475" lon="3.48119">
        <ele>404</ele>
        <time>2013-08-18T07:48:13.000Z</time>
      </trkpt>
      <trkpt lat="46.07475" lon="3.48119">
        <ele>404</ele>
        <time>2013-08-18T07:48:21.000Z</time>
      </trkpt>
      <trkpt lat="46.07475" lon="3.48119">
        <ele>404</ele>
        <time>2013-08-18T07:48:23.000Z</time>
      </trkpt>
      <trkpt lat="46.07475" lon="3.48119">
        <ele>404</ele>
        <time>2013-08-18T07:48:25.000Z</time>
      </trkpt>
      <trkpt lat="46.07515" lon="3.48155">
        <ele>410</ele>
        <time>2013-08-18T07:48:29.000Z</time>
      </trkpt>
      <trkpt lat="46.07515" lon="3.48155">
        <ele>410</ele>
        <time>2013-08-18T07:48:31.000Z</time>
      </trkpt>
      <trkpt lat="46.07524" lon="3.48163">
        <ele>408</ele>
        <time>2013-08-18T07:48:33.000Z</time>
      </trkpt>
      <trkpt lat="46.07532" lon="3.48168">
        <ele>408</ele>
        <time>2013-08-18T07:48:37.000Z</time>
      </trkpt>
      <trkpt lat="46.07542" lon="3.48173">
        <ele>408</ele>
        <time>2013-08-18T07:48:43.000Z</time>
      </trkpt>
      <trkpt lat="46.07542" lon="3.48173">
        <ele>408</ele>
        <time>2013-08-18T07:48:45.000Z</time>
      </trkpt>
      <trkpt lat="46.07561" lon="3.48166">
        <ele>413</ele>
        <time>2013-08-18T07:48:49.000Z</time>
      </trkpt>
      <trkpt lat="46.07561" lon="3.48166">
        <ele>413</ele>
        <time>2013-08-18T07:48:52.000Z</time>
      </trkpt>
      <trkpt lat="46.07561" lon="3.48166">
        <ele>413</ele>
        <time>2013-08-18T07:48:54.000Z</time>
      </trkpt>
      <trkpt lat="46.07561" lon="3.48166">
        <ele>413</ele>
        <time>2013-08-18T07:48:56.000Z</time>
      </trkpt>
      <trkpt lat="46.07561" lon="3.48166">
        <ele>413</ele>
        <time>2013-08-18T07:48:58.000Z</time>
      </trkpt>
      <trkpt lat="46.07561" lon="3.48166">
        <ele>413</ele>
        <time>2013-08-18T07:49:00.000Z</time>
      </trkpt>
      <trkpt lat="46.07561" lon="3.48166">
        <ele>413</ele>
        <time>2013-08-18T07:49:02.000Z</time>
      </trkpt>
      <trkpt lat="46.07561" lon="3.48166">
        <ele>413</ele>
        <time>2013-08-18T07:49:06.000Z</time>
      </trkpt>
      <trkpt lat="46.07561" lon="3.48166">
        <ele>413</ele>
        <time>2013-08-18T07:49:08.000Z</time>
      </trkpt>
      <trkpt lat="46.07561" lon="3.48166">
        <ele>413</ele>
        <time>2013-08-18T07:49:10.000Z</time>
      </trkpt>
      <trkpt lat="46.07561" lon="3.48166">
        <ele>413</ele>
        <time>2013-08-18T07:49:12.000Z</time>
      </trkpt>
      <trkpt lat="46.07561" lon="3.48166">
        <ele>413</ele>
        <time>2013-08-18T07:49:14.000Z</time>
      </trkpt>
      <trkpt lat="46.07585" lon="3.48187">
        <ele>410</ele>
        <time>2013-08-18T07:49:18.000Z</time>
      </trkpt>
      <trkpt lat="46.07598" lon="3.48197">
        <ele>412</ele>
        <time>2013-08-18T07:49:20.000Z</time>
      </trkpt>
      <trkpt lat="46.07607" lon="3.48205">
        <ele>411</ele>
        <time>2013-08-18T07:49:22.000Z</time>
      </trkpt>
      <trkpt lat="46.07613" lon="3.48209">
        <ele>412</ele>
        <time>2013-08-18T07:49:24.000Z</time>
      </trkpt>
      <trkpt lat="46.07619" lon="3.48212">
        <ele>413</ele>
        <time>2013-08-18T07:49:26.000Z</time>
      </trkpt>
      <trkpt lat="46.07628" lon="3.48217">
        <ele>412</ele>
        <time>2013-08-18T07:49:28.000Z</time>
      </trkpt>
      <trkpt lat="46.07639" lon="3.48226">
        <ele>412</ele>
        <time>2013-08-18T07:49:34.000Z</time>
      </trkpt>
      <trkpt lat="46.07639" lon="3.48226">
        <ele>412</ele>
        <time>2013-08-18T07:49:36.000Z</time>
      </trkpt>
      <trkpt lat="46.0765" lon="3.48217">
        <ele>411</ele>
        <time>2013-08-18T07:49:38.000Z</time>
      </trkpt>
      <trkpt lat="46.0765" lon="3.48217">
        <ele>411</ele>
        <time>2013-08-18T07:49:40.000Z</time>
      </trkpt>
      <trkpt lat="46.0765" lon="3.48217">
        <ele>411</ele>
        <time>2013-08-18T07:49:42.000Z</time>
      </trkpt>
      <trkpt lat="46.0765" lon="3.48217">
        <ele>411</ele>
        <time>2013-08-18T07:49:44.000Z</time>
      </trkpt>
      <trkpt lat="46.0765" lon="3.48217">
        <ele>411</ele>
        <time>2013-08-18T07:49:46.000Z</time>
      </trkpt>
      <trkpt lat="46.0765" lon="3.48217">
        <ele>411</ele>
        <time>2013-08-18T07:49:48.000Z</time>
      </trkpt>
      <trkpt lat="46.0765" lon="3.48217">
        <ele>411</ele>
        <time>2013-08-18T07:49:50.000Z</time>
      </trkpt>
      <trkpt lat="46.0765" lon="3.48217">
        <ele>411</ele>
        <time>2013-08-18T07:49:52.000Z</time>
      </trkpt>
      <trkpt lat="46.0765" lon="3.48217">
        <ele>411</ele>
        <time>2013-08-18T07:49:54.000Z</time>
      </trkpt>
      <trkpt lat="46.0765" lon="3.48217">
        <ele>411</ele>
        <time>2013-08-18T07:49:56.000Z</time>
      </trkpt>
      <trkpt lat="46.07677" lon="3.48271">
        <ele>414</ele>
        <time>2013-08-18T07:50:14.000Z</time>
      </trkpt>
      <trkpt lat="46.07684" lon="3.48283">
        <ele>415</ele>
        <time>2013-08-18T07:50:20.000Z</time>
      </trkpt>
      <trkpt lat="46.07684" lon="3.48283">
        <ele>415</ele>
        <time>2013-08-18T07:50:22.000Z</time>
      </trkpt>
      <trkpt lat="46.07684" lon="3.48283">
        <ele>415</ele>
        <time>2013-08-18T07:50:24.000Z</time>
      </trkpt>
      <trkpt lat="46.07684" lon="3.48283">
        <ele>415</ele>
        <time>2013-08-18T07:50:26.000Z</time>
      </trkpt>
      <trkpt lat="46.07684" lon="3.48283">
        <ele>415</ele>
        <time>2013-08-18T07:50:28.000Z</time>
      </trkpt>
      <trkpt lat="46.07684" lon="3.48283">
        <ele>415</ele>
        <time>2013-08-18T07:50:30.000Z</time>
      </trkpt>
      <trkpt lat="46.07695" lon="3.48313">
        <ele>417</ele>
        <time>2013-08-18T07:50:32.000Z</time>
      </trkpt>
      <trkpt lat="46.07699" lon="3.48326">
        <ele>416</ele>
        <time>2013-08-18T07:50:36.000Z</time>
      </trkpt>
      <trkpt lat="46.07699" lon="3.48326">
        <ele>416</ele>
        <time>2013-08-18T07:50:38.000Z</time>
      </trkpt>
      <trkpt lat="46.07699" lon="3.48326">
        <ele>416</ele>
        <time>2013-08-18T07:50:40.000Z</time>
      </trkpt>
      <trkpt lat="46.07699" lon="3.48326">
        <ele>416</ele>
        <time>2013-08-18T07:50:42.000Z</time>
      </trkpt>
      <trkpt lat="46.07699" lon="3.48326">
        <ele>416</ele>
        <time>2013-08-18T07:50:44.000Z</time>
      </trkpt>
      <trkpt lat="46.07699" lon="3.48326">
        <ele>416</ele>
        <time>2013-08-18T07:50:46.000Z</time>
      </trkpt>
      <trkpt lat="46.07704" lon="3.48339">
        <ele>422</ele>
        <time>2013-08-18T07:50:50.000Z</time>
      </trkpt>
      <trkpt lat="46.07706" lon="3.48348">
        <ele>423</ele>
        <time>2013-08-18T07:50:52.000Z</time>
      </trkpt>
      <trkpt lat="46.07709" lon="3.48354">
        <ele>426</ele>
        <time>2013-08-18T07:50:54.000Z</time>
      </trkpt>
      <trkpt lat="46.07709" lon="3.48354">
        <ele>426</ele>
        <time>2013-08-18T07:50:56.000Z</time>
      </trkpt>
      <trkpt lat="46.07709" lon="3.48354">
        <ele>426</ele>
        <time>2013-08-18T07:50:58.000Z</time>
      </trkpt>
      <trkpt lat="46.07709" lon="3.48354">
        <ele>426</ele>
        <time>2013-08-18T07:51:00.000Z</time>
      </trkpt>
      <trkpt lat="46.07709" lon="3.48354">
        <ele>426</ele>
        <time>2013-08-18T07:51:02.000Z</time>
      </trkpt>
      <trkpt lat="46.07709" lon="3.48354">
        <ele>426</ele>
        <time>2013-08-18T07:51:04.000Z</time>
      </trkpt>
      <trkpt lat="46.07708" lon="3.48366">
        <ele>429</ele>
        <time>2013-08-18T07:51:06.000Z</time>
      </trkpt>
      <trkpt lat="46.07709" lon="3.48375">
        <ele>430</ele>
        <time>2013-08-18T07:51:08.000Z</time>
      </trkpt>
      <trkpt lat="46.0771" lon="3.48382">
        <ele>431</ele>
        <time>2013-08-18T07:51:10.000Z</time>
      </trkpt>
      <trkpt lat="46.07712" lon="3.48389">
        <ele>430</ele>
        <time>2013-08-18T07:51:12.000Z</time>
      </trkpt>
      <trkpt lat="46.07713" lon="3.48396">
        <ele>430</ele>
        <time>2013-08-18T07:51:14.000Z</time>
      </trkpt>
      <trkpt lat="46.07713" lon="3.48396">
        <ele>430</ele>
        <time>2013-08-18T07:51:16.000Z</time>
      </trkpt>
      <trkpt lat="46.07713" lon="3.48396">
        <ele>430</ele>
        <time>2013-08-18T07:51:18.000Z</time>
      </trkpt>
      <trkpt lat="46.07713" lon="3.48396">
        <ele>430</ele>
        <time>2013-08-18T07:51:24.000Z</time>
      </trkpt>
      <trkpt lat="46.07713" lon="3.48396">
        <ele>430</ele>
        <time>2013-08-18T07:51:26.000Z</time>
      </trkpt>
      <trkpt lat="46.07736" lon="3.48448">
        <ele>426</ele>
        <time>2013-08-18T07:51:31.000Z</time>
      </trkpt>
      <trkpt lat="46.07736" lon="3.48448">
        <ele>426</ele>
        <time>2013-08-18T07:51:33.000Z</time>
      </trkpt>
      <trkpt lat="46.07736" lon="3.48448">
        <ele>426</ele>
        <time>2013-08-18T07:51:35.000Z</time>
      </trkpt>
      <trkpt lat="46.07736" lon="3.48448">
        <ele>426</ele>
        <time>2013-08-18T07:51:37.000Z</time>
      </trkpt>
      <trkpt lat="46.0775" lon="3.48475">
        <ele>424</ele>
        <time>2013-08-18T07:51:41.000Z</time>
      </trkpt>
      <trkpt lat="46.07756" lon="3.48487">
        <ele>423</ele>
        <time>2013-08-18T07:51:45.000Z</time>
      </trkpt>
      <trkpt lat="46.07756" lon="3.48487">
        <ele>423</ele>
        <time>2013-08-18T07:51:52.000Z</time>
      </trkpt>
      <trkpt lat="46.07777" lon="3.48502">
        <ele>422</ele>
        <time>2013-08-18T07:51:56.000Z</time>
      </trkpt>
      <trkpt lat="46.07777" lon="3.48502">
        <ele>422</ele>
        <time>2013-08-18T07:51:58.000Z</time>
      </trkpt>
      <trkpt lat="46.07786" lon="3.48511">
        <ele>422</ele>
        <time>2013-08-18T07:52:00.000Z</time>
      </trkpt>
      <trkpt lat="46.07786" lon="3.48511">
        <ele>422</ele>
        <time>2013-08-18T07:52:02.000Z</time>
      </trkpt>
      <trkpt lat="46.07786" lon="3.48511">
        <ele>422</ele>
        <time>2013-08-18T07:52:04.000Z</time>
      </trkpt>
      <trkpt lat="46.07786" lon="3.48511">
        <ele>422</ele>
        <time>2013-08-18T07:52:06.000Z</time>
      </trkpt>
      <trkpt lat="46.07786" lon="3.48511">
        <ele>422</ele>
        <time>2013-08-18T07:52:08.000Z</time>
      </trkpt>
      <trkpt lat="46.07786" lon="3.48511">
        <ele>422</ele>
        <time>2013-08-18T07:52:10.000Z</time>
      </trkpt>
      <trkpt lat="46.07786" lon="3.48511">
        <ele>422</ele>
        <time>2013-08-18T07:52:12.000Z</time>
      </trkpt>
      <trkpt lat="46.07786" lon="3.48511">
        <ele>422</ele>
        <time>2013-08-18T07:52:14.000Z</time>
      </trkpt>
      <trkpt lat="46.07778" lon="3.48536">
        <ele>428</ele>
        <time>2013-08-18T07:52:16.000Z</time>
      </trkpt>
      <trkpt lat="46.07775" lon="3.48557">
        <ele>428</ele>
        <time>2013-08-18T07:52:20.000Z</time>
      </trkpt>
      <trkpt lat="46.07779" lon="3.48571">
        <ele>429</ele>
        <time>2013-08-18T07:52:26.000Z</time>
      </trkpt>
      <trkpt lat="46.07779" lon="3.48571">
        <ele>429</ele>
        <time>2013-08-18T07:52:28.000Z</time>
      </trkpt>
      <trkpt lat="46.07779" lon="3.48571">
        <ele>429</ele>
        <time>2013-08-18T07:52:30.000Z</time>
      </trkpt>
      <trkpt lat="46.07779" lon="3.48571">
        <ele>429</ele>
        <time>2013-08-18T07:52:32.000Z</time>
      </trkpt>
      <trkpt lat="46.07779" lon="3.48571">
        <ele>429</ele>
        <time>2013-08-18T07:52:34.000Z</time>
      </trkpt>
      <trkpt lat="46.07779" lon="3.48571">
        <ele>429</ele>
        <time>2013-08-18T07:52:36.000Z</time>
      </trkpt>
      <trkpt lat="46.07779" lon="3.48571">
        <ele>429</ele>
        <time>2013-08-18T07:52:38.000Z</time>
      </trkpt>
      <trkpt lat="46.07779" lon="3.48571">
        <ele>429</ele>
        <time>2013-08-18T07:52:40.000Z</time>
      </trkpt>
      <trkpt lat="46.07763" lon="3.48582">
        <ele>436</ele>
        <time>2013-08-18T07:52:44.000Z</time>
      </trkpt>
      <trkpt lat="46.07754" lon="3.4859">
        <ele>437</ele>
        <time>2013-08-18T07:52:46.000Z</time>
      </trkpt>
      <trkpt lat="46.07747" lon="3.48597">
        <ele>437</ele>
        <time>2013-08-18T07:52:48.000Z</time>
      </trkpt>
      <trkpt lat="46.07743" lon="3.48604">
        <ele>438</ele>
        <time>2013-08-18T07:52:50.000Z</time>
      </trkpt>
      <trkpt lat="46.07741" lon="3.48611">
        <ele>437</ele>
        <time>2013-08-18T07:52:52.000Z</time>
      </trkpt>
      <trkpt lat="46.07741" lon="3.48611">
        <ele>437</ele>
        <time>2013-08-18T07:52:54.000Z</time>
      </trkpt>
      <trkpt lat="46.07741" lon="3.48611">
        <ele>437</ele>
        <time>2013-08-18T07:52:56.000Z</time>
      </trkpt>
      <trkpt lat="46.07741" lon="3.48611">
        <ele>437</ele>
        <time>2013-08-18T07:52:58.000Z</time>
      </trkpt>
      <trkpt lat="46.07741" lon="3.48611">
        <ele>437</ele>
        <time>2013-08-18T07:53:00.000Z</time>
      </trkpt>
      <trkpt lat="46.07741" lon="3.48611">
        <ele>437</ele>
        <time>2013-08-18T07:53:02.000Z</time>
      </trkpt>
      <trkpt lat="46.07741" lon="3.48611">
        <ele>437</ele>
        <time>2013-08-18T07:53:04.000Z</time>
      </trkpt>
      <trkpt lat="46.0772" lon="3.48656">
        <ele>441</ele>
        <time>2013-08-18T07:53:12.000Z</time>
      </trkpt>
      <trkpt lat="46.0772" lon="3.48656">
        <ele>441</ele>
        <time>2013-08-18T07:53:14.000Z</time>
      </trkpt>
      <trkpt lat="46.07708" lon="3.48662">
        <ele>443</ele>
        <time>2013-08-18T07:53:18.000Z</time>
      </trkpt>
      <trkpt lat="46.07704" lon="3.48675">
        <ele>442</ele>
        <time>2013-08-18T07:53:22.000Z</time>
      </trkpt>
      <trkpt lat="46.07704" lon="3.48675">
        <ele>442</ele>
        <time>2013-08-18T07:53:24.000Z</time>
      </trkpt>
      <trkpt lat="46.07704" lon="3.48693">
        <ele>441</ele>
        <time>2013-08-18T07:53:28.000Z</time>
      </trkpt>
      <trkpt lat="46.07704" lon="3.48693">
        <ele>441</ele>
        <time>2013-08-18T07:53:30.000Z</time>
      </trkpt>
      <trkpt lat="46.07704" lon="3.48693">
        <ele>441</ele>
        <time>2013-08-18T07:53:32.000Z</time>
      </trkpt>
      <trkpt lat="46.07704" lon="3.48693">
        <ele>441</ele>
        <time>2013-08-18T07:53:34.000Z</time>
      </trkpt>
      <trkpt lat="46.07704" lon="3.48693">
        <ele>441</ele>
        <time>2013-08-18T07:53:36.000Z</time>
      </trkpt>
      <trkpt lat="46.07704" lon="3.48693">
        <ele>441</ele>
        <time>2013-08-18T07:53:38.000Z</time>
      </trkpt>
      <trkpt lat="46.07704" lon="3.48693">
        <ele>441</ele>
        <time>2013-08-18T07:53:40.000Z</time>
      </trkpt>
      <trkpt lat="46.07704" lon="3.48693">
        <ele>441</ele>
        <time>2013-08-18T07:53:42.000Z</time>
      </trkpt>
      <trkpt lat="46.0767" lon="3.48717">
        <ele>444</ele>
        <time>2013-08-18T07:53:46.000Z</time>
      </trkpt>
      <trkpt lat="46.0767" lon="3.48717">
        <ele>444</ele>
        <time>2013-08-18T07:53:48.000Z</time>
      </trkpt>
      <trkpt lat="46.0767" lon="3.48717">
        <ele>444</ele>
        <time>2013-08-18T07:53:50.000Z</time>
      </trkpt>
      <trkpt lat="46.0767" lon="3.48717">
        <ele>444</ele>
        <time>2013-08-18T07:53:52.000Z</time>
      </trkpt>
      <trkpt lat="46.0767" lon="3.48717">
        <ele>444</ele>
        <time>2013-08-18T07:53:54.000Z</time>
      </trkpt>
      <trkpt lat="46.0767" lon="3.48717">
        <ele>444</ele>
        <time>2013-08-18T07:53:56.000Z</time>
      </trkpt>
      <trkpt lat="46.0767" lon="3.48717">
        <ele>444</ele>
        <time>2013-08-18T07:53:58.000Z</time>
      </trkpt>
      <trkpt lat="46.07645" lon="3.48745">
        <ele>445</ele>
        <time>2013-08-18T07:54:02.000Z</time>
      </trkpt>
      <trkpt lat="46.07639" lon="3.48747">
        <ele>445</ele>
        <time>2013-08-18T07:54:08.000Z</time>
      </trkpt>
      <trkpt lat="46.07639" lon="3.48747">
        <ele>445</ele>
        <time>2013-08-18T07:54:10.000Z</time>
      </trkpt>
      <trkpt lat="46.07639" lon="3.48747">
        <ele>445</ele>
        <time>2013-08-18T07:54:12.000Z</time>
      </trkpt>
      <trkpt lat="46.07629" lon="3.48753">
        <ele>446</ele>
        <time>2013-08-18T07:54:16.000Z</time>
      </trkpt>
      <trkpt lat="46.07622" lon="3.48755">
        <ele>447</ele>
        <time>2013-08-18T07:54:18.000Z</time>
      </trkpt>
      <trkpt lat="46.07617" lon="3.48758">
        <ele>446</ele>
        <time>2013-08-18T07:54:20.000Z</time>
      </trkpt>
      <trkpt lat="46.07617" lon="3.48758">
        <ele>446</ele>
        <time>2013-08-18T07:54:22.000Z</time>
      </trkpt>
      <trkpt lat="46.07617" lon="3.48758">
        <ele>446</ele>
        <time>2013-08-18T07:54:24.000Z</time>
      </trkpt>
      <trkpt lat="46.07617" lon="3.48758">
        <ele>446</ele>
        <time>2013-08-18T07:54:26.000Z</time>
      </trkpt>
      <trkpt lat="46.07617" lon="3.48758">
        <ele>446</ele>
        <time>2013-08-18T07:54:28.000Z</time>
      </trkpt>
      <trkpt lat="46.07617" lon="3.48758">
        <ele>446</ele>
        <time>2013-08-18T07:54:30.000Z</time>
      </trkpt>
      <trkpt lat="46.07604" lon="3.48767">
        <ele>448</ele>
        <time>2013-08-18T07:54:36.000Z</time>
      </trkpt>
      <trkpt lat="46.07596" lon="3.48772">
        <ele>448</ele>
        <time>2013-08-18T07:54:38.000Z</time>
      </trkpt>
      <trkpt lat="46.07596" lon="3.48772">
        <ele>448</ele>
        <time>2013-08-18T07:54:40.000Z</time>
      </trkpt>
      <trkpt lat="46.07596" lon="3.48772">
        <ele>448</ele>
        <time>2013-08-18T07:54:42.000Z</time>
      </trkpt>
      <trkpt lat="46.07596" lon="3.48772">
        <ele>448</ele>
        <time>2013-08-18T07:54:44.000Z</time>
      </trkpt>
      <trkpt lat="46.07596" lon="3.48772">
        <ele>448</ele>
        <time>2013-08-18T07:54:46.000Z</time>
      </trkpt>
      <trkpt lat="46.07596" lon="3.48772">
        <ele>448</ele>
        <time>2013-08-18T07:54:48.000Z</time>
      </trkpt>
      <trkpt lat="46.07582" lon="3.48782">
        <ele>451</ele>
        <time>2013-08-18T07:54:52.000Z</time>
      </trkpt>
      <trkpt lat="46.07575" lon="3.48788">
        <ele>452</ele>
        <time>2013-08-18T07:54:54.000Z</time>
      </trkpt>
      <trkpt lat="46.07565" lon="3.48798">
        <ele>450</ele>
        <time>2013-08-18T07:54:58.000Z</time>
      </trkpt>
      <trkpt lat="46.07558" lon="3.48805">
        <ele>452</ele>
        <time>2013-08-18T07:55:01.000Z</time>
      </trkpt>
      <trkpt lat="46.07553" lon="3.4881">
        <ele>453</ele>
        <time>2013-08-18T07:55:03.000Z</time>
      </trkpt>
      <trkpt lat="46.07553" lon="3.4881">
        <ele>453</ele>
        <time>2013-08-18T07:55:05.000Z</time>
      </trkpt>
      <trkpt lat="46.07553" lon="3.4881">
        <ele>453</ele>
        <time>2013-08-18T07:55:07.000Z</time>
      </trkpt>
      <trkpt lat="46.07553" lon="3.4881">
        <ele>453</ele>
        <time>2013-08-18T07:55:09.000Z</time>
      </trkpt>
      <trkpt lat="46.07553" lon="3.4881">
        <ele>453</ele>
        <time>2013-08-18T07:55:11.000Z</time>
      </trkpt>
      <trkpt lat="46.07553" lon="3.4881">
        <ele>453</ele>
        <time>2013-08-18T07:55:13.000Z</time>
      </trkpt>
      <trkpt lat="46.07553" lon="3.4881">
        <ele>453</ele>
        <time>2013-08-18T07:55:15.000Z</time>
      </trkpt>
      <trkpt lat="46.07553" lon="3.4881">
        <ele>453</ele>
        <time>2013-08-18T07:55:17.000Z</time>
      </trkpt>
      <trkpt lat="46.07553" lon="3.4881">
        <ele>453</ele>
        <time>2013-08-18T07:55:19.000Z</time>
      </trkpt>
      <trkpt lat="46.07553" lon="3.4881">
        <ele>453</ele>
        <time>2013-08-18T07:55:21.000Z</time>
      </trkpt>
      <trkpt lat="46.07524" lon="3.48853">
        <ele>456</ele>
        <time>2013-08-18T07:55:25.000Z</time>
      </trkpt>
      <trkpt lat="46.07517" lon="3.48861">
        <ele>457</ele>
        <time>2013-08-18T07:55:29.000Z</time>
      </trkpt>
      <trkpt lat="46.07517" lon="3.48861">
        <ele>457</ele>
        <time>2013-08-18T07:55:31.000Z</time>
      </trkpt>
      <trkpt lat="46.07517" lon="3.48861">
        <ele>457</ele>
        <time>2013-08-18T07:55:33.000Z</time>
      </trkpt>
      <trkpt lat="46.07517" lon="3.48861">
        <ele>457</ele>
        <time>2013-08-18T07:55:35.000Z</time>
      </trkpt>
      <trkpt lat="46.07517" lon="3.48861">
        <ele>457</ele>
        <time>2013-08-18T07:55:37.000Z</time>
      </trkpt>
      <trkpt lat="46.07497" lon="3.48886">
        <ele>457</ele>
        <time>2013-08-18T07:55:43.000Z</time>
      </trkpt>
      <trkpt lat="46.0749" lon="3.48894">
        <ele>461</ele>
        <time>2013-08-18T07:55:49.000Z</time>
      </trkpt>
      <trkpt lat="46.0749" lon="3.48894">
        <ele>461</ele>
        <time>2013-08-18T07:55:51.000Z</time>
      </trkpt>
      <trkpt lat="46.0749" lon="3.48894">
        <ele>461</ele>
        <time>2013-08-18T07:55:53.000Z</time>
      </trkpt>
      <trkpt lat="46.0749" lon="3.48894">
        <ele>461</ele>
        <time>2013-08-18T07:55:55.000Z</time>
      </trkpt>
      <trkpt lat="46.0749" lon="3.48894">
        <ele>461</ele>
        <time>2013-08-18T07:55:57.000Z</time>
      </trkpt>
      <trkpt lat="46.0749" lon="3.48894">
        <ele>461</ele>
        <time>2013-08-18T07:55:59.000Z</time>
      </trkpt>
      <trkpt lat="46.0749" lon="3.48894">
        <ele>461</ele>
        <time>2013-08-18T07:56:01.000Z</time>
      </trkpt>
      <trkpt lat="46.07466" lon="3.48909">
        <ele>473</ele>
        <time>2013-08-18T07:56:07.000Z</time>
      </trkpt>
      <trkpt lat="46.07457" lon="3.48916">
        <ele>473</ele>
        <time>2013-08-18T07:56:13.000Z</time>
      </trkpt>
      <trkpt lat="46.07454" lon="3.48921">
        <ele>475</ele>
        <time>2013-08-18T07:56:19.000Z</time>
      </trkpt>
      <trkpt lat="46.07454" lon="3.48921">
        <ele>475</ele>
        <time>2013-08-18T07:56:21.000Z</time>
      </trkpt>
      <trkpt lat="46.07454" lon="3.48921">
        <ele>475</ele>
        <time>2013-08-18T07:56:23.000Z</time>
      </trkpt>
      <trkpt lat="46.07454" lon="3.48921">
        <ele>475</ele>
        <time>2013-08-18T07:56:25.000Z</time>
      </trkpt>
      <trkpt lat="46.07454" lon="3.48921">
        <ele>475</ele>
        <time>2013-08-18T07:56:27.000Z</time>
      </trkpt>
      <trkpt lat="46.07454" lon="3.48921">
        <ele>475</ele>
        <time>2013-08-18T07:56:29.000Z</time>
      </trkpt>
      <trkpt lat="46.07454" lon="3.48921">
        <ele>475</ele>
        <time>2013-08-18T07:56:35.000Z</time>
      </trkpt>
      <trkpt lat="46.07454" lon="3.48921">
        <ele>475</ele>
        <time>2013-08-18T07:56:37.000Z</time>
      </trkpt>
      <trkpt lat="46.07454" lon="3.48921">
        <ele>475</ele>
        <time>2013-08-18T07:56:39.000Z</time>
      </trkpt>
      <trkpt lat="46.07436" lon="3.48942">
        <ele>486</ele>
        <time>2013-08-18T07:56:45.000Z</time>
      </trkpt>
      <trkpt lat="46.07427" lon="3.48953">
        <ele>485</ele>
        <time>2013-08-18T07:56:47.000Z</time>
      </trkpt>
      <trkpt lat="46.07421" lon="3.48961">
        <ele>485</ele>
        <time>2013-08-18T07:56:49.000Z</time>
      </trkpt>
      <trkpt lat="46.07416" lon="3.48965">
        <ele>485</ele>
        <time>2013-08-18T07:56:51.000Z</time>
      </trkpt>
      <trkpt lat="46.07411" lon="3.4897">
        <ele>485</ele>
        <time>2013-08-18T07:56:55.000Z</time>
      </trkpt>
      <trkpt lat="46.07411" lon="3.4897">
        <ele>485</ele>
        <time>2013-08-18T07:56:57.000Z</time>
      </trkpt>
      <trkpt lat="46.07411" lon="3.4897">
        <ele>485</ele>
        <time>2013-08-18T07:56:59.000Z</time>
      </trkpt>
      <trkpt lat="46.07411" lon="3.4897">
        <ele>485</ele>
        <time>2013-08-18T07:57:01.000Z</time>
      </trkpt>
      <trkpt lat="46.07404" lon="3.48981">
        <ele>489</ele>
        <time>2013-08-18T07:57:05.000Z</time>
      </trkpt>
      <trkpt lat="46.07399" lon="3.48987">
        <ele>489</ele>
        <time>2013-08-18T07:57:07.000Z</time>
      </trkpt>
      <trkpt lat="46.07395" lon="3.48991">
        <ele>489</ele>
        <time>2013-08-18T07:57:09.000Z</time>
      </trkpt>
      <trkpt lat="46.07391" lon="3.48996">
        <ele>490</ele>
        <time>2013-08-18T07:57:11.000Z</time>
      </trkpt>
      <trkpt lat="46.07387" lon="3.48999">
        <ele>490</ele>
        <time>2013-08-18T07:57:13.000Z</time>
      </trkpt>
      <trkpt lat="46.07378" lon="3.49008">
        <ele>492</ele>
        <time>2013-08-18T07:57:17.000Z</time>
      </trkpt>
      <trkpt lat="46.07378" lon="3.49008">
        <ele>492</ele>
        <time>2013-08-18T07:57:19.000Z</time>
      </trkpt>
      <trkpt lat="46.07378" lon="3.49008">
        <ele>492</ele>
        <time>2013-08-18T07:57:21.000Z</time>
      </trkpt>
      <trkpt lat="46.07378" lon="3.49008">
        <ele>492</ele>
        <time>2013-08-18T07:57:23.000Z</time>
      </trkpt>
      <trkpt lat="46.07378" lon="3.49008">
        <ele>492</ele>
        <time>2013-08-18T07:57:25.000Z</time>
      </trkpt>
      <trkpt lat="46.07378" lon="3.49008">
        <ele>492</ele>
        <time>2013-08-18T07:57:27.000Z</time>
      </trkpt>
      <trkpt lat="46.07378" lon="3.49008">
        <ele>492</ele>
        <time>2013-08-18T07:57:29.000Z</time>
      </trkpt>
      <trkpt lat="46.07378" lon="3.49008">
        <ele>492</ele>
        <time>2013-08-18T07:57:31.000Z</time>
      </trkpt>
      <trkpt lat="46.07378" lon="3.49008">
        <ele>492</ele>
        <time>2013-08-18T07:57:33.000Z</time>
      </trkpt>
      <trkpt lat="46.07378" lon="3.49008">
        <ele>492</ele>
        <time>2013-08-18T07:57:35.000Z</time>
      </trkpt>
      <trkpt lat="46.07378" lon="3.49008">
        <ele>492</ele>
        <time>2013-08-18T07:57:37.000Z</time>
      </trkpt>
      <trkpt lat="46.07338" lon="3.49044">
        <ele>492</ele>
        <time>2013-08-18T07:57:43.000Z</time>
      </trkpt>
      <trkpt lat="46.0733" lon="3.4905">
        <ele>493</ele>
        <time>2013-08-18T07:57:49.000Z</time>
      </trkpt>
      <trkpt lat="46.0733" lon="3.4905">
        <ele>493</ele>
        <time>2013-08-18T07:57:51.000Z</time>
      </trkpt>
      <trkpt lat="46.0733" lon="3.4905">
        <ele>493</ele>
        <time>2013-08-18T07:57:53.000Z</time>
      </trkpt>
      <trkpt lat="46.0733" lon="3.4905">
        <ele>493</ele>
        <time>2013-08-18T07:57:55.000Z</time>
      </trkpt>
      <trkpt lat="46.0733" lon="3.4905">
        <ele>493</ele>
        <time>2013-08-18T07:57:57.000Z</time>
      </trkpt>
      <trkpt lat="46.0733" lon="3.4905">
        <ele>493</ele>
        <time>2013-08-18T07:57:59.000Z</time>
      </trkpt>
      <trkpt lat="46.0733" lon="3.4905">
        <ele>493</ele>
        <time>2013-08-18T07:58:01.000Z</time>
      </trkpt>
      <trkpt lat="46.0733" lon="3.4905">
        <ele>493</ele>
        <time>2013-08-18T07:58:03.000Z</time>
      </trkpt>
      <trkpt lat="46.07305" lon="3.4905">
        <ele>498</ele>
        <time>2013-08-18T07:58:05.000Z</time>
      </trkpt>
      <trkpt lat="46.07296" lon="3.49052">
        <ele>498</ele>
        <time>2013-08-18T07:58:09.000Z</time>
      </trkpt>
      <trkpt lat="46.07296" lon="3.49052">
        <ele>498</ele>
        <time>2013-08-18T07:58:11.000Z</time>
      </trkpt>
      <trkpt lat="46.07296" lon="3.49052">
        <ele>498</ele>
        <time>2013-08-18T07:58:13.000Z</time>
      </trkpt>
      <trkpt lat="46.07296" lon="3.49052">
        <ele>498</ele>
        <time>2013-08-18T07:58:15.000Z</time>
      </trkpt>
      <trkpt lat="46.07296" lon="3.49052">
        <ele>498</ele>
        <time>2013-08-18T07:58:17.000Z</time>
      </trkpt>
      <trkpt lat="46.07296" lon="3.49052">
        <ele>498</ele>
        <time>2013-08-18T07:58:19.000Z</time>
      </trkpt>
      <trkpt lat="46.07296" lon="3.49052">
        <ele>498</ele>
        <time>2013-08-18T07:58:21.000Z</time>
      </trkpt>
      <trkpt lat="46.0728" lon="3.49057">
        <ele>497</ele>
        <time>2013-08-18T07:59:10.000Z</time>
      </trkpt>
      <trkpt lat="46.07271" lon="3.49058">
        <ele>498</ele>
        <time>2013-08-18T07:59:12.000Z</time>
      </trkpt>
      <trkpt lat="46.07268" lon="3.49063">
        <ele>499</ele>
        <time>2013-08-18T07:59:14.000Z</time>
      </trkpt>
      <trkpt lat="46.07268" lon="3.49063">
        <ele>499</ele>
        <time>2013-08-18T07:59:16.000Z</time>
      </trkpt>
      <trkpt lat="46.07262" lon="3.49065">
        <ele>503</ele>
        <time>2013-08-18T07:59:18.000Z</time>
      </trkpt>
      <trkpt lat="46.07262" lon="3.49065">
        <ele>503</ele>
        <time>2013-08-18T07:59:20.000Z</time>
      </trkpt>
      <trkpt lat="46.07262" lon="3.49065">
        <ele>503</ele>
        <time>2013-08-18T07:59:22.000Z</time>
      </trkpt>
      <trkpt lat="46.07257" lon="3.49075">
        <ele>503</ele>
        <time>2013-08-18T07:59:25.000Z</time>
      </trkpt>
      <trkpt lat="46.07257" lon="3.49084">
        <ele>502</ele>
        <time>2013-08-18T07:59:27.000Z</time>
      </trkpt>
      <trkpt lat="46.07257" lon="3.49092">
        <ele>499</ele>
        <time>2013-08-18T07:59:29.000Z</time>
      </trkpt>
      <trkpt lat="46.07258" lon="3.49099">
        <ele>499</ele>
        <time>2013-08-18T07:59:31.000Z</time>
      </trkpt>
      <trkpt lat="46.0726" lon="3.49105">
        <ele>498</ele>
        <time>2013-08-18T07:59:33.000Z</time>
      </trkpt>
      <trkpt lat="46.07268" lon="3.49112">
        <ele>496</ele>
        <time>2013-08-18T07:59:35.000Z</time>
      </trkpt>
      <trkpt lat="46.07275" lon="3.49125">
        <ele>497</ele>
        <time>2013-08-18T07:59:39.000Z</time>
      </trkpt>
      <trkpt lat="46.07273" lon="3.49142">
        <ele>495</ele>
        <time>2013-08-18T07:59:43.000Z</time>
      </trkpt>
      <trkpt lat="46.07273" lon="3.49142">
        <ele>495</ele>
        <time>2013-08-18T07:59:48.000Z</time>
      </trkpt>
      <trkpt lat="46.07273" lon="3.49142">
        <ele>495</ele>
        <time>2013-08-18T07:59:50.000Z</time>
      </trkpt>
      <trkpt lat="46.07273" lon="3.49142">
        <ele>495</ele>
        <time>2013-08-18T07:59:52.000Z</time>
      </trkpt>
      <trkpt lat="46.07273" lon="3.49142">
        <ele>495</ele>
        <time>2013-08-18T07:59:54.000Z</time>
      </trkpt>
      <trkpt lat="46.07273" lon="3.49142">
        <ele>495</ele>
        <time>2013-08-18T07:59:56.000Z</time>
      </trkpt>
      <trkpt lat="46.07273" lon="3.49142">
        <ele>495</ele>
        <time>2013-08-18T07:59:58.000Z</time>
      </trkpt>
      <trkpt lat="46.07273" lon="3.49142">
        <ele>495</ele>
        <time>2013-08-18T08:00:02.000Z</time>
      </trkpt>
      <trkpt lat="46.07273" lon="3.49142">
        <ele>495</ele>
        <time>2013-08-18T08:00:04.000Z</time>
      </trkpt>
      <trkpt lat="46.07283" lon="3.49212">
        <ele>501</ele>
        <time>2013-08-18T08:00:08.000Z</time>
      </trkpt>
      <trkpt lat="46.07282" lon="3.49226">
        <ele>499</ele>
        <time>2013-08-18T08:00:12.000Z</time>
      </trkpt>
      <trkpt lat="46.07282" lon="3.4924">
        <ele>499</ele>
        <time>2013-08-18T08:00:16.000Z</time>
      </trkpt>
      <trkpt lat="46.07282" lon="3.4924">
        <ele>499</ele>
        <time>2013-08-18T08:00:18.000Z</time>
      </trkpt>
      <trkpt lat="46.07282" lon="3.4924">
        <ele>499</ele>
        <time>2013-08-18T08:00:24.000Z</time>
      </trkpt>
      <trkpt lat="46.07282" lon="3.4924">
        <ele>499</ele>
        <time>2013-08-18T08:00:26.000Z</time>
      </trkpt>
      <trkpt lat="46.07282" lon="3.4924">
        <ele>499</ele>
        <time>2013-08-18T08:00:28.000Z</time>
      </trkpt>
      <trkpt lat="46.07285" lon="3.4929">
        <ele>501</ele>
        <time>2013-08-18T08:00:32.000Z</time>
      </trkpt>
      <trkpt lat="46.07285" lon="3.4929">
        <ele>501</ele>
        <time>2013-08-18T08:00:36.000Z</time>
      </trkpt>
      <trkpt lat="46.07285" lon="3.4929">
        <ele>501</ele>
        <time>2013-08-18T08:00:38.000Z</time>
      </trkpt>
      <trkpt lat="46.07285" lon="3.4929">
        <ele>501</ele>
        <time>2013-08-18T08:00:40.000Z</time>
      </trkpt>
      <trkpt lat="46.07285" lon="3.4929">
        <ele>501</ele>
        <time>2013-08-18T08:00:42.000Z</time>
      </trkpt>
      <trkpt lat="46.07285" lon="3.4929">
        <ele>501</ele>
        <time>2013-08-18T08:00:44.000Z</time>
      </trkpt>
      <trkpt lat="46.07291" lon="3.49315">
        <ele>509</ele>
        <time>2013-08-18T08:00:50.000Z</time>
      </trkpt>
      <trkpt lat="46.07295" lon="3.49329">
        <ele>507</ele>
        <time>2013-08-18T08:00:52.000Z</time>
      </trkpt>
      <trkpt lat="46.07295" lon="3.49329">
        <ele>507</ele>
        <time>2013-08-18T08:00:54.000Z</time>
      </trkpt>
      <trkpt lat="46.07295" lon="3.49329">
        <ele>507</ele>
        <time>2013-08-18T08:00:56.000Z</time>
      </trkpt>
      <trkpt lat="46.07296" lon="3.49349">
        <ele>510</ele>
        <time>2013-08-18T08:01:02.000Z</time>
      </trkpt>
      <trkpt lat="46.07296" lon="3.49349">
        <ele>510</ele>
        <time>2013-08-18T08:01:04.000Z</time>
      </trkpt>
      <trkpt lat="46.07296" lon="3.49349">
        <ele>510</ele>
        <time>2013-08-18T08:01:06.000Z</time>
      </trkpt>
      <trkpt lat="46.07307" lon="3.49376">
        <ele>517</ele>
        <time>2013-08-18T08:01:16.000Z</time>
      </trkpt>
      <trkpt lat="46.07314" lon="3.49392">
        <ele>516</ele>
        <time>2013-08-18T08:01:18.000Z</time>
      </trkpt>
      <trkpt lat="46.07319" lon="3.49402">
        <ele>516</ele>
        <time>2013-08-18T08:01:20.000Z</time>
      </trkpt>
      <trkpt lat="46.07323" lon="3.49411">
        <ele>516</ele>
        <time>2013-08-18T08:01:22.000Z</time>
      </trkpt>
      <trkpt lat="46.07326" lon="3.49419">
        <ele>514</ele>
        <time>2013-08-18T08:01:24.000Z</time>
      </trkpt>
      <trkpt lat="46.07326" lon="3.49419">
        <ele>514</ele>
        <time>2013-08-18T08:01:26.000Z</time>
      </trkpt>
      <trkpt lat="46.07326" lon="3.49419">
        <ele>514</ele>
        <time>2013-08-18T08:01:28.000Z</time>
      </trkpt>
      <trkpt lat="46.07326" lon="3.49419">
        <ele>514</ele>
        <time>2013-08-18T08:01:30.000Z</time>
      </trkpt>
      <trkpt lat="46.07326" lon="3.49419">
        <ele>514</ele>
        <time>2013-08-18T08:01:32.000Z</time>
      </trkpt>
      <trkpt lat="46.07326" lon="3.49419">
        <ele>514</ele>
        <time>2013-08-18T08:01:34.000Z</time>
      </trkpt>
      <trkpt lat="46.0735" lon="3.49458">
        <ele>510</ele>
        <time>2013-08-18T08:01:36.000Z</time>
      </trkpt>
      <trkpt lat="46.07359" lon="3.49465">
        <ele>510</ele>
        <time>2013-08-18T08:01:40.000Z</time>
      </trkpt>
      <trkpt lat="46.07359" lon="3.49465">
        <ele>510</ele>
        <time>2013-08-18T08:01:42.000Z</time>
      </trkpt>
      <trkpt lat="46.07359" lon="3.49465">
        <ele>510</ele>
        <time>2013-08-18T08:01:44.000Z</time>
      </trkpt>
      <trkpt lat="46.07373" lon="3.49491">
        <ele>510</ele>
        <time>2013-08-18T08:01:50.000Z</time>
      </trkpt>
      <trkpt lat="46.07373" lon="3.49491">
        <ele>510</ele>
        <time>2013-08-18T08:01:52.000Z</time>
      </trkpt>
      <trkpt lat="46.07373" lon="3.49491">
        <ele>510</ele>
        <time>2013-08-18T08:01:54.000Z</time>
      </trkpt>
      <trkpt lat="46.07373" lon="3.49491">
        <ele>510</ele>
        <time>2013-08-18T08:01:56.000Z</time>
      </trkpt>
      <trkpt lat="46.07373" lon="3.49491">
        <ele>510</ele>
        <time>2013-08-18T08:01:58.000Z</time>
      </trkpt>
      <trkpt lat="46.07373" lon="3.49491">
        <ele>510</ele>
        <time>2013-08-18T08:02:00.000Z</time>
      </trkpt>
      <trkpt lat="46.07373" lon="3.49491">
        <ele>510</ele>
        <time>2013-08-18T08:02:02.000Z</time>
      </trkpt>
      <trkpt lat="46.07373" lon="3.49491">
        <ele>510</ele>
        <time>2013-08-18T08:02:04.000Z</time>
      </trkpt>
      <trkpt lat="46.07397" lon="3.49538">
        <ele>506</ele>
        <time>2013-08-18T08:02:08.000Z</time>
      </trkpt>
      <trkpt lat="46.07405" lon="3.49549">
        <ele>507</ele>
        <time>2013-08-18T08:02:12.000Z</time>
      </trkpt>
      <trkpt lat="46.0741" lon="3.49561">
        <ele>509</ele>
        <time>2013-08-18T08:02:16.000Z</time>
      </trkpt>
      <trkpt lat="46.0741" lon="3.49561">
        <ele>509</ele>
        <time>2013-08-18T08:02:18.000Z</time>
      </trkpt>
      <trkpt lat="46.0741" lon="3.49561">
        <ele>509</ele>
        <time>2013-08-18T08:02:20.000Z</time>
      </trkpt>
      <trkpt lat="46.07421" lon="3.49585">
        <ele>508</ele>
        <time>2013-08-18T08:02:24.000Z</time>
      </trkpt>
      <trkpt lat="46.07427" lon="3.49596">
        <ele>508</ele>
        <time>2013-08-18T08:02:28.000Z</time>
      </trkpt>
      <trkpt lat="46.07427" lon="3.49596">
        <ele>508</ele>
        <time>2013-08-18T08:02:30.000Z</time>
      </trkpt>
      <trkpt lat="46.07427" lon="3.49596">
        <ele>508</ele>
        <time>2013-08-18T08:02:32.000Z</time>
      </trkpt>
      <trkpt lat="46.07427" lon="3.49596">
        <ele>508</ele>
        <time>2013-08-18T08:02:34.000Z</time>
      </trkpt>
      <trkpt lat="46.07427" lon="3.49596">
        <ele>508</ele>
        <time>2013-08-18T08:02:36.000Z</time>
      </trkpt>
      <trkpt lat="46.07427" lon="3.49596">
        <ele>508</ele>
        <time>2013-08-18T08:02:38.000Z</time>
      </trkpt>
      <trkpt lat="46.07438" lon="3.49613">
        <ele>507</ele>
        <time>2013-08-18T08:02:42.000Z</time>
      </trkpt>
      <trkpt lat="46.07443" lon="3.49625">
        <ele>508</ele>
        <time>2013-08-18T08:02:44.000Z</time>
      </trkpt>
      <trkpt lat="46.07447" lon="3.49633">
        <ele>508</ele>
        <time>2013-08-18T08:02:46.000Z</time>
      </trkpt>
      <trkpt lat="46.07451" lon="3.4964">
        <ele>508</ele>
        <time>2013-08-18T08:02:48.000Z</time>
      </trkpt>
      <trkpt lat="46.07451" lon="3.4964">
        <ele>508</ele>
        <time>2013-08-18T08:02:50.000Z</time>
      </trkpt>
      <trkpt lat="46.07451" lon="3.4964">
        <ele>508</ele>
        <time>2013-08-18T08:02:52.000Z</time>
      </trkpt>
      <trkpt lat="46.07451" lon="3.4964">
        <ele>508</ele>
        <time>2013-08-18T08:02:54.000Z</time>
      </trkpt>
      <trkpt lat="46.07451" lon="3.4964">
        <ele>508</ele>
        <time>2013-08-18T08:02:56.000Z</time>
      </trkpt>
      <trkpt lat="46.07462" lon="3.49657">
        <ele>509</ele>
        <time>2013-08-18T08:03:00.000Z</time>
      </trkpt>
      <trkpt lat="46.07469" lon="3.49669">
        <ele>509</ele>
        <time>2013-08-18T08:03:02.000Z</time>
      </trkpt>
      <trkpt lat="46.07475" lon="3.49677">
        <ele>509</ele>
        <time>2013-08-18T08:03:04.000Z</time>
      </trkpt>
      <trkpt lat="46.07481" lon="3.49683">
        <ele>509</ele>
        <time>2013-08-18T08:03:06.000Z</time>
      </trkpt>
      <trkpt lat="46.07485" lon="3.4969">
        <ele>509</ele>
        <time>2013-08-18T08:03:08.000Z</time>
      </trkpt>
      <trkpt lat="46.07493" lon="3.497">
        <ele>509</ele>
        <time>2013-08-18T08:03:10.000Z</time>
      </trkpt>
      <trkpt lat="46.07503" lon="3.49704">
        <ele>510</ele>
        <time>2013-08-18T08:03:14.000Z</time>
      </trkpt>
      <trkpt lat="46.07503" lon="3.49704">
        <ele>510</ele>
        <time>2013-08-18T08:03:16.000Z</time>
      </trkpt>
      <trkpt lat="46.07503" lon="3.49704">
        <ele>510</ele>
        <time>2013-08-18T08:03:18.000Z</time>
      </trkpt>
      <trkpt lat="46.07503" lon="3.49704">
        <ele>510</ele>
        <time>2013-08-18T08:03:20.000Z</time>
      </trkpt>
      <trkpt lat="46.07503" lon="3.49704">
        <ele>510</ele>
        <time>2013-08-18T08:03:22.000Z</time>
      </trkpt>
      <trkpt lat="46.07503" lon="3.49704">
        <ele>510</ele>
        <time>2013-08-18T08:03:24.000Z</time>
      </trkpt>
      <trkpt lat="46.07503" lon="3.49704">
        <ele>510</ele>
        <time>2013-08-18T08:03:26.000Z</time>
      </trkpt>
      <trkpt lat="46.07503" lon="3.49704">
        <ele>510</ele>
        <time>2013-08-18T08:03:28.000Z</time>
      </trkpt>
      <trkpt lat="46.07503" lon="3.49704">
        <ele>510</ele>
        <time>2013-08-18T08:03:30.000Z</time>
      </trkpt>
      <trkpt lat="46.07503" lon="3.49704">
        <ele>510</ele>
        <time>2013-08-18T08:03:32.000Z</time>
      </trkpt>
      <trkpt lat="46.07503" lon="3.49704">
        <ele>510</ele>
        <time>2013-08-18T08:03:34.000Z</time>
      </trkpt>
      <trkpt lat="46.07546" lon="3.49749">
        <ele>516</ele>
        <time>2013-08-18T08:03:38.000Z</time>
      </trkpt>
      <trkpt lat="46.07546" lon="3.49749">
        <ele>516</ele>
        <time>2013-08-18T08:03:40.000Z</time>
      </trkpt>
      <trkpt lat="46.07546" lon="3.49749">
        <ele>516</ele>
        <time>2013-08-18T08:03:42.000Z</time>
      </trkpt>
      <trkpt lat="46.07546" lon="3.49749">
        <ele>516</ele>
        <time>2013-08-18T08:03:44.000Z</time>
      </trkpt>
      <trkpt lat="46.07563" lon="3.49768">
        <ele>515</ele>
        <time>2013-08-18T08:03:46.000Z</time>
      </trkpt>
      <trkpt lat="46.07563" lon="3.49768">
        <ele>515</ele>
        <time>2013-08-18T08:03:50.000Z</time>
      </trkpt>
      <trkpt lat="46.07563" lon="3.49768">
        <ele>515</ele>
        <time>2013-08-18T08:03:52.000Z</time>
      </trkpt>
      <trkpt lat="46.07563" lon="3.49768">
        <ele>515</ele>
        <time>2013-08-18T08:03:54.000Z</time>
      </trkpt>
      <trkpt lat="46.07563" lon="3.49768">
        <ele>515</ele>
        <time>2013-08-18T08:04:04.000Z</time>
      </trkpt>
      <trkpt lat="46.07563" lon="3.49768">
        <ele>515</ele>
        <time>2013-08-18T08:04:06.000Z</time>
      </trkpt>
      <trkpt lat="46.07604" lon="3.49815">
        <ele>512</ele>
        <time>2013-08-18T08:04:08.000Z</time>
      </trkpt>
      <trkpt lat="46.07604" lon="3.49815">
        <ele>512</ele>
        <time>2013-08-18T08:04:12.000Z</time>
      </trkpt>
      <trkpt lat="46.07604" lon="3.49815">
        <ele>512</ele>
        <time>2013-08-18T08:04:14.000Z</time>
      </trkpt>
      <trkpt lat="46.07604" lon="3.49815">
        <ele>512</ele>
        <time>2013-08-18T08:04:16.000Z</time>
      </trkpt>
      <trkpt lat="46.07626" lon="3.49829">
        <ele>513</ele>
        <time>2013-08-18T08:04:18.000Z</time>
      </trkpt>
      <trkpt lat="46.0763" lon="3.49834">
        <ele>511</ele>
        <time>2013-08-18T08:04:22.000Z</time>
      </trkpt>
      <trkpt lat="46.07635" lon="3.4984">
        <ele>509</ele>
        <time>2013-08-18T08:04:24.000Z</time>
      </trkpt>
      <trkpt lat="46.0764" lon="3.49845">
        <ele>509</ele>
        <time>2013-08-18T08:04:26.000Z</time>
      </trkpt>
      <trkpt lat="46.07644" lon="3.49851">
        <ele>508</ele>
        <time>2013-08-18T08:04:28.000Z</time>
      </trkpt>
      <trkpt lat="46.07648" lon="3.49855">
        <ele>508</ele>
        <time>2013-08-18T08:04:30.000Z</time>
      </trkpt>
      <trkpt lat="46.07656" lon="3.49863">
        <ele>508</ele>
        <time>2013-08-18T08:04:32.000Z</time>
      </trkpt>
      <trkpt lat="46.07656" lon="3.49863">
        <ele>508</ele>
        <time>2013-08-18T08:04:34.000Z</time>
      </trkpt>
      <trkpt lat="46.07656" lon="3.49863">
        <ele>508</ele>
        <time>2013-08-18T08:04:36.000Z</time>
      </trkpt>
      <trkpt lat="46.0767" lon="3.49879">
        <ele>508</ele>
        <time>2013-08-18T08:04:38.000Z</time>
      </trkpt>
      <trkpt lat="46.07676" lon="3.4989">
        <ele>507</ele>
        <time>2013-08-18T08:04:42.000Z</time>
      </trkpt>
      <trkpt lat="46.07676" lon="3.4989">
        <ele>507</ele>
        <time>2013-08-18T08:04:44.000Z</time>
      </trkpt>
      <trkpt lat="46.07676" lon="3.4989">
        <ele>507</ele>
        <time>2013-08-18T08:04:46.000Z</time>
      </trkpt>
      <trkpt lat="46.07676" lon="3.4989">
        <ele>507</ele>
        <time>2013-08-18T08:04:50.000Z</time>
      </trkpt>
      <trkpt lat="46.07676" lon="3.4989">
        <ele>507</ele>
        <time>2013-08-18T08:04:52.000Z</time>
      </trkpt>
      <trkpt lat="46.07676" lon="3.4989">
        <ele>507</ele>
        <time>2013-08-18T08:04:54.000Z</time>
      </trkpt>
      <trkpt lat="46.07676" lon="3.4989">
        <ele>507</ele>
        <time>2013-08-18T08:04:56.000Z</time>
      </trkpt>
      <trkpt lat="46.07697" lon="3.49936">
        <ele>506</ele>
        <time>2013-08-18T08:05:00.000Z</time>
      </trkpt>
      <trkpt lat="46.07697" lon="3.49936">
        <ele>506</ele>
        <time>2013-08-18T08:05:04.000Z</time>
      </trkpt>
      <trkpt lat="46.07697" lon="3.49936">
        <ele>506</ele>
        <time>2013-08-18T08:05:06.000Z</time>
      </trkpt>
      <trkpt lat="46.07697" lon="3.49936">
        <ele>506</ele>
        <time>2013-08-18T08:05:08.000Z</time>
      </trkpt>
      <trkpt lat="46.07697" lon="3.49936">
        <ele>506</ele>
        <time>2013-08-18T08:05:10.000Z</time>
      </trkpt>
      <trkpt lat="46.07714" lon="3.49969">
        <ele>512</ele>
        <time>2013-08-18T08:05:14.000Z</time>
      </trkpt>
      <trkpt lat="46.07724" lon="3.49979">
        <ele>511</ele>
        <time>2013-08-18T08:05:18.000Z</time>
      </trkpt>
      <trkpt lat="46.07732" lon="3.49988">
        <ele>512</ele>
        <time>2013-08-18T08:05:22.000Z</time>
      </trkpt>
      <trkpt lat="46.07741" lon="3.49999">
        <ele>510</ele>
        <time>2013-08-18T08:05:26.000Z</time>
      </trkpt>
      <trkpt lat="46.07748" lon="3.50008">
        <ele>510</ele>
        <time>2013-08-18T08:05:30.000Z</time>
      </trkpt>
      <trkpt lat="46.07757" lon="3.50018">
        <ele>510</ele>
        <time>2013-08-18T08:05:34.000Z</time>
      </trkpt>
      <trkpt lat="46.07764" lon="3.50031">
        <ele>512</ele>
        <time>2013-08-18T08:05:38.000Z</time>
      </trkpt>
      <trkpt lat="46.07772" lon="3.5004">
        <ele>514</ele>
        <time>2013-08-18T08:05:42.000Z</time>
      </trkpt>
      <trkpt lat="46.07772" lon="3.5004">
        <ele>514</ele>
        <time>2013-08-18T08:05:44.000Z</time>
      </trkpt>
      <trkpt lat="46.07772" lon="3.5004">
        <ele>514</ele>
        <time>2013-08-18T08:05:46.000Z</time>
      </trkpt>
      <trkpt lat="46.07795" lon="3.5006">
        <ele>510</ele>
        <time>2013-08-18T08:05:52.000Z</time>
      </trkpt>
      <trkpt lat="46.07795" lon="3.5006">
        <ele>510</ele>
        <time>2013-08-18T08:05:54.000Z</time>
      </trkpt>
      <trkpt lat="46.07795" lon="3.5006">
        <ele>510</ele>
        <time>2013-08-18T08:05:56.000Z</time>
      </trkpt>
      <trkpt lat="46.07803" lon="3.50064">
        <ele>513</ele>
        <time>2013-08-18T08:06:00.000Z</time>
      </trkpt>
      <trkpt lat="46.07808" lon="3.50068">
        <ele>514</ele>
        <time>2013-08-18T08:06:02.000Z</time>
      </trkpt>
      <trkpt lat="46.07813" lon="3.50072">
        <ele>513</ele>
        <time>2013-08-18T08:06:04.000Z</time>
      </trkpt>
      <trkpt lat="46.07819" lon="3.50074">
        <ele>514</ele>
        <time>2013-08-18T08:06:06.000Z</time>
      </trkpt>
      <trkpt lat="46.07825" lon="3.50076">
        <ele>513</ele>
        <time>2013-08-18T08:06:08.000Z</time>
      </trkpt>
      <trkpt lat="46.07835" lon="3.50084">
        <ele>512</ele>
        <time>2013-08-18T08:06:10.000Z</time>
      </trkpt>
      <trkpt lat="46.07835" lon="3.50084">
        <ele>512</ele>
        <time>2013-08-18T08:06:12.000Z</time>
      </trkpt>
      <trkpt lat="46.07835" lon="3.50084">
        <ele>512</ele>
        <time>2013-08-18T08:06:14.000Z</time>
      </trkpt>
      <trkpt lat="46.07835" lon="3.50084">
        <ele>512</ele>
        <time>2013-08-18T08:06:16.000Z</time>
      </trkpt>
      <trkpt lat="46.07835" lon="3.50084">
        <ele>512</ele>
        <time>2013-08-18T08:06:18.000Z</time>
      </trkpt>
      <trkpt lat="46.07835" lon="3.50084">
        <ele>512</ele>
        <time>2013-08-18T08:06:20.000Z</time>
      </trkpt>
      <trkpt lat="46.07861" lon="3.50116">
        <ele>518</ele>
        <time>2013-08-18T08:06:26.000Z</time>
      </trkpt>
      <trkpt lat="46.07861" lon="3.50116">
        <ele>518</ele>
        <time>2013-08-18T08:06:28.000Z</time>
      </trkpt>
      <trkpt lat="46.07861" lon="3.50116">
        <ele>518</ele>
        <time>2013-08-18T08:06:30.000Z</time>
      </trkpt>
      <trkpt lat="46.07861" lon="3.50116">
        <ele>518</ele>
        <time>2013-08-18T08:06:32.000Z</time>
      </trkpt>
      <trkpt lat="46.07861" lon="3.50116">
        <ele>518</ele>
        <time>2013-08-18T08:06:34.000Z</time>
      </trkpt>
      <trkpt lat="46.07861" lon="3.50116">
        <ele>518</ele>
        <time>2013-08-18T08:06:36.000Z</time>
      </trkpt>
      <trkpt lat="46.07861" lon="3.50116">
        <ele>518</ele>
        <time>2013-08-18T08:06:40.000Z</time>
      </trkpt>
      <trkpt lat="46.07861" lon="3.50116">
        <ele>518</ele>
        <time>2013-08-18T08:06:42.000Z</time>
      </trkpt>
      <trkpt lat="46.07861" lon="3.50116">
        <ele>518</ele>
        <time>2013-08-18T08:06:44.000Z</time>
      </trkpt>
      <trkpt lat="46.0788" lon="3.50142">
        <ele>515</ele>
        <time>2013-08-18T08:06:46.000Z</time>
      </trkpt>
      <trkpt lat="46.07889" lon="3.50154">
        <ele>515</ele>
        <time>2013-08-18T08:06:50.000Z</time>
      </trkpt>
      <trkpt lat="46.07903" lon="3.5016">
        <ele>515</ele>
        <time>2013-08-18T08:06:56.000Z</time>
      </trkpt>
      <trkpt lat="46.07903" lon="3.5016">
        <ele>515</ele>
        <time>2013-08-18T08:06:58.000Z</time>
      </trkpt>
      <trkpt lat="46.07903" lon="3.5016">
        <ele>515</ele>
        <time>2013-08-18T08:07:04.000Z</time>
      </trkpt>
      <trkpt lat="46.07903" lon="3.5016">
        <ele>515</ele>
        <time>2013-08-18T08:07:06.000Z</time>
      </trkpt>
      <trkpt lat="46.07903" lon="3.5016">
        <ele>515</ele>
        <time>2013-08-18T08:07:08.000Z</time>
      </trkpt>
      <trkpt lat="46.07903" lon="3.5016">
        <ele>515</ele>
        <time>2013-08-18T08:07:16.000Z</time>
      </trkpt>
      <trkpt lat="46.07903" lon="3.5016">
        <ele>515</ele>
        <time>2013-08-18T08:07:18.000Z</time>
      </trkpt>
      <trkpt lat="46.07903" lon="3.5016">
        <ele>515</ele>
        <time>2013-08-18T08:07:21.000Z</time>
      </trkpt>
      <trkpt lat="46.07932" lon="3.50183">
        <ele>523</ele>
        <time>2013-08-18T08:07:23.000Z</time>
      </trkpt>
      <trkpt lat="46.0795" lon="3.50196">
        <ele>522</ele>
        <time>2013-08-18T08:07:25.000Z</time>
      </trkpt>
      <trkpt lat="46.07963" lon="3.50207">
        <ele>522</ele>
        <time>2013-08-18T08:07:27.000Z</time>
      </trkpt>
      <trkpt lat="46.07972" lon="3.50219">
        <ele>521</ele>
        <time>2013-08-18T08:07:29.000Z</time>
      </trkpt>
      <trkpt lat="46.07977" lon="3.50222">
        <ele>520</ele>
        <time>2013-08-18T08:07:32.000Z</time>
      </trkpt>
      <trkpt lat="46.07977" lon="3.50222">
        <ele>520</ele>
        <time>2013-08-18T08:07:34.000Z</time>
      </trkpt>
      <trkpt lat="46.07977" lon="3.50222">
        <ele>520</ele>
        <time>2013-08-18T08:07:36.000Z</time>
      </trkpt>
      <trkpt lat="46.07977" lon="3.50222">
        <ele>520</ele>
        <time>2013-08-18T08:07:38.000Z</time>
      </trkpt>
      <trkpt lat="46.07977" lon="3.50222">
        <ele>520</ele>
        <time>2013-08-18T08:07:40.000Z</time>
      </trkpt>
      <trkpt lat="46.07977" lon="3.50222">
        <ele>520</ele>
        <time>2013-08-18T08:07:42.000Z</time>
      </trkpt>
      <trkpt lat="46.07977" lon="3.50222">
        <ele>520</ele>
        <time>2013-08-18T08:07:44.000Z</time>
      </trkpt>
      <trkpt lat="46.07977" lon="3.50222">
        <ele>520</ele>
        <time>2013-08-18T08:07:46.000Z</time>
      </trkpt>
      <trkpt lat="46.07977" lon="3.50222">
        <ele>520</ele>
        <time>2013-08-18T08:07:48.000Z</time>
      </trkpt>
      <trkpt lat="46.07977" lon="3.50222">
        <ele>520</ele>
        <time>2013-08-18T08:07:50.000Z</time>
      </trkpt>
      <trkpt lat="46.07977" lon="3.50222">
        <ele>520</ele>
        <time>2013-08-18T08:07:52.000Z</time>
      </trkpt>
      <trkpt lat="46.08023" lon="3.5025">
        <ele>523</ele>
        <time>2013-08-18T08:07:56.000Z</time>
      </trkpt>
      <trkpt lat="46.08023" lon="3.5025">
        <ele>523</ele>
        <time>2013-08-18T08:07:58.000Z</time>
      </trkpt>
      <trkpt lat="46.08035" lon="3.50257">
        <ele>527</ele>
        <time>2013-08-18T08:08:02.000Z</time>
      </trkpt>
      <trkpt lat="46.08046" lon="3.50259">
        <ele>527</ele>
        <time>2013-08-18T08:08:06.000Z</time>
      </trkpt>
      <trkpt lat="46.08057" lon="3.50267">
        <ele>526</ele>
        <time>2013-08-18T08:08:10.000Z</time>
      </trkpt>
      <trkpt lat="46.08067" lon="3.50276">
        <ele>528</ele>
        <time>2013-08-18T08:08:16.000Z</time>
      </trkpt>
      <trkpt lat="46.08067" lon="3.50276">
        <ele>528</ele>
        <time>2013-08-18T08:08:18.000Z</time>
      </trkpt>
      <trkpt lat="46.08067" lon="3.50276">
        <ele>528</ele>
        <time>2013-08-18T08:08:20.000Z</time>
      </trkpt>
      <trkpt lat="46.08067" lon="3.50276">
        <ele>528</ele>
        <time>2013-08-18T08:08:22.000Z</time>
      </trkpt>
      <trkpt lat="46.08088" lon="3.50291">
        <ele>526</ele>
        <time>2013-08-18T08:08:26.000Z</time>
      </trkpt>
      <trkpt lat="46.08088" lon="3.50291">
        <ele>526</ele>
        <time>2013-08-18T08:08:30.000Z</time>
      </trkpt>
      <trkpt lat="46.08088" lon="3.50291">
        <ele>526</ele>
        <time>2013-08-18T08:08:32.000Z</time>
      </trkpt>
      <trkpt lat="46.08088" lon="3.50291">
        <ele>526</ele>
        <time>2013-08-18T08:08:34.000Z</time>
      </trkpt>
      <trkpt lat="46.08088" lon="3.50291">
        <ele>526</ele>
        <time>2013-08-18T08:08:36.000Z</time>
      </trkpt>
      <trkpt lat="46.08088" lon="3.50291">
        <ele>526</ele>
        <time>2013-08-18T08:08:38.000Z</time>
      </trkpt>
      <trkpt lat="46.08088" lon="3.50291">
        <ele>526</ele>
        <time>2013-08-18T08:08:40.000Z</time>
      </trkpt>
      <trkpt lat="46.08088" lon="3.50291">
        <ele>526</ele>
        <time>2013-08-18T08:08:42.000Z</time>
      </trkpt>
      <trkpt lat="46.08088" lon="3.50291">
        <ele>526</ele>
        <time>2013-08-18T08:08:44.000Z</time>
      </trkpt>
      <trkpt lat="46.08088" lon="3.50291">
        <ele>526</ele>
        <time>2013-08-18T08:08:46.000Z</time>
      </trkpt>
      <trkpt lat="46.08088" lon="3.50291">
        <ele>526</ele>
        <time>2013-08-18T08:08:48.000Z</time>
      </trkpt>
      <trkpt lat="46.08088" lon="3.50291">
        <ele>526</ele>
        <time>2013-08-18T08:08:50.000Z</time>
      </trkpt>
      <trkpt lat="46.08115" lon="3.50309">
        <ele>533</ele>
        <time>2013-08-18T08:08:54.000Z</time>
      </trkpt>
      <trkpt lat="46.08132" lon="3.5032">
        <ele>534</ele>
        <time>2013-08-18T08:08:56.000Z</time>
      </trkpt>
      <trkpt lat="46.08141" lon="3.50326">
        <ele>534</ele>
        <time>2013-08-18T08:08:58.000Z</time>
      </trkpt>
      <trkpt lat="46.08147" lon="3.50332">
        <ele>534</ele>
        <time>2013-08-18T08:09:00.000Z</time>
      </trkpt>
      <trkpt lat="46.08152" lon="3.50335">
        <ele>533</ele>
        <time>2013-08-18T08:09:02.000Z</time>
      </trkpt>
      <trkpt lat="46.08162" lon="3.50341">
        <ele>533</ele>
        <time>2013-08-18T08:09:04.000Z</time>
      </trkpt>
      <trkpt lat="46.08162" lon="3.50341">
        <ele>533</ele>
        <time>2013-08-18T08:09:06.000Z</time>
      </trkpt>
      <trkpt lat="46.08162" lon="3.50341">
        <ele>533</ele>
        <time>2013-08-18T08:09:08.000Z</time>
      </trkpt>
      <trkpt lat="46.08162" lon="3.50341">
        <ele>533</ele>
        <time>2013-08-18T08:09:10.000Z</time>
      </trkpt>
      <trkpt lat="46.08186" lon="3.50355">
        <ele>536</ele>
        <time>2013-08-18T08:09:14.000Z</time>
      </trkpt>
      <trkpt lat="46.08195" lon="3.50358">
        <ele>536</ele>
        <time>2013-08-18T08:09:18.000Z</time>
      </trkpt>
      <trkpt lat="46.08206" lon="3.50365">
        <ele>540</ele>
        <time>2013-08-18T08:09:24.000Z</time>
      </trkpt>
      <trkpt lat="46.08206" lon="3.50365">
        <ele>540</ele>
        <time>2013-08-18T08:09:26.000Z</time>
      </trkpt>
      <trkpt lat="46.08216" lon="3.50376">
        <ele>541</ele>
        <time>2013-08-18T08:09:28.000Z</time>
      </trkpt>
      <trkpt lat="46.08225" lon="3.50378">
        <ele>543</ele>
        <time>2013-08-18T08:09:34.000Z</time>
      </trkpt>
      <trkpt lat="46.08225" lon="3.50378">
        <ele>543</ele>
        <time>2013-08-18T08:09:36.000Z</time>
      </trkpt>
      <trkpt lat="46.08225" lon="3.50378">
        <ele>543</ele>
        <time>2013-08-18T08:09:38.000Z</time>
      </trkpt>
      <trkpt lat="46.08225" lon="3.50378">
        <ele>543</ele>
        <time>2013-08-18T08:09:40.000Z</time>
      </trkpt>
      <trkpt lat="46.08225" lon="3.50378">
        <ele>543</ele>
        <time>2013-08-18T08:09:42.000Z</time>
      </trkpt>
      <trkpt lat="46.08254" lon="3.50391">
        <ele>543</ele>
        <time>2013-08-18T08:09:48.000Z</time>
      </trkpt>
      <trkpt lat="46.08263" lon="3.50395">
        <ele>546</ele>
        <time>2013-08-18T08:09:52.000Z</time>
      </trkpt>
      <trkpt lat="46.08263" lon="3.50395">
        <ele>546</ele>
        <time>2013-08-18T08:09:54.000Z</time>
      </trkpt>
      <trkpt lat="46.08263" lon="3.50395">
        <ele>546</ele>
        <time>2013-08-18T08:09:56.000Z</time>
      </trkpt>
      <trkpt lat="46.08263" lon="3.50395">
        <ele>546</ele>
        <time>2013-08-18T08:09:58.000Z</time>
      </trkpt>
      <trkpt lat="46.08287" lon="3.50414">
        <ele>548</ele>
        <time>2013-08-18T08:10:06.000Z</time>
      </trkpt>
      <trkpt lat="46.08287" lon="3.50414">
        <ele>548</ele>
        <time>2013-08-18T08:10:08.000Z</time>
      </trkpt>
      <trkpt lat="46.08287" lon="3.50414">
        <ele>548</ele>
        <time>2013-08-18T08:10:10.000Z</time>
      </trkpt>
      <trkpt lat="46.08287" lon="3.50414">
        <ele>548</ele>
        <time>2013-08-18T08:10:12.000Z</time>
      </trkpt>
      <trkpt lat="46.08287" lon="3.50414">
        <ele>548</ele>
        <time>2013-08-18T08:10:14.000Z</time>
      </trkpt>
      <trkpt lat="46.08312" lon="3.50436">
        <ele>550</ele>
        <time>2013-08-18T08:10:20.000Z</time>
      </trkpt>
      <trkpt lat="46.08321" lon="3.50441">
        <ele>550</ele>
        <time>2013-08-18T08:10:24.000Z</time>
      </trkpt>
      <trkpt lat="46.08321" lon="3.50441">
        <ele>550</ele>
        <time>2013-08-18T08:10:26.000Z</time>
      </trkpt>
      <trkpt lat="46.08321" lon="3.50441">
        <ele>550</ele>
        <time>2013-08-18T08:10:28.000Z</time>
      </trkpt>
      <trkpt lat="46.08326" lon="3.50447">
        <ele>551</ele>
        <time>2013-08-18T08:10:32.000Z</time>
      </trkpt>
      <trkpt lat="46.08326" lon="3.50447">
        <ele>551</ele>
        <time>2013-08-18T08:10:34.000Z</time>
      </trkpt>
      <trkpt lat="46.08326" lon="3.50447">
        <ele>551</ele>
        <time>2013-08-18T08:10:36.000Z</time>
      </trkpt>
      <trkpt lat="46.08326" lon="3.50447">
        <ele>551</ele>
        <time>2013-08-18T08:10:38.000Z</time>
      </trkpt>
      <trkpt lat="46.08341" lon="3.50461">
        <ele>552</ele>
        <time>2013-08-18T08:10:44.000Z</time>
      </trkpt>
      <trkpt lat="46.08349" lon="3.5047">
        <ele>552</ele>
        <time>2013-08-18T08:10:46.000Z</time>
      </trkpt>
      <trkpt lat="46.08349" lon="3.5047">
        <ele>552</ele>
        <time>2013-08-18T08:10:48.000Z</time>
      </trkpt>
      <trkpt lat="46.08349" lon="3.5047">
        <ele>552</ele>
        <time>2013-08-18T08:10:50.000Z</time>
      </trkpt>
      <trkpt lat="46.08361" lon="3.50481">
        <ele>551</ele>
        <time>2013-08-18T08:10:52.000Z</time>
      </trkpt>
      <trkpt lat="46.08369" lon="3.50489">
        <ele>551</ele>
        <time>2013-08-18T08:10:54.000Z</time>
      </trkpt>
      <trkpt lat="46.08376" lon="3.50495">
        <ele>551</ele>
        <time>2013-08-18T08:10:56.000Z</time>
      </trkpt>
      <trkpt lat="46.08381" lon="3.50502">
        <ele>553</ele>
        <time>2013-08-18T08:10:58.000Z</time>
      </trkpt>
      <trkpt lat="46.08387" lon="3.50508">
        <ele>554</ele>
        <time>2013-08-18T08:11:00.000Z</time>
      </trkpt>
      <trkpt lat="46.08398" lon="3.50516">
        <ele>554</ele>
        <time>2013-08-18T08:11:02.000Z</time>
      </trkpt>
      <trkpt lat="46.08407" lon="3.50522">
        <ele>555</ele>
        <time>2013-08-18T08:11:06.000Z</time>
      </trkpt>
      <trkpt lat="46.08407" lon="3.50522">
        <ele>555</ele>
        <time>2013-08-18T08:11:08.000Z</time>
      </trkpt>
      <trkpt lat="46.08407" lon="3.50522">
        <ele>555</ele>
        <time>2013-08-18T08:11:10.000Z</time>
      </trkpt>
      <trkpt lat="46.08425" lon="3.50548">
        <ele>554</ele>
        <time>2013-08-18T08:11:16.000Z</time>
      </trkpt>
      <trkpt lat="46.08425" lon="3.50548">
        <ele>554</ele>
        <time>2013-08-18T08:11:18.000Z</time>
      </trkpt>
      <trkpt lat="46.08425" lon="3.50548">
        <ele>554</ele>
        <time>2013-08-18T08:11:20.000Z</time>
      </trkpt>
      <trkpt lat="46.08425" lon="3.50548">
        <ele>554</ele>
        <time>2013-08-18T08:11:22.000Z</time>
      </trkpt>
      <trkpt lat="46.08425" lon="3.50548">
        <ele>554</ele>
        <time>2013-08-18T08:11:24.000Z</time>
      </trkpt>
      <trkpt lat="46.08425" lon="3.50548">
        <ele>554</ele>
        <time>2013-08-18T08:11:26.000Z</time>
      </trkpt>
      <trkpt lat="46.08425" lon="3.50548">
        <ele>554</ele>
        <time>2013-08-18T08:11:28.000Z</time>
      </trkpt>
      <trkpt lat="46.08425" lon="3.50548">
        <ele>554</ele>
        <time>2013-08-18T08:11:30.000Z</time>
      </trkpt>
      <trkpt lat="46.08425" lon="3.50548">
        <ele>554</ele>
        <time>2013-08-18T08:11:32.000Z</time>
      </trkpt>
      <trkpt lat="46.08425" lon="3.50548">
        <ele>554</ele>
        <time>2013-08-18T08:11:34.000Z</time>
      </trkpt>
      <trkpt lat="46.08425" lon="3.50548">
        <ele>554</ele>
        <time>2013-08-18T08:11:36.000Z</time>
      </trkpt>
      <trkpt lat="46.08425" lon="3.50548">
        <ele>554</ele>
        <time>2013-08-18T08:11:38.000Z</time>
      </trkpt>
      <trkpt lat="46.08425" lon="3.50548">
        <ele>554</ele>
        <time>2013-08-18T08:11:40.000Z</time>
      </trkpt>
      <trkpt lat="46.08425" lon="3.50548">
        <ele>554</ele>
        <time>2013-08-18T08:11:42.000Z</time>
      </trkpt>
      <trkpt lat="46.08425" lon="3.50548">
        <ele>554</ele>
        <time>2013-08-18T08:11:44.000Z</time>
      </trkpt>
      <trkpt lat="46.08442" lon="3.5055">
        <ele>564</ele>
        <time>2013-08-18T08:13:11.000Z</time>
      </trkpt>
      <trkpt lat="46.08448" lon="3.50548">
        <ele>564</ele>
        <time>2013-08-18T08:13:13.000Z</time>
      </trkpt>
      <trkpt lat="46.0845" lon="3.50535">
        <ele>564</ele>
        <time>2013-08-18T08:13:19.000Z</time>
      </trkpt>
      <trkpt lat="46.08449" lon="3.50526">
        <ele>564</ele>
        <time>2013-08-18T08:13:21.000Z</time>
      </trkpt>
      <trkpt lat="46.08449" lon="3.50517">
        <ele>564</ele>
        <time>2013-08-18T08:13:23.000Z</time>
      </trkpt>
      <trkpt lat="46.08448" lon="3.50509">
        <ele>564</ele>
        <time>2013-08-18T08:13:25.000Z</time>
      </trkpt>
      <trkpt lat="46.08447" lon="3.50502">
        <ele>562</ele>
        <time>2013-08-18T08:13:27.000Z</time>
      </trkpt>
      <trkpt lat="46.08447" lon="3.50502">
        <ele>562</ele>
        <time>2013-08-18T08:13:29.000Z</time>
      </trkpt>
      <trkpt lat="46.08443" lon="3.50473">
        <ele>561</ele>
        <time>2013-08-18T08:13:33.000Z</time>
      </trkpt>
      <trkpt lat="46.08443" lon="3.50473">
        <ele>561</ele>
        <time>2013-08-18T08:13:35.000Z</time>
      </trkpt>
      <trkpt lat="46.08443" lon="3.50473">
        <ele>561</ele>
        <time>2013-08-18T08:13:37.000Z</time>
      </trkpt>
      <trkpt lat="46.08443" lon="3.50473">
        <ele>561</ele>
        <time>2013-08-18T08:13:39.000Z</time>
      </trkpt>
      <trkpt lat="46.08443" lon="3.50473">
        <ele>561</ele>
        <time>2013-08-18T08:13:47.000Z</time>
      </trkpt>
      <trkpt lat="46.08443" lon="3.50473">
        <ele>561</ele>
        <time>2013-08-18T08:13:49.000Z</time>
      </trkpt>
      <trkpt lat="46.08443" lon="3.50473">
        <ele>561</ele>
        <time>2013-08-18T08:13:51.000Z</time>
      </trkpt>
      <trkpt lat="46.08443" lon="3.50473">
        <ele>561</ele>
        <time>2013-08-18T08:13:53.000Z</time>
      </trkpt>
      <trkpt lat="46.08431" lon="3.50376">
        <ele>560</ele>
        <time>2013-08-18T08:13:59.000Z</time>
      </trkpt>
      <trkpt lat="46.08431" lon="3.50362">
        <ele>561</ele>
        <time>2013-08-18T08:14:03.000Z</time>
      </trkpt>
      <trkpt lat="46.08429" lon="3.50348">
        <ele>561</ele>
        <time>2013-08-18T08:14:07.000Z</time>
      </trkpt>
      <trkpt lat="46.08428" lon="3.50332">
        <ele>558</ele>
        <time>2013-08-18T08:14:11.000Z</time>
      </trkpt>
      <trkpt lat="46.08427" lon="3.50316">
        <ele>559</ele>
        <time>2013-08-18T08:14:15.000Z</time>
      </trkpt>
      <trkpt lat="46.08427" lon="3.50316">
        <ele>559</ele>
        <time>2013-08-18T08:14:17.000Z</time>
      </trkpt>
      <trkpt lat="46.08427" lon="3.50316">
        <ele>559</ele>
        <time>2013-08-18T08:14:19.000Z</time>
      </trkpt>
      <trkpt lat="46.08427" lon="3.50316">
        <ele>559</ele>
        <time>2013-08-18T08:14:21.000Z</time>
      </trkpt>
      <trkpt lat="46.08427" lon="3.50316">
        <ele>559</ele>
        <time>2013-08-18T08:14:23.000Z</time>
      </trkpt>
      <trkpt lat="46.08427" lon="3.50316">
        <ele>559</ele>
        <time>2013-08-18T08:14:25.000Z</time>
      </trkpt>
      <trkpt lat="46.08427" lon="3.50316">
        <ele>559</ele>
        <time>2013-08-18T08:14:27.000Z</time>
      </trkpt>
      <trkpt lat="46.08427" lon="3.50316">
        <ele>559</ele>
        <time>2013-08-18T08:14:29.000Z</time>
      </trkpt>
      <trkpt lat="46.08437" lon="3.50262">
        <ele>552</ele>
        <time>2013-08-18T08:14:33.000Z</time>
      </trkpt>
      <trkpt lat="46.08442" lon="3.5025">
        <ele>552</ele>
        <time>2013-08-18T08:14:37.000Z</time>
      </trkpt>
      <trkpt lat="46.08447" lon="3.50237">
        <ele>550</ele>
        <time>2013-08-18T08:14:41.000Z</time>
      </trkpt>
      <trkpt lat="46.08447" lon="3.50237">
        <ele>550</ele>
        <time>2013-08-18T08:14:43.000Z</time>
      </trkpt>
      <trkpt lat="46.08452" lon="3.50223">
        <ele>549</ele>
        <time>2013-08-18T08:14:45.000Z</time>
      </trkpt>
      <trkpt lat="46.08452" lon="3.50223">
        <ele>549</ele>
        <time>2013-08-18T08:14:47.000Z</time>
      </trkpt>
      <trkpt lat="46.08452" lon="3.50223">
        <ele>549</ele>
        <time>2013-08-18T08:14:49.000Z</time>
      </trkpt>
      <trkpt lat="46.08452" lon="3.50223">
        <ele>549</ele>
        <time>2013-08-18T08:14:51.000Z</time>
      </trkpt>
      <trkpt lat="46.08452" lon="3.50223">
        <ele>549</ele>
        <time>2013-08-18T08:14:53.000Z</time>
      </trkpt>
      <trkpt lat="46.08452" lon="3.50223">
        <ele>549</ele>
        <time>2013-08-18T08:14:55.000Z</time>
      </trkpt>
      <trkpt lat="46.08463" lon="3.50204">
        <ele>544</ele>
        <time>2013-08-18T08:14:59.000Z</time>
      </trkpt>
      <trkpt lat="46.08469" lon="3.5019">
        <ele>544</ele>
        <time>2013-08-18T08:15:01.000Z</time>
      </trkpt>
      <trkpt lat="46.08474" lon="3.5018">
        <ele>544</ele>
        <time>2013-08-18T08:15:03.000Z</time>
      </trkpt>
      <trkpt lat="46.08477" lon="3.50173">
        <ele>544</ele>
        <time>2013-08-18T08:15:05.000Z</time>
      </trkpt>
      <trkpt lat="46.08481" lon="3.50167">
        <ele>545</ele>
        <time>2013-08-18T08:15:07.000Z</time>
      </trkpt>
      <trkpt lat="46.08481" lon="3.50167">
        <ele>545</ele>
        <time>2013-08-18T08:15:09.000Z</time>
      </trkpt>
      <trkpt lat="46.08493" lon="3.50142">
        <ele>546</ele>
        <time>2013-08-18T08:15:13.000Z</time>
      </trkpt>
      <trkpt lat="46.085" lon="3.50131">
        <ele>546</ele>
        <time>2013-08-18T08:15:17.000Z</time>
      </trkpt>
      <trkpt lat="46.085" lon="3.50131">
        <ele>546</ele>
        <time>2013-08-18T08:15:19.000Z</time>
      </trkpt>
      <trkpt lat="46.085" lon="3.50131">
        <ele>546</ele>
        <time>2013-08-18T08:15:21.000Z</time>
      </trkpt>
      <trkpt lat="46.085" lon="3.50131">
        <ele>546</ele>
        <time>2013-08-18T08:15:23.000Z</time>
      </trkpt>
      <trkpt lat="46.085" lon="3.50131">
        <ele>546</ele>
        <time>2013-08-18T08:15:25.000Z</time>
      </trkpt>
      <trkpt lat="46.085" lon="3.50131">
        <ele>546</ele>
        <time>2013-08-18T08:15:27.000Z</time>
      </trkpt>
      <trkpt lat="46.085" lon="3.50131">
        <ele>546</ele>
        <time>2013-08-18T08:15:29.000Z</time>
      </trkpt>
      <trkpt lat="46.085" lon="3.50131">
        <ele>546</ele>
        <time>2013-08-18T08:15:31.000Z</time>
      </trkpt>
      <trkpt lat="46.085" lon="3.50131">
        <ele>546</ele>
        <time>2013-08-18T08:15:33.000Z</time>
      </trkpt>
      <trkpt lat="46.08549" lon="3.50097">
        <ele>540</ele>
        <time>2013-08-18T08:15:39.000Z</time>
      </trkpt>
      <trkpt lat="46.08557" lon="3.50088">
        <ele>540</ele>
        <time>2013-08-18T08:15:43.000Z</time>
      </trkpt>
      <trkpt lat="46.08557" lon="3.50088">
        <ele>540</ele>
        <time>2013-08-18T08:15:47.000Z</time>
      </trkpt>
      <trkpt lat="46.08557" lon="3.50088">
        <ele>540</ele>
        <time>2013-08-18T08:15:49.000Z</time>
      </trkpt>
      <trkpt lat="46.08557" lon="3.50088">
        <ele>540</ele>
        <time>2013-08-18T08:15:51.000Z</time>
      </trkpt>
      <trkpt lat="46.08557" lon="3.50088">
        <ele>540</ele>
        <time>2013-08-18T08:15:53.000Z</time>
      </trkpt>
      <trkpt lat="46.08557" lon="3.50088">
        <ele>540</ele>
        <time>2013-08-18T08:15:55.000Z</time>
      </trkpt>
      <trkpt lat="46.08557" lon="3.50088">
        <ele>540</ele>
        <time>2013-08-18T08:15:57.000Z</time>
      </trkpt>
      <trkpt lat="46.08557" lon="3.50088">
        <ele>540</ele>
        <time>2013-08-18T08:15:59.000Z</time>
      </trkpt>
      <trkpt lat="46.08557" lon="3.50088">
        <ele>540</ele>
        <time>2013-08-18T08:16:01.000Z</time>
      </trkpt>
      <trkpt lat="46.08557" lon="3.50088">
        <ele>540</ele>
        <time>2013-08-18T08:16:03.000Z</time>
      </trkpt>
      <trkpt lat="46.08605" lon="3.50056">
        <ele>535</ele>
        <time>2013-08-18T08:16:07.000Z</time>
      </trkpt>
      <trkpt lat="46.08614" lon="3.50055">
        <ele>533</ele>
        <time>2013-08-18T08:16:11.000Z</time>
      </trkpt>
      <trkpt lat="46.08614" lon="3.50055">
        <ele>533</ele>
        <time>2013-08-18T08:16:13.000Z</time>
      </trkpt>
      <trkpt lat="46.08624" lon="3.50051">
        <ele>533</ele>
        <time>2013-08-18T08:16:15.000Z</time>
      </trkpt>
      <trkpt lat="46.08635" lon="3.50047">
        <ele>531</ele>
        <time>2013-08-18T08:16:21.000Z</time>
      </trkpt>
      <trkpt lat="46.08635" lon="3.50047">
        <ele>531</ele>
        <time>2013-08-18T08:16:23.000Z</time>
      </trkpt>
      <trkpt lat="46.08635" lon="3.50047">
        <ele>531</ele>
        <time>2013-08-18T08:16:25.000Z</time>
      </trkpt>
      <trkpt lat="46.08635" lon="3.50047">
        <ele>531</ele>
        <time>2013-08-18T08:16:27.000Z</time>
      </trkpt>
      <trkpt lat="46.08648" lon="3.50042">
        <ele>527</ele>
        <time>2013-08-18T08:16:31.000Z</time>
      </trkpt>
      <trkpt lat="46.08658" lon="3.50039">
        <ele>529</ele>
        <time>2013-08-18T08:16:33.000Z</time>
      </trkpt>
      <trkpt lat="46.08665" lon="3.50036">
        <ele>530</ele>
        <time>2013-08-18T08:16:35.000Z</time>
      </trkpt>
      <trkpt lat="46.08671" lon="3.50034">
        <ele>529</ele>
        <time>2013-08-18T08:16:37.000Z</time>
      </trkpt>
      <trkpt lat="46.08677" lon="3.50034">
        <ele>525</ele>
        <time>2013-08-18T08:16:39.000Z</time>
      </trkpt>
      <trkpt lat="46.08677" lon="3.50034">
        <ele>525</ele>
        <time>2013-08-18T08:16:41.000Z</time>
      </trkpt>
      <trkpt lat="46.08677" lon="3.50034">
        <ele>525</ele>
        <time>2013-08-18T08:16:43.000Z</time>
      </trkpt>
      <trkpt lat="46.08677" lon="3.50034">
        <ele>525</ele>
        <time>2013-08-18T08:16:45.000Z</time>
      </trkpt>
      <trkpt lat="46.08677" lon="3.50034">
        <ele>525</ele>
        <time>2013-08-18T08:16:47.000Z</time>
      </trkpt>
      <trkpt lat="46.08677" lon="3.50034">
        <ele>525</ele>
        <time>2013-08-18T08:16:49.000Z</time>
      </trkpt>
      <trkpt lat="46.08677" lon="3.50034">
        <ele>525</ele>
        <time>2013-08-18T08:16:51.000Z</time>
      </trkpt>
      <trkpt lat="46.0872" lon="3.50025">
        <ele>519</ele>
        <time>2013-08-18T08:16:55.000Z</time>
      </trkpt>
      <trkpt lat="46.0873" lon="3.50017">
        <ele>521</ele>
        <time>2013-08-18T08:16:59.000Z</time>
      </trkpt>
      <trkpt lat="46.0873" lon="3.50017">
        <ele>521</ele>
        <time>2013-08-18T08:17:01.000Z</time>
      </trkpt>
      <trkpt lat="46.0874" lon="3.5001">
        <ele>521</ele>
        <time>2013-08-18T08:17:03.000Z</time>
      </trkpt>
      <trkpt lat="46.0874" lon="3.5001">
        <ele>521</ele>
        <time>2013-08-18T08:17:05.000Z</time>
      </trkpt>
      <trkpt lat="46.08754" lon="3.50001">
        <ele>519</ele>
        <time>2013-08-18T08:17:09.000Z</time>
      </trkpt>
      <trkpt lat="46.08754" lon="3.50001">
        <ele>519</ele>
        <time>2013-08-18T08:17:15.000Z</time>
      </trkpt>
      <trkpt lat="46.08775" lon="3.49983">
        <ele>518</ele>
        <time>2013-08-18T08:17:19.000Z</time>
      </trkpt>
      <trkpt lat="46.08783" lon="3.49974">
        <ele>517</ele>
        <time>2013-08-18T08:17:23.000Z</time>
      </trkpt>
      <trkpt lat="46.08783" lon="3.49974">
        <ele>517</ele>
        <time>2013-08-18T08:17:25.000Z</time>
      </trkpt>
      <trkpt lat="46.08789" lon="3.49964">
        <ele>517</ele>
        <time>2013-08-18T08:17:27.000Z</time>
      </trkpt>
      <trkpt lat="46.08789" lon="3.49964">
        <ele>517</ele>
        <time>2013-08-18T08:17:29.000Z</time>
      </trkpt>
      <trkpt lat="46.08789" lon="3.49964">
        <ele>517</ele>
        <time>2013-08-18T08:17:31.000Z</time>
      </trkpt>
      <trkpt lat="46.08789" lon="3.49964">
        <ele>517</ele>
        <time>2013-08-18T08:17:33.000Z</time>
      </trkpt>
      <trkpt lat="46.08789" lon="3.49964">
        <ele>517</ele>
        <time>2013-08-18T08:17:35.000Z</time>
      </trkpt>
      <trkpt lat="46.08789" lon="3.49964">
        <ele>517</ele>
        <time>2013-08-18T08:17:37.000Z</time>
      </trkpt>
      <trkpt lat="46.08789" lon="3.49964">
        <ele>517</ele>
        <time>2013-08-18T08:17:39.000Z</time>
      </trkpt>
      <trkpt lat="46.08789" lon="3.49964">
        <ele>517</ele>
        <time>2013-08-18T08:17:43.000Z</time>
      </trkpt>
      <trkpt lat="46.08812" lon="3.49914">
        <ele>512</ele>
        <time>2013-08-18T08:17:45.000Z</time>
      </trkpt>
      <trkpt lat="46.08819" lon="3.49903">
        <ele>510</ele>
        <time>2013-08-18T08:17:49.000Z</time>
      </trkpt>
      <trkpt lat="46.08826" lon="3.49893">
        <ele>509</ele>
        <time>2013-08-18T08:17:53.000Z</time>
      </trkpt>
      <trkpt lat="46.08826" lon="3.49893">
        <ele>509</ele>
        <time>2013-08-18T08:17:55.000Z</time>
      </trkpt>
      <trkpt lat="46.08826" lon="3.49893">
        <ele>509</ele>
        <time>2013-08-18T08:17:57.000Z</time>
      </trkpt>
      <trkpt lat="46.08826" lon="3.49893">
        <ele>509</ele>
        <time>2013-08-18T08:17:59.000Z</time>
      </trkpt>
      <trkpt lat="46.08826" lon="3.49893">
        <ele>509</ele>
        <time>2013-08-18T08:18:01.000Z</time>
      </trkpt>
      <trkpt lat="46.08826" lon="3.49893">
        <ele>509</ele>
        <time>2013-08-18T08:18:03.000Z</time>
      </trkpt>
      <trkpt lat="46.08826" lon="3.49893">
        <ele>509</ele>
        <time>2013-08-18T08:18:05.000Z</time>
      </trkpt>
      <trkpt lat="46.08837" lon="3.49867">
        <ele>505</ele>
        <time>2013-08-18T08:18:11.000Z</time>
      </trkpt>
      <trkpt lat="46.08842" lon="3.49851">
        <ele>505</ele>
        <time>2013-08-18T08:18:13.000Z</time>
      </trkpt>
      <trkpt lat="46.08847" lon="3.49839">
        <ele>504</ele>
        <time>2013-08-18T08:18:15.000Z</time>
      </trkpt>
      <trkpt lat="46.0885" lon="3.49831">
        <ele>503</ele>
        <time>2013-08-18T08:18:17.000Z</time>
      </trkpt>
      <trkpt lat="46.0885" lon="3.49831">
        <ele>503</ele>
        <time>2013-08-18T08:18:19.000Z</time>
      </trkpt>
      <trkpt lat="46.0885" lon="3.49831">
        <ele>503</ele>
        <time>2013-08-18T08:18:21.000Z</time>
      </trkpt>
      <trkpt lat="46.08857" lon="3.49812">
        <ele>503</ele>
        <time>2013-08-18T08:18:27.000Z</time>
      </trkpt>
      <trkpt lat="46.08862" lon="3.49798">
        <ele>502</ele>
        <time>2013-08-18T08:18:29.000Z</time>
      </trkpt>
      <trkpt lat="46.08865" lon="3.49789">
        <ele>502</ele>
        <time>2013-08-18T08:18:31.000Z</time>
      </trkpt>
      <trkpt lat="46.08865" lon="3.49789">
        <ele>502</ele>
        <time>2013-08-18T08:18:33.000Z</time>
      </trkpt>
      <trkpt lat="46.08865" lon="3.49789">
        <ele>502</ele>
        <time>2013-08-18T08:18:35.000Z</time>
      </trkpt>
      <trkpt lat="46.08865" lon="3.49789">
        <ele>502</ele>
        <time>2013-08-18T08:18:37.000Z</time>
      </trkpt>
      <trkpt lat="46.08865" lon="3.49789">
        <ele>502</ele>
        <time>2013-08-18T08:18:39.000Z</time>
      </trkpt>
      <trkpt lat="46.08865" lon="3.49789">
        <ele>502</ele>
        <time>2013-08-18T08:18:41.000Z</time>
      </trkpt>
      <trkpt lat="46.08865" lon="3.49789">
        <ele>502</ele>
        <time>2013-08-18T08:18:43.000Z</time>
      </trkpt>
      <trkpt lat="46.08865" lon="3.49789">
        <ele>502</ele>
        <time>2013-08-18T08:18:45.000Z</time>
      </trkpt>
      <trkpt lat="46.08865" lon="3.49789">
        <ele>502</ele>
        <time>2013-08-18T08:18:47.000Z</time>
      </trkpt>
      <trkpt lat="46.08874" lon="3.49756">
        <ele>495</ele>
        <time>2013-08-18T08:18:51.000Z</time>
      </trkpt>
      <trkpt lat="46.08878" lon="3.49734">
        <ele>494</ele>
        <time>2013-08-18T08:18:53.000Z</time>
      </trkpt>
      <trkpt lat="46.08881" lon="3.4972">
        <ele>496</ele>
        <time>2013-08-18T08:18:55.000Z</time>
      </trkpt>
      <trkpt lat="46.08881" lon="3.49709">
        <ele>497</ele>
        <time>2013-08-18T08:18:57.000Z</time>
      </trkpt>
      <trkpt lat="46.08882" lon="3.497">
        <ele>498</ele>
        <time>2013-08-18T08:18:59.000Z</time>
      </trkpt>
      <trkpt lat="46.08883" lon="3.49686">
        <ele>497</ele>
        <time>2013-08-18T08:19:01.000Z</time>
      </trkpt>
      <trkpt lat="46.08883" lon="3.49686">
        <ele>497</ele>
        <time>2013-08-18T08:19:05.000Z</time>
      </trkpt>
      <trkpt lat="46.08883" lon="3.49686">
        <ele>497</ele>
        <time>2013-08-18T08:19:07.000Z</time>
      </trkpt>
      <trkpt lat="46.08883" lon="3.49686">
        <ele>497</ele>
        <time>2013-08-18T08:19:09.000Z</time>
      </trkpt>
      <trkpt lat="46.08877" lon="3.49705">
        <ele>487</ele>
        <time>2013-08-18T08:19:14.000Z</time>
      </trkpt>
      <trkpt lat="46.08877" lon="3.49705">
        <ele>487</ele>
        <time>2013-08-18T08:19:16.000Z</time>
      </trkpt>
      <trkpt lat="46.08875" lon="3.49673">
        <ele>486</ele>
        <time>2013-08-18T08:19:18.000Z</time>
      </trkpt>
      <trkpt lat="46.08877" lon="3.49636">
        <ele>483</ele>
        <time>2013-08-18T08:19:22.000Z</time>
      </trkpt>
      <trkpt lat="46.08878" lon="3.49621">
        <ele>485</ele>
        <time>2013-08-18T08:19:24.000Z</time>
      </trkpt>
      <trkpt lat="46.08882" lon="3.49598">
        <ele>486</ele>
        <time>2013-08-18T08:19:28.000Z</time>
      </trkpt>
      <trkpt lat="46.08882" lon="3.49598">
        <ele>486</ele>
        <time>2013-08-18T08:19:30.000Z</time>
      </trkpt>
      <trkpt lat="46.08882" lon="3.49598">
        <ele>486</ele>
        <time>2013-08-18T08:19:32.000Z</time>
      </trkpt>
      <trkpt lat="46.08882" lon="3.49598">
        <ele>486</ele>
        <time>2013-08-18T08:19:34.000Z</time>
      </trkpt>
      <trkpt lat="46.08882" lon="3.49598">
        <ele>486</ele>
        <time>2013-08-18T08:19:36.000Z</time>
      </trkpt>
      <trkpt lat="46.08892" lon="3.49526">
        <ele>489</ele>
        <time>2013-08-18T08:19:46.000Z</time>
      </trkpt>
      <trkpt lat="46.08892" lon="3.49512">
        <ele>490</ele>
        <time>2013-08-18T08:19:50.000Z</time>
      </trkpt>
      <trkpt lat="46.08892" lon="3.49512">
        <ele>490</ele>
        <time>2013-08-18T08:19:52.000Z</time>
      </trkpt>
      <trkpt lat="46.08895" lon="3.49497">
        <ele>490</ele>
        <time>2013-08-18T08:19:54.000Z</time>
      </trkpt>
      <trkpt lat="46.08896" lon="3.49484">
        <ele>489</ele>
        <time>2013-08-18T08:19:58.000Z</time>
      </trkpt>
      <trkpt lat="46.08896" lon="3.49484">
        <ele>489</ele>
        <time>2013-08-18T08:20:00.000Z</time>
      </trkpt>
      <trkpt lat="46.08896" lon="3.49466">
        <ele>489</ele>
        <time>2013-08-18T08:20:02.000Z</time>
      </trkpt>
      <trkpt lat="46.08896" lon="3.49451">
        <ele>489</ele>
        <time>2013-08-18T08:20:06.000Z</time>
      </trkpt>
      <trkpt lat="46.08896" lon="3.49451">
        <ele>489</ele>
        <time>2013-08-18T08:20:08.000Z</time>
      </trkpt>
      <trkpt lat="46.08896" lon="3.49451">
        <ele>489</ele>
        <time>2013-08-18T08:20:10.000Z</time>
      </trkpt>
      <trkpt lat="46.08896" lon="3.49451">
        <ele>489</ele>
        <time>2013-08-18T08:20:12.000Z</time>
      </trkpt>
      <trkpt lat="46.08896" lon="3.49451">
        <ele>489</ele>
        <time>2013-08-18T08:20:14.000Z</time>
      </trkpt>
      <trkpt lat="46.08894" lon="3.4941">
        <ele>488</ele>
        <time>2013-08-18T08:20:18.000Z</time>
      </trkpt>
      <trkpt lat="46.08896" lon="3.49397">
        <ele>487</ele>
        <time>2013-08-18T08:20:22.000Z</time>
      </trkpt>
      <trkpt lat="46.08894" lon="3.49383">
        <ele>485</ele>
        <time>2013-08-18T08:20:26.000Z</time>
      </trkpt>
      <trkpt lat="46.08894" lon="3.49383">
        <ele>485</ele>
        <time>2013-08-18T08:20:28.000Z</time>
      </trkpt>
      <trkpt lat="46.08894" lon="3.49383">
        <ele>485</ele>
        <time>2013-08-18T08:20:30.000Z</time>
      </trkpt>
      <trkpt lat="46.08894" lon="3.49383">
        <ele>485</ele>
        <time>2013-08-18T08:20:32.000Z</time>
      </trkpt>
      <trkpt lat="46.08894" lon="3.49362">
        <ele>484</ele>
        <time>2013-08-18T08:20:36.000Z</time>
      </trkpt>
      <trkpt lat="46.08893" lon="3.49348">
        <ele>483</ele>
        <time>2013-08-18T08:20:38.000Z</time>
      </trkpt>
      <trkpt lat="46.08892" lon="3.49338">
        <ele>483</ele>
        <time>2013-08-18T08:20:40.000Z</time>
      </trkpt>
      <trkpt lat="46.08891" lon="3.4933">
        <ele>482</ele>
        <time>2013-08-18T08:20:42.000Z</time>
      </trkpt>
      <trkpt lat="46.08891" lon="3.4933">
        <ele>482</ele>
        <time>2013-08-18T08:20:44.000Z</time>
      </trkpt>
      <trkpt lat="46.08891" lon="3.4933">
        <ele>482</ele>
        <time>2013-08-18T08:20:46.000Z</time>
      </trkpt>
      <trkpt lat="46.08891" lon="3.49312">
        <ele>483</ele>
        <time>2013-08-18T08:20:50.000Z</time>
      </trkpt>
      <trkpt lat="46.08891" lon="3.49301">
        <ele>479</ele>
        <time>2013-08-18T08:20:52.000Z</time>
      </trkpt>
      <trkpt lat="46.0889" lon="3.49291">
        <ele>479</ele>
        <time>2013-08-18T08:20:54.000Z</time>
      </trkpt>
      <trkpt lat="46.0889" lon="3.49291">
        <ele>479</ele>
        <time>2013-08-18T08:20:56.000Z</time>
      </trkpt>
      <trkpt lat="46.0889" lon="3.49291">
        <ele>479</ele>
        <time>2013-08-18T08:20:58.000Z</time>
      </trkpt>
      <trkpt lat="46.0889" lon="3.49291">
        <ele>479</ele>
        <time>2013-08-18T08:21:00.000Z</time>
      </trkpt>
      <trkpt lat="46.0889" lon="3.49291">
        <ele>479</ele>
        <time>2013-08-18T08:21:02.000Z</time>
      </trkpt>
      <trkpt lat="46.0889" lon="3.49291">
        <ele>479</ele>
        <time>2013-08-18T08:21:08.000Z</time>
      </trkpt>
      <trkpt lat="46.0889" lon="3.49291">
        <ele>479</ele>
        <time>2013-08-18T08:21:10.000Z</time>
      </trkpt>
      <trkpt lat="46.0889" lon="3.49291">
        <ele>479</ele>
        <time>2013-08-18T08:21:12.000Z</time>
      </trkpt>
      <trkpt lat="46.08876" lon="3.49255">
        <ele>478</ele>
        <time>2013-08-18T08:21:16.000Z</time>
      </trkpt>
      <trkpt lat="46.08876" lon="3.49255">
        <ele>478</ele>
        <time>2013-08-18T08:21:21.000Z</time>
      </trkpt>
      <trkpt lat="46.08876" lon="3.49255">
        <ele>478</ele>
        <time>2013-08-18T08:21:23.000Z</time>
      </trkpt>
      <trkpt lat="46.08876" lon="3.49255">
        <ele>478</ele>
        <time>2013-08-18T08:21:25.000Z</time>
      </trkpt>
      <trkpt lat="46.08862" lon="3.49244">
        <ele>478</ele>
        <time>2013-08-18T08:21:27.000Z</time>
      </trkpt>
      <trkpt lat="46.08855" lon="3.49233">
        <ele>478</ele>
        <time>2013-08-18T08:21:29.000Z</time>
      </trkpt>
      <trkpt lat="46.08852" lon="3.49225">
        <ele>477</ele>
        <time>2013-08-18T08:21:31.000Z</time>
      </trkpt>
      <trkpt lat="46.08849" lon="3.49218">
        <ele>477</ele>
        <time>2013-08-18T08:21:33.000Z</time>
      </trkpt>
      <trkpt lat="46.08846" lon="3.49209">
        <ele>476</ele>
        <time>2013-08-18T08:21:37.000Z</time>
      </trkpt>
      <trkpt lat="46.08842" lon="3.49203">
        <ele>476</ele>
        <time>2013-08-18T08:21:39.000Z</time>
      </trkpt>
      <trkpt lat="46.08842" lon="3.49203">
        <ele>476</ele>
        <time>2013-08-18T08:21:41.000Z</time>
      </trkpt>
      <trkpt lat="46.08842" lon="3.49203">
        <ele>476</ele>
        <time>2013-08-18T08:21:43.000Z</time>
      </trkpt>
      <trkpt lat="46.08842" lon="3.49203">
        <ele>476</ele>
        <time>2013-08-18T08:21:45.000Z</time>
      </trkpt>
      <trkpt lat="46.08833" lon="3.49212">
        <ele>473</ele>
        <time>2013-08-18T08:21:49.000Z</time>
      </trkpt>
      <trkpt lat="46.08826" lon="3.49219">
        <ele>473</ele>
        <time>2013-08-18T08:21:51.000Z</time>
      </trkpt>
      <trkpt lat="46.08821" lon="3.49225">
        <ele>471</ele>
        <time>2013-08-18T08:21:53.000Z</time>
      </trkpt>
      <trkpt lat="46.08818" lon="3.49232">
        <ele>470</ele>
        <time>2013-08-18T08:21:55.000Z</time>
      </trkpt>
      <trkpt lat="46.08817" lon="3.49238">
        <ele>470</ele>
        <time>2013-08-18T08:21:57.000Z</time>
      </trkpt>
      <trkpt lat="46.08815" lon="3.49252">
        <ele>470</ele>
        <time>2013-08-18T08:21:59.000Z</time>
      </trkpt>
      <trkpt lat="46.08815" lon="3.49252">
        <ele>470</ele>
        <time>2013-08-18T08:22:01.000Z</time>
      </trkpt>
      <trkpt lat="46.08815" lon="3.49252">
        <ele>470</ele>
        <time>2013-08-18T08:22:03.000Z</time>
      </trkpt>
      <trkpt lat="46.08815" lon="3.49252">
        <ele>470</ele>
        <time>2013-08-18T08:22:05.000Z</time>
      </trkpt>
      <trkpt lat="46.08815" lon="3.49252">
        <ele>470</ele>
        <time>2013-08-18T08:22:07.000Z</time>
      </trkpt>
      <trkpt lat="46.08815" lon="3.49291">
        <ele>469</ele>
        <time>2013-08-18T08:22:11.000Z</time>
      </trkpt>
      <trkpt lat="46.08813" lon="3.49307">
        <ele>466</ele>
        <time>2013-08-18T08:22:15.000Z</time>
      </trkpt>
      <trkpt lat="46.08813" lon="3.49307">
        <ele>466</ele>
        <time>2013-08-18T08:22:17.000Z</time>
      </trkpt>
      <trkpt lat="46.08813" lon="3.49307">
        <ele>466</ele>
        <time>2013-08-18T08:22:19.000Z</time>
      </trkpt>
      <trkpt lat="46.08813" lon="3.49307">
        <ele>466</ele>
        <time>2013-08-18T08:22:21.000Z</time>
      </trkpt>
      <trkpt lat="46.08813" lon="3.49307">
        <ele>466</ele>
        <time>2013-08-18T08:22:23.000Z</time>
      </trkpt>
      <trkpt lat="46.08813" lon="3.49307">
        <ele>466</ele>
        <time>2013-08-18T08:22:25.000Z</time>
      </trkpt>
      <trkpt lat="46.08813" lon="3.49307">
        <ele>466</ele>
        <time>2013-08-18T08:22:27.000Z</time>
      </trkpt>
      <trkpt lat="46.08804" lon="3.49359">
        <ele>463</ele>
        <time>2013-08-18T08:22:31.000Z</time>
      </trkpt>
      <trkpt lat="46.08804" lon="3.49359">
        <ele>463</ele>
        <time>2013-08-18T08:22:33.000Z</time>
      </trkpt>
      <trkpt lat="46.08793" lon="3.49358">
        <ele>461</ele>
        <time>2013-08-18T08:22:36.000Z</time>
      </trkpt>
      <trkpt lat="46.08793" lon="3.49358">
        <ele>461</ele>
        <time>2013-08-18T08:22:38.000Z</time>
      </trkpt>
      <trkpt lat="46.08733" lon="3.49292">
        <ele>462</ele>
        <time>2013-08-18T08:23:08.000Z</time>
      </trkpt>
      <trkpt lat="46.08733" lon="3.49292">
        <ele>462</ele>
        <time>2013-08-18T08:23:09.000Z</time>
      </trkpt>
      <trkpt lat="46.0872" lon="3.49303">
        <ele>457</ele>
        <time>2013-08-18T08:23:15.000Z</time>
      </trkpt>
      <trkpt lat="46.08711" lon="3.49308">
        <ele>455</ele>
        <time>2013-08-18T08:23:19.000Z</time>
      </trkpt>
      <trkpt lat="46.08711" lon="3.49308">
        <ele>455</ele>
        <time>2013-08-18T08:23:21.000Z</time>
      </trkpt>
      <trkpt lat="46.08702" lon="3.49308">
        <ele>452</ele>
        <time>2013-08-18T08:23:23.000Z</time>
      </trkpt>
      <trkpt lat="46.08702" lon="3.49308">
        <ele>452</ele>
        <time>2013-08-18T08:23:25.000Z</time>
      </trkpt>
      <trkpt lat="46.08702" lon="3.49308">
        <ele>452</ele>
        <time>2013-08-18T08:23:27.000Z</time>
      </trkpt>
      <trkpt lat="46.08685" lon="3.49318">
        <ele>452</ele>
        <time>2013-08-18T08:23:31.000Z</time>
      </trkpt>
      <trkpt lat="46.08669" lon="3.49317">
        <ele>454</ele>
        <time>2013-08-18T08:23:34.000Z</time>
      </trkpt>
      <trkpt lat="46.08669" lon="3.49317">
        <ele>454</ele>
        <time>2013-08-18T08:23:37.000Z</time>
      </trkpt>
      <trkpt lat="46.08653" lon="3.493">
        <ele>457</ele>
        <time>2013-08-18T08:23:40.000Z</time>
      </trkpt>
      <trkpt lat="46.08653" lon="3.493">
        <ele>457</ele>
        <time>2013-08-18T08:23:42.000Z</time>
      </trkpt>
      <trkpt lat="46.08653" lon="3.493">
        <ele>457</ele>
        <time>2013-08-18T08:23:44.000Z</time>
      </trkpt>
      <trkpt lat="46.08653" lon="3.493">
        <ele>457</ele>
        <time>2013-08-18T08:23:46.000Z</time>
      </trkpt>
      <trkpt lat="46.08653" lon="3.493">
        <ele>457</ele>
        <time>2013-08-18T08:23:48.000Z</time>
      </trkpt>
      <trkpt lat="46.08653" lon="3.493">
        <ele>457</ele>
        <time>2013-08-18T08:23:50.000Z</time>
      </trkpt>
      <trkpt lat="46.08677" lon="3.49279">
        <ele>467</ele>
        <time>2013-08-18T08:23:53.000Z</time>
      </trkpt>
      <trkpt lat="46.08679" lon="3.49271">
        <ele>467</ele>
        <time>2013-08-18T08:23:59.000Z</time>
      </trkpt>
      <trkpt lat="46.08679" lon="3.49271">
        <ele>467</ele>
        <time>2013-08-18T08:24:01.000Z</time>
      </trkpt>
      <trkpt lat="46.08679" lon="3.49271">
        <ele>467</ele>
        <time>2013-08-18T08:24:03.000Z</time>
      </trkpt>
      <trkpt lat="46.08679" lon="3.49256">
        <ele>466</ele>
        <time>2013-08-18T08:24:07.000Z</time>
      </trkpt>
      <trkpt lat="46.0868" lon="3.49246">
        <ele>466</ele>
        <time>2013-08-18T08:24:09.000Z</time>
      </trkpt>
      <trkpt lat="46.0868" lon="3.49246">
        <ele>466</ele>
        <time>2013-08-18T08:24:11.000Z</time>
      </trkpt>
      <trkpt lat="46.0868" lon="3.49246">
        <ele>466</ele>
        <time>2013-08-18T08:24:13.000Z</time>
      </trkpt>
      <trkpt lat="46.0868" lon="3.49246">
        <ele>466</ele>
        <time>2013-08-18T08:24:15.000Z</time>
      </trkpt>
      <trkpt lat="46.08673" lon="3.49228">
        <ele>464</ele>
        <time>2013-08-18T08:24:21.000Z</time>
      </trkpt>
      <trkpt lat="46.0867" lon="3.49216">
        <ele>465</ele>
        <time>2013-08-18T08:24:23.000Z</time>
      </trkpt>
      <trkpt lat="46.08668" lon="3.49207">
        <ele>465</ele>
        <time>2013-08-18T08:24:25.000Z</time>
      </trkpt>
      <trkpt lat="46.08666" lon="3.492">
        <ele>465</ele>
        <time>2013-08-18T08:24:27.000Z</time>
      </trkpt>
      <trkpt lat="46.08662" lon="3.49195">
        <ele>467</ele>
        <time>2013-08-18T08:24:31.000Z</time>
      </trkpt>
      <trkpt lat="46.08662" lon="3.49195">
        <ele>467</ele>
        <time>2013-08-18T08:24:33.000Z</time>
      </trkpt>
      <trkpt lat="46.08656" lon="3.49192">
        <ele>468</ele>
        <time>2013-08-18T08:24:35.000Z</time>
      </trkpt>
      <trkpt lat="46.08651" lon="3.49192">
        <ele>469</ele>
        <time>2013-08-18T08:24:37.000Z</time>
      </trkpt>
      <trkpt lat="46.08651" lon="3.49192">
        <ele>469</ele>
        <time>2013-08-18T08:24:39.000Z</time>
      </trkpt>
      <trkpt lat="46.08651" lon="3.49192">
        <ele>469</ele>
        <time>2013-08-18T08:24:41.000Z</time>
      </trkpt>
      <trkpt lat="46.08651" lon="3.49192">
        <ele>469</ele>
        <time>2013-08-18T08:24:43.000Z</time>
      </trkpt>
      <trkpt lat="46.0864" lon="3.49196">
        <ele>472</ele>
        <time>2013-08-18T08:24:49.000Z</time>
      </trkpt>
      <trkpt lat="46.08632" lon="3.492">
        <ele>473</ele>
        <time>2013-08-18T08:24:51.000Z</time>
      </trkpt>
      <trkpt lat="46.08626" lon="3.49203">
        <ele>473</ele>
        <time>2013-08-18T08:24:53.000Z</time>
      </trkpt>
      <trkpt lat="46.08622" lon="3.49206">
        <ele>474</ele>
        <time>2013-08-18T08:24:55.000Z</time>
      </trkpt>
      <trkpt lat="46.08617" lon="3.49209">
        <ele>475</ele>
        <time>2013-08-18T08:24:59.000Z</time>
      </trkpt>
      <trkpt lat="46.08617" lon="3.49209">
        <ele>475</ele>
        <time>2013-08-18T08:25:01.000Z</time>
      </trkpt>
      <trkpt lat="46.08617" lon="3.49209">
        <ele>475</ele>
        <time>2013-08-18T08:25:03.000Z</time>
      </trkpt>
      <trkpt lat="46.08617" lon="3.49209">
        <ele>475</ele>
        <time>2013-08-18T08:25:05.000Z</time>
      </trkpt>
      <trkpt lat="46.08608" lon="3.49214">
        <ele>479</ele>
        <time>2013-08-18T08:25:07.000Z</time>
      </trkpt>
      <trkpt lat="46.08602" lon="3.49217">
        <ele>478</ele>
        <time>2013-08-18T08:25:09.000Z</time>
      </trkpt>
      <trkpt lat="46.08598" lon="3.49221">
        <ele>478</ele>
        <time>2013-08-18T08:25:11.000Z</time>
      </trkpt>
      <trkpt lat="46.08598" lon="3.49221">
        <ele>478</ele>
        <time>2013-08-18T08:25:13.000Z</time>
      </trkpt>
      <trkpt lat="46.08598" lon="3.49221">
        <ele>478</ele>
        <time>2013-08-18T08:25:15.000Z</time>
      </trkpt>
      <trkpt lat="46.08598" lon="3.49221">
        <ele>478</ele>
        <time>2013-08-18T08:25:17.000Z</time>
      </trkpt>
      <trkpt lat="46.08598" lon="3.49221">
        <ele>478</ele>
        <time>2013-08-18T08:25:19.000Z</time>
      </trkpt>
      <trkpt lat="46.08598" lon="3.49221">
        <ele>478</ele>
        <time>2013-08-18T08:25:21.000Z</time>
      </trkpt>
      <trkpt lat="46.08598" lon="3.49221">
        <ele>478</ele>
        <time>2013-08-18T08:25:23.000Z</time>
      </trkpt>
      <trkpt lat="46.08598" lon="3.49221">
        <ele>478</ele>
        <time>2013-08-18T08:25:25.000Z</time>
      </trkpt>
      <trkpt lat="46.0858" lon="3.4922">
        <ele>483</ele>
        <time>2013-08-18T08:25:27.000Z</time>
      </trkpt>
      <trkpt lat="46.0857" lon="3.49218">
        <ele>483</ele>
        <time>2013-08-18T08:25:29.000Z</time>
      </trkpt>
      <trkpt lat="46.08563" lon="3.49217">
        <ele>483</ele>
        <time>2013-08-18T08:25:31.000Z</time>
      </trkpt>
      <trkpt lat="46.08558" lon="3.49216">
        <ele>484</ele>
        <time>2013-08-18T08:25:33.000Z</time>
      </trkpt>
      <trkpt lat="46.08553" lon="3.49215">
        <ele>487</ele>
        <time>2013-08-18T08:25:37.000Z</time>
      </trkpt>
      <trkpt lat="46.08548" lon="3.49213">
        <ele>487</ele>
        <time>2013-08-18T08:25:39.000Z</time>
      </trkpt>
      <trkpt lat="46.08548" lon="3.49213">
        <ele>487</ele>
        <time>2013-08-18T08:25:43.000Z</time>
      </trkpt>
      <trkpt lat="46.08548" lon="3.49213">
        <ele>487</ele>
        <time>2013-08-18T08:25:45.000Z</time>
      </trkpt>
      <trkpt lat="46.08548" lon="3.49213">
        <ele>487</ele>
        <time>2013-08-18T08:25:47.000Z</time>
      </trkpt>
      <trkpt lat="46.08535" lon="3.49211">
        <ele>489</ele>
        <time>2013-08-18T08:25:51.000Z</time>
      </trkpt>
      <trkpt lat="46.08526" lon="3.4921">
        <ele>489</ele>
        <time>2013-08-18T08:25:53.000Z</time>
      </trkpt>
      <trkpt lat="46.08526" lon="3.4921">
        <ele>489</ele>
        <time>2013-08-18T08:25:55.000Z</time>
      </trkpt>
      <trkpt lat="46.08519" lon="3.49208">
        <ele>491</ele>
        <time>2013-08-18T08:25:57.000Z</time>
      </trkpt>
      <trkpt lat="46.08513" lon="3.49207">
        <ele>492</ele>
        <time>2013-08-18T08:25:59.000Z</time>
      </trkpt>
      <trkpt lat="46.08509" lon="3.49206">
        <ele>492</ele>
        <time>2013-08-18T08:26:01.000Z</time>
      </trkpt>
      <trkpt lat="46.08504" lon="3.49207">
        <ele>493</ele>
        <time>2013-08-18T08:26:03.000Z</time>
      </trkpt>
      <trkpt lat="46.08504" lon="3.49207">
        <ele>493</ele>
        <time>2013-08-18T08:26:05.000Z</time>
      </trkpt>
      <trkpt lat="46.08504" lon="3.49207">
        <ele>493</ele>
        <time>2013-08-18T08:26:07.000Z</time>
      </trkpt>
      <trkpt lat="46.08504" lon="3.49207">
        <ele>493</ele>
        <time>2013-08-18T08:26:09.000Z</time>
      </trkpt>
      <trkpt lat="46.08504" lon="3.49207">
        <ele>493</ele>
        <time>2013-08-18T08:26:11.000Z</time>
      </trkpt>
      <trkpt lat="46.08504" lon="3.49207">
        <ele>493</ele>
        <time>2013-08-18T08:26:13.000Z</time>
      </trkpt>
      <trkpt lat="46.08492" lon="3.49213">
        <ele>494</ele>
        <time>2013-08-18T08:26:19.000Z</time>
      </trkpt>
      <trkpt lat="46.08484" lon="3.49216">
        <ele>495</ele>
        <time>2013-08-18T08:26:21.000Z</time>
      </trkpt>
      <trkpt lat="46.0848" lon="3.49221">
        <ele>493</ele>
        <time>2013-08-18T08:26:23.000Z</time>
      </trkpt>
      <trkpt lat="46.08475" lon="3.49223">
        <ele>495</ele>
        <time>2013-08-18T08:26:25.000Z</time>
      </trkpt>
      <trkpt lat="46.0847" lon="3.49225">
        <ele>496</ele>
        <time>2013-08-18T08:26:29.000Z</time>
      </trkpt>
      <trkpt lat="46.0847" lon="3.49225">
        <ele>496</ele>
        <time>2013-08-18T08:26:31.000Z</time>
      </trkpt>
      <trkpt lat="46.0847" lon="3.49225">
        <ele>496</ele>
        <time>2013-08-18T08:26:33.000Z</time>
      </trkpt>
      <trkpt lat="46.0847" lon="3.49225">
        <ele>496</ele>
        <time>2013-08-18T08:26:39.000Z</time>
      </trkpt>
      <trkpt lat="46.0847" lon="3.49225">
        <ele>496</ele>
        <time>2013-08-18T08:26:41.000Z</time>
      </trkpt>
      <trkpt lat="46.0847" lon="3.49225">
        <ele>496</ele>
        <time>2013-08-18T08:26:43.000Z</time>
      </trkpt>
      <trkpt lat="46.0847" lon="3.49225">
        <ele>496</ele>
        <time>2013-08-18T08:26:45.000Z</time>
      </trkpt>
      <trkpt lat="46.0847" lon="3.49225">
        <ele>496</ele>
        <time>2013-08-18T08:26:47.000Z</time>
      </trkpt>
      <trkpt lat="46.0847" lon="3.49225">
        <ele>496</ele>
        <time>2013-08-18T08:26:49.000Z</time>
      </trkpt>
      <trkpt lat="46.0847" lon="3.49225">
        <ele>496</ele>
        <time>2013-08-18T08:26:51.000Z</time>
      </trkpt>
      <trkpt lat="46.0847" lon="3.49225">
        <ele>496</ele>
        <time>2013-08-18T08:26:55.000Z</time>
      </trkpt>
      <trkpt lat="46.0847" lon="3.49225">
        <ele>496</ele>
        <time>2013-08-18T08:26:57.000Z</time>
      </trkpt>
      <trkpt lat="46.0847" lon="3.49225">
        <ele>496</ele>
        <time>2013-08-18T08:26:59.000Z</time>
      </trkpt>
      <trkpt lat="46.0847" lon="3.49225">
        <ele>496</ele>
        <time>2013-08-18T08:27:01.000Z</time>
      </trkpt>
      <trkpt lat="46.0847" lon="3.49225">
        <ele>496</ele>
        <time>2013-08-18T08:27:03.000Z</time>
      </trkpt>
      <trkpt lat="46.0847" lon="3.49225">
        <ele>496</ele>
        <time>2013-08-18T08:27:05.000Z</time>
      </trkpt>
      <trkpt lat="46.0847" lon="3.49225">
        <ele>496</ele>
        <time>2013-08-18T08:27:07.000Z</time>
      </trkpt>
      <trkpt lat="46.0847" lon="3.49225">
        <ele>496</ele>
        <time>2013-08-18T08:27:09.000Z</time>
      </trkpt>
      <trkpt lat="46.0847" lon="3.49225">
        <ele>496</ele>
        <time>2013-08-18T08:27:11.000Z</time>
      </trkpt>
      <trkpt lat="46.08438" lon="3.49241">
        <ele>495</ele>
        <time>2013-08-18T08:27:15.000Z</time>
      </trkpt>
      <trkpt lat="46.0842" lon="3.49249">
        <ele>495</ele>
        <time>2013-08-18T08:27:17.000Z</time>
      </trkpt>
      <trkpt lat="46.0841" lon="3.49255">
        <ele>494</ele>
        <time>2013-08-18T08:27:19.000Z</time>
      </trkpt>
      <trkpt lat="46.08404" lon="3.4926">
        <ele>494</ele>
        <time>2013-08-18T08:27:21.000Z</time>
      </trkpt>
      <trkpt lat="46.084" lon="3.49264">
        <ele>494</ele>
        <time>2013-08-18T08:27:23.000Z</time>
      </trkpt>
      <trkpt lat="46.08391" lon="3.49268">
        <ele>496</ele>
        <time>2013-08-18T08:27:25.000Z</time>
      </trkpt>
      <trkpt lat="46.08391" lon="3.49268">
        <ele>496</ele>
        <time>2013-08-18T08:27:27.000Z</time>
      </trkpt>
      <trkpt lat="46.08391" lon="3.49268">
        <ele>496</ele>
        <time>2013-08-18T08:27:29.000Z</time>
      </trkpt>
      <trkpt lat="46.08391" lon="3.49268">
        <ele>496</ele>
        <time>2013-08-18T08:27:31.000Z</time>
      </trkpt>
      <trkpt lat="46.08375" lon="3.49266">
        <ele>494</ele>
        <time>2013-08-18T08:27:37.000Z</time>
      </trkpt>
      <trkpt lat="46.0834" lon="3.49276">
        <ele>494</ele>
        <time>2013-08-18T08:28:10.000Z</time>
      </trkpt>
      <trkpt lat="46.0834" lon="3.49276">
        <ele>494</ele>
        <time>2013-08-18T08:28:12.000Z</time>
      </trkpt>
      <trkpt lat="46.0834" lon="3.49276">
        <ele>494</ele>
        <time>2013-08-18T08:28:14.000Z</time>
      </trkpt>
      <trkpt lat="46.0834" lon="3.49276">
        <ele>494</ele>
        <time>2013-08-18T08:28:16.000Z</time>
      </trkpt>
      <trkpt lat="46.0834" lon="3.49276">
        <ele>494</ele>
        <time>2013-08-18T08:28:18.000Z</time>
      </trkpt>
      <trkpt lat="46.0834" lon="3.49276">
        <ele>494</ele>
        <time>2013-08-18T08:28:20.000Z</time>
      </trkpt>
      <trkpt lat="46.0834" lon="3.49276">
        <ele>494</ele>
        <time>2013-08-18T08:28:22.000Z</time>
      </trkpt>
      <trkpt lat="46.08318" lon="3.49276">
        <ele>497</ele>
        <time>2013-08-18T08:28:26.000Z</time>
      </trkpt>
      <trkpt lat="46.08308" lon="3.49273">
        <ele>497</ele>
        <time>2013-08-18T08:28:32.000Z</time>
      </trkpt>
      <trkpt lat="46.08308" lon="3.49273">
        <ele>497</ele>
        <time>2013-08-18T08:28:36.000Z</time>
      </trkpt>
      <trkpt lat="46.08308" lon="3.49273">
        <ele>497</ele>
        <time>2013-08-18T08:28:38.000Z</time>
      </trkpt>
      <trkpt lat="46.08308" lon="3.49273">
        <ele>497</ele>
        <time>2013-08-18T08:28:40.000Z</time>
      </trkpt>
      <trkpt lat="46.08308" lon="3.49273">
        <ele>497</ele>
        <time>2013-08-18T08:28:58.000Z</time>
      </trkpt>
      <trkpt lat="46.08308" lon="3.49273">
        <ele>497</ele>
        <time>2013-08-18T08:29:12.000Z</time>
      </trkpt>
      <trkpt lat="46.08308" lon="3.4924">
        <ele>499</ele>
        <time>2013-08-18T08:29:24.000Z</time>
      </trkpt>
      <trkpt lat="46.08309" lon="3.4922">
        <ele>499</ele>
        <time>2013-08-18T08:29:26.000Z</time>
      </trkpt>
      <trkpt lat="46.08311" lon="3.49208">
        <ele>499</ele>
        <time>2013-08-18T08:29:28.000Z</time>
      </trkpt>
      <trkpt lat="46.08312" lon="3.49201">
        <ele>499</ele>
        <time>2013-08-18T08:29:30.000Z</time>
      </trkpt>
      <trkpt lat="46.08314" lon="3.49194">
        <ele>499</ele>
        <time>2013-08-18T08:29:32.000Z</time>
      </trkpt>
      <trkpt lat="46.08314" lon="3.49194">
        <ele>499</ele>
        <time>2013-08-18T08:29:34.000Z</time>
      </trkpt>
      <trkpt lat="46.08314" lon="3.49194">
        <ele>499</ele>
        <time>2013-08-18T08:29:36.000Z</time>
      </trkpt>
      <trkpt lat="46.08314" lon="3.49194">
        <ele>499</ele>
        <time>2013-08-18T08:29:38.000Z</time>
      </trkpt>
      <trkpt lat="46.08314" lon="3.49194">
        <ele>499</ele>
        <time>2013-08-18T08:29:40.000Z</time>
      </trkpt>
      <trkpt lat="46.08314" lon="3.49194">
        <ele>499</ele>
        <time>2013-08-18T08:29:42.000Z</time>
      </trkpt>
      <trkpt lat="46.08314" lon="3.49194">
        <ele>499</ele>
        <time>2013-08-18T08:29:44.000Z</time>
      </trkpt>
      <trkpt lat="46.08314" lon="3.49194">
        <ele>499</ele>
        <time>2013-08-18T08:29:46.000Z</time>
      </trkpt>
      <trkpt lat="46.08315" lon="3.49149">
        <ele>495</ele>
        <time>2013-08-18T08:29:52.000Z</time>
      </trkpt>
      <trkpt lat="46.08321" lon="3.49136">
        <ele>498</ele>
        <time>2013-08-18T08:29:58.000Z</time>
      </trkpt>
      <trkpt lat="46.08321" lon="3.49136">
        <ele>498</ele>
        <time>2013-08-18T08:30:04.000Z</time>
      </trkpt>
      <trkpt lat="46.08321" lon="3.49136">
        <ele>498</ele>
        <time>2013-08-18T08:30:06.000Z</time>
      </trkpt>
      <trkpt lat="46.08321" lon="3.49136">
        <ele>498</ele>
        <time>2013-08-18T08:30:08.000Z</time>
      </trkpt>
      <trkpt lat="46.08325" lon="3.49108">
        <ele>496</ele>
        <time>2013-08-18T08:30:10.000Z</time>
      </trkpt>
      <trkpt lat="46.08317" lon="3.49092">
        <ele>494</ele>
        <time>2013-08-18T08:30:14.000Z</time>
      </trkpt>
      <trkpt lat="46.08309" lon="3.49082">
        <ele>498</ele>
        <time>2013-08-18T08:30:18.000Z</time>
      </trkpt>
      <trkpt lat="46.08301" lon="3.49075">
        <ele>497</ele>
        <time>2013-08-18T08:30:22.000Z</time>
      </trkpt>
      <trkpt lat="46.08289" lon="3.49068">
        <ele>498</ele>
        <time>2013-08-18T08:30:26.000Z</time>
      </trkpt>
      <trkpt lat="46.08278" lon="3.49061">
        <ele>498</ele>
        <time>2013-08-18T08:30:30.000Z</time>
      </trkpt>
      <trkpt lat="46.0826" lon="3.49051">
        <ele>498</ele>
        <time>2013-08-18T08:30:36.000Z</time>
      </trkpt>
      <trkpt lat="46.08248" lon="3.49042">
        <ele>500</ele>
        <time>2013-08-18T08:30:42.000Z</time>
      </trkpt>
      <trkpt lat="46.08248" lon="3.49042">
        <ele>500</ele>
        <time>2013-08-18T08:30:44.000Z</time>
      </trkpt>
      <trkpt lat="46.08248" lon="3.49042">
        <ele>500</ele>
        <time>2013-08-18T08:30:46.000Z</time>
      </trkpt>
      <trkpt lat="46.08248" lon="3.49042">
        <ele>500</ele>
        <time>2013-08-18T08:30:48.000Z</time>
      </trkpt>
      <trkpt lat="46.08248" lon="3.49042">
        <ele>500</ele>
        <time>2013-08-18T08:30:50.000Z</time>
      </trkpt>
      <trkpt lat="46.08231" lon="3.49038">
        <ele>497</ele>
        <time>2013-08-18T08:30:54.000Z</time>
      </trkpt>
      <trkpt lat="46.0822" lon="3.49036">
        <ele>498</ele>
        <time>2013-08-18T08:30:56.000Z</time>
      </trkpt>
      <trkpt lat="46.08213" lon="3.49035">
        <ele>498</ele>
        <time>2013-08-18T08:30:58.000Z</time>
      </trkpt>
      <trkpt lat="46.08206" lon="3.49033">
        <ele>498</ele>
        <time>2013-08-18T08:31:00.000Z</time>
      </trkpt>
      <trkpt lat="46.082" lon="3.49031">
        <ele>498</ele>
        <time>2013-08-18T08:31:02.000Z</time>
      </trkpt>
      <trkpt lat="46.082" lon="3.49031">
        <ele>498</ele>
        <time>2013-08-18T08:31:04.000Z</time>
      </trkpt>
      <trkpt lat="46.082" lon="3.49031">
        <ele>498</ele>
        <time>2013-08-18T08:31:06.000Z</time>
      </trkpt>
      <trkpt lat="46.08176" lon="3.49025">
        <ele>497</ele>
        <time>2013-08-18T08:31:10.000Z</time>
      </trkpt>
      <trkpt lat="46.08166" lon="3.49023">
        <ele>496</ele>
        <time>2013-08-18T08:31:14.000Z</time>
      </trkpt>
      <trkpt lat="46.08156" lon="3.4902">
        <ele>494</ele>
        <time>2013-08-18T08:31:18.000Z</time>
      </trkpt>
      <trkpt lat="46.08156" lon="3.4902">
        <ele>494</ele>
        <time>2013-08-18T08:31:20.000Z</time>
      </trkpt>
      <trkpt lat="46.08156" lon="3.4902">
        <ele>494</ele>
        <time>2013-08-18T08:31:22.000Z</time>
      </trkpt>
      <trkpt lat="46.08156" lon="3.4902">
        <ele>494</ele>
        <time>2013-08-18T08:31:24.000Z</time>
      </trkpt>
      <trkpt lat="46.08156" lon="3.4902">
        <ele>494</ele>
        <time>2013-08-18T08:31:26.000Z</time>
      </trkpt>
      <trkpt lat="46.08156" lon="3.4902">
        <ele>494</ele>
        <time>2013-08-18T08:31:28.000Z</time>
      </trkpt>
      <trkpt lat="46.08123" lon="3.49002">
        <ele>493</ele>
        <time>2013-08-18T08:31:36.000Z</time>
      </trkpt>
      <trkpt lat="46.08115" lon="3.48994">
        <ele>493</ele>
        <time>2013-08-18T08:31:40.000Z</time>
      </trkpt>
      <trkpt lat="46.08115" lon="3.48981">
        <ele>493</ele>
        <time>2013-08-18T08:31:44.000Z</time>
      </trkpt>
      <trkpt lat="46.08117" lon="3.48963">
        <ele>489</ele>
        <time>2013-08-18T08:31:50.000Z</time>
      </trkpt>
      <trkpt lat="46.08117" lon="3.48963">
        <ele>489</ele>
        <time>2013-08-18T08:31:52.000Z</time>
      </trkpt>
      <trkpt lat="46.08121" lon="3.48951">
        <ele>488</ele>
        <time>2013-08-18T08:31:54.000Z</time>
      </trkpt>
      <trkpt lat="46.08127" lon="3.48936">
        <ele>488</ele>
        <time>2013-08-18T08:31:58.000Z</time>
      </trkpt>
      <trkpt lat="46.08127" lon="3.48936">
        <ele>488</ele>
        <time>2013-08-18T08:32:04.000Z</time>
      </trkpt>
      <trkpt lat="46.08127" lon="3.48936">
        <ele>488</ele>
        <time>2013-08-18T08:32:06.000Z</time>
      </trkpt>
      <trkpt lat="46.08127" lon="3.48936">
        <ele>488</ele>
        <time>2013-08-18T08:32:08.000Z</time>
      </trkpt>
      <trkpt lat="46.08127" lon="3.48936">
        <ele>488</ele>
        <time>2013-08-18T08:32:10.000Z</time>
      </trkpt>
      <trkpt lat="46.08127" lon="3.48936">
        <ele>488</ele>
        <time>2013-08-18T08:32:12.000Z</time>
      </trkpt>
      <trkpt lat="46.08127" lon="3.48936">
        <ele>488</ele>
        <time>2013-08-18T08:32:14.000Z</time>
      </trkpt>
      <trkpt lat="46.08127" lon="3.48936">
        <ele>488</ele>
        <time>2013-08-18T08:32:16.000Z</time>
      </trkpt>
      <trkpt lat="46.08127" lon="3.48936">
        <ele>488</ele>
        <time>2013-08-18T08:32:18.000Z</time>
      </trkpt>
      <trkpt lat="46.08108" lon="3.48911">
        <ele>483</ele>
        <time>2013-08-18T08:32:24.000Z</time>
      </trkpt>
      <trkpt lat="46.08097" lon="3.48897">
        <ele>483</ele>
        <time>2013-08-18T08:32:26.000Z</time>
      </trkpt>
      <trkpt lat="46.08089" lon="3.48888">
        <ele>483</ele>
        <time>2013-08-18T08:32:28.000Z</time>
      </trkpt>
      <trkpt lat="46.08083" lon="3.48882">
        <ele>482</ele>
        <time>2013-08-18T08:32:30.000Z</time>
      </trkpt>
      <trkpt lat="46.08083" lon="3.48882">
        <ele>482</ele>
        <time>2013-08-18T08:32:32.000Z</time>
      </trkpt>
      <trkpt lat="46.08083" lon="3.48882">
        <ele>482</ele>
        <time>2013-08-18T08:32:34.000Z</time>
      </trkpt>
      <trkpt lat="46.08083" lon="3.48882">
        <ele>482</ele>
        <time>2013-08-18T08:32:36.000Z</time>
      </trkpt>
      <trkpt lat="46.08083" lon="3.48882">
        <ele>482</ele>
        <time>2013-08-18T08:32:38.000Z</time>
      </trkpt>
      <trkpt lat="46.08063" lon="3.48822">
        <ele>475</ele>
        <time>2013-08-18T08:33:08.000Z</time>
      </trkpt>
      <trkpt lat="46.08051" lon="3.48788">
        <ele>470</ele>
        <time>2013-08-18T08:33:09.000Z</time>
      </trkpt>
      <trkpt lat="46.08045" lon="3.48769">
        <ele>466</ele>
        <time>2013-08-18T08:33:11.000Z</time>
      </trkpt>
      <trkpt lat="46.08045" lon="3.48769">
        <ele>466</ele>
        <time>2013-08-18T08:33:13.000Z</time>
      </trkpt>
      <trkpt lat="46.08045" lon="3.48769">
        <ele>466</ele>
        <time>2013-08-18T08:33:15.000Z</time>
      </trkpt>
      <trkpt lat="46.08045" lon="3.48769">
        <ele>466</ele>
        <time>2013-08-18T08:33:17.000Z</time>
      </trkpt>
      <trkpt lat="46.08045" lon="3.48769">
        <ele>466</ele>
        <time>2013-08-18T08:33:19.000Z</time>
      </trkpt>
      <trkpt lat="46.08041" lon="3.48744">
        <ele>461</ele>
        <time>2013-08-18T08:33:21.000Z</time>
      </trkpt>
      <trkpt lat="46.08037" lon="3.48728">
        <ele>461</ele>
        <time>2013-08-18T08:33:23.000Z</time>
      </trkpt>
      <trkpt lat="46.08035" lon="3.48716">
        <ele>460</ele>
        <time>2013-08-18T08:33:25.000Z</time>
      </trkpt>
      <trkpt lat="46.08033" lon="3.48708">
        <ele>458</ele>
        <time>2013-08-18T08:33:27.000Z</time>
      </trkpt>
      <trkpt lat="46.08033" lon="3.48708">
        <ele>458</ele>
        <time>2013-08-18T08:33:29.000Z</time>
      </trkpt>
      <trkpt lat="46.08033" lon="3.48708">
        <ele>458</ele>
        <time>2013-08-18T08:33:31.000Z</time>
      </trkpt>
      <trkpt lat="46.08033" lon="3.48708">
        <ele>458</ele>
        <time>2013-08-18T08:33:33.000Z</time>
      </trkpt>
      <trkpt lat="46.08029" lon="3.48686">
        <ele>454</ele>
        <time>2013-08-18T08:33:37.000Z</time>
      </trkpt>
      <trkpt lat="46.08026" lon="3.48672">
        <ele>453</ele>
        <time>2013-08-18T08:33:39.000Z</time>
      </trkpt>
      <trkpt lat="46.08025" lon="3.48661">
        <ele>456</ele>
        <time>2013-08-18T08:33:41.000Z</time>
      </trkpt>
      <trkpt lat="46.08023" lon="3.48652">
        <ele>455</ele>
        <time>2013-08-18T08:33:43.000Z</time>
      </trkpt>
      <trkpt lat="46.08023" lon="3.48652">
        <ele>455</ele>
        <time>2013-08-18T08:33:45.000Z</time>
      </trkpt>
      <trkpt lat="46.08023" lon="3.48652">
        <ele>455</ele>
        <time>2013-08-18T08:33:47.000Z</time>
      </trkpt>
      <trkpt lat="46.08023" lon="3.48652">
        <ele>455</ele>
        <time>2013-08-18T08:33:49.000Z</time>
      </trkpt>
      <trkpt lat="46.08023" lon="3.48652">
        <ele>455</ele>
        <time>2013-08-18T08:33:51.000Z</time>
      </trkpt>
      <trkpt lat="46.08023" lon="3.48652">
        <ele>455</ele>
        <time>2013-08-18T08:33:53.000Z</time>
      </trkpt>
      <trkpt lat="46.08023" lon="3.48652">
        <ele>455</ele>
        <time>2013-08-18T08:33:55.000Z</time>
      </trkpt>
      <trkpt lat="46.08023" lon="3.48652">
        <ele>455</ele>
        <time>2013-08-18T08:33:57.000Z</time>
      </trkpt>
      <trkpt lat="46.08023" lon="3.48652">
        <ele>455</ele>
        <time>2013-08-18T08:33:59.000Z</time>
      </trkpt>
      <trkpt lat="46.08023" lon="3.48652">
        <ele>455</ele>
        <time>2013-08-18T08:34:01.000Z</time>
      </trkpt>
      <trkpt lat="46.08023" lon="3.48652">
        <ele>455</ele>
        <time>2013-08-18T08:34:03.000Z</time>
      </trkpt>
      <trkpt lat="46.08023" lon="3.48652">
        <ele>455</ele>
        <time>2013-08-18T08:34:05.000Z</time>
      </trkpt>
      <trkpt lat="46.08023" lon="3.48652">
        <ele>455</ele>
        <time>2013-08-18T08:34:08.000Z</time>
      </trkpt>
      <trkpt lat="46.08023" lon="3.48652">
        <ele>455</ele>
        <time>2013-08-18T08:34:12.000Z</time>
      </trkpt>
      <trkpt lat="46.08023" lon="3.48652">
        <ele>455</ele>
        <time>2013-08-18T08:34:14.000Z</time>
      </trkpt>
      <trkpt lat="46.08033" lon="3.48622">
        <ele>441</ele>
        <time>2013-08-18T08:34:18.000Z</time>
      </trkpt>
      <trkpt lat="46.0804" lon="3.48608">
        <ele>440</ele>
        <time>2013-08-18T08:34:20.000Z</time>
      </trkpt>
      <trkpt lat="46.08047" lon="3.48599">
        <ele>439</ele>
        <time>2013-08-18T08:34:22.000Z</time>
      </trkpt>
      <trkpt lat="46.08053" lon="3.48594">
        <ele>439</ele>
        <time>2013-08-18T08:34:24.000Z</time>
      </trkpt>
      <trkpt lat="46.08058" lon="3.48592">
        <ele>440</ele>
        <time>2013-08-18T08:34:26.000Z</time>
      </trkpt>
      <trkpt lat="46.08067" lon="3.48589">
        <ele>440</ele>
        <time>2013-08-18T08:34:28.000Z</time>
      </trkpt>
      <trkpt lat="46.08067" lon="3.48589">
        <ele>440</ele>
        <time>2013-08-18T08:34:30.000Z</time>
      </trkpt>
      <trkpt lat="46.08067" lon="3.48589">
        <ele>440</ele>
        <time>2013-08-18T08:34:32.000Z</time>
      </trkpt>
      <trkpt lat="46.08067" lon="3.48589">
        <ele>440</ele>
        <time>2013-08-18T08:34:34.000Z</time>
      </trkpt>
      <trkpt lat="46.08094" lon="3.48579">
        <ele>440</ele>
        <time>2013-08-18T08:34:38.000Z</time>
      </trkpt>
      <trkpt lat="46.08094" lon="3.48579">
        <ele>440</ele>
        <time>2013-08-18T08:34:40.000Z</time>
      </trkpt>
      <trkpt lat="46.08107" lon="3.48579">
        <ele>441</ele>
        <time>2013-08-18T08:34:42.000Z</time>
      </trkpt>
      <trkpt lat="46.08107" lon="3.48579">
        <ele>441</ele>
        <time>2013-08-18T08:34:44.000Z</time>
      </trkpt>
      <trkpt lat="46.08107" lon="3.48579">
        <ele>441</ele>
        <time>2013-08-18T08:34:46.000Z</time>
      </trkpt>
      <trkpt lat="46.08107" lon="3.48579">
        <ele>441</ele>
        <time>2013-08-18T08:34:48.000Z</time>
      </trkpt>
      <trkpt lat="46.08107" lon="3.48579">
        <ele>441</ele>
        <time>2013-08-18T08:34:52.000Z</time>
      </trkpt>
      <trkpt lat="46.08107" lon="3.48579">
        <ele>441</ele>
        <time>2013-08-18T08:34:54.000Z</time>
      </trkpt>
      <trkpt lat="46.08107" lon="3.48579">
        <ele>441</ele>
        <time>2013-08-18T08:34:56.000Z</time>
      </trkpt>
      <trkpt lat="46.08107" lon="3.48579">
        <ele>441</ele>
        <time>2013-08-18T08:34:58.000Z</time>
      </trkpt>
      <trkpt lat="46.08107" lon="3.48579">
        <ele>441</ele>
        <time>2013-08-18T08:35:00.000Z</time>
      </trkpt>
      <trkpt lat="46.08107" lon="3.48579">
        <ele>441</ele>
        <time>2013-08-18T08:35:02.000Z</time>
      </trkpt>
      <trkpt lat="46.08107" lon="3.48579">
        <ele>441</ele>
        <time>2013-08-18T08:35:04.000Z</time>
      </trkpt>
      <trkpt lat="46.08107" lon="3.48579">
        <ele>441</ele>
        <time>2013-08-18T08:35:12.000Z</time>
      </trkpt>
      <trkpt lat="46.08107" lon="3.48579">
        <ele>441</ele>
        <time>2013-08-18T08:35:14.000Z</time>
      </trkpt>
      <trkpt lat="46.08107" lon="3.48579">
        <ele>441</ele>
        <time>2013-08-18T08:35:16.000Z</time>
      </trkpt>
      <trkpt lat="46.08107" lon="3.48579">
        <ele>441</ele>
        <time>2013-08-18T08:35:18.000Z</time>
      </trkpt>
      <trkpt lat="46.08107" lon="3.48579">
        <ele>441</ele>
        <time>2013-08-18T08:35:20.000Z</time>
      </trkpt>
      <trkpt lat="46.08107" lon="3.48579">
        <ele>441</ele>
        <time>2013-08-18T08:35:22.000Z</time>
      </trkpt>
      <trkpt lat="46.08156" lon="3.48559">
        <ele>441</ele>
        <time>2013-08-18T08:35:24.000Z</time>
      </trkpt>
      <trkpt lat="46.08163" lon="3.4855">
        <ele>439</ele>
        <time>2013-08-18T08:35:30.000Z</time>
      </trkpt>
      <trkpt lat="46.08163" lon="3.4855">
        <ele>439</ele>
        <time>2013-08-18T08:35:32.000Z</time>
      </trkpt>
      <trkpt lat="46.08163" lon="3.4855">
        <ele>439</ele>
        <time>2013-08-18T08:35:34.000Z</time>
      </trkpt>
      <trkpt lat="46.08173" lon="3.48544">
        <ele>435</ele>
        <time>2013-08-18T08:35:38.000Z</time>
      </trkpt>
      <trkpt lat="46.08181" lon="3.48539">
        <ele>435</ele>
        <time>2013-08-18T08:35:40.000Z</time>
      </trkpt>
      <trkpt lat="46.08187" lon="3.48533">
        <ele>435</ele>
        <time>2013-08-18T08:35:42.000Z</time>
      </trkpt>
      <trkpt lat="46.08191" lon="3.48528">
        <ele>436</ele>
        <time>2013-08-18T08:35:44.000Z</time>
      </trkpt>
      <trkpt lat="46.08195" lon="3.48524">
        <ele>435</ele>
        <time>2013-08-18T08:35:46.000Z</time>
      </trkpt>
      <trkpt lat="46.08203" lon="3.48518">
        <ele>434</ele>
        <time>2013-08-18T08:35:48.000Z</time>
      </trkpt>
      <trkpt lat="46.08211" lon="3.48512">
        <ele>432</ele>
        <time>2013-08-18T08:35:52.000Z</time>
      </trkpt>
      <trkpt lat="46.08219" lon="3.48504">
        <ele>431</ele>
        <time>2013-08-18T08:35:56.000Z</time>
      </trkpt>
      <trkpt lat="46.08226" lon="3.4849">
        <ele>430</ele>
        <time>2013-08-18T08:36:00.000Z</time>
      </trkpt>
      <trkpt lat="46.08236" lon="3.48491">
        <ele>430</ele>
        <time>2013-08-18T08:36:04.000Z</time>
      </trkpt>
      <trkpt lat="46.08236" lon="3.48491">
        <ele>430</ele>
        <time>2013-08-18T08:36:06.000Z</time>
      </trkpt>
      <trkpt lat="46.08236" lon="3.48491">
        <ele>430</ele>
        <time>2013-08-18T08:36:08.000Z</time>
      </trkpt>
      <trkpt lat="46.08236" lon="3.48491">
        <ele>430</ele>
        <time>2013-08-18T08:36:10.000Z</time>
      </trkpt>
      <trkpt lat="46.08236" lon="3.48491">
        <ele>430</ele>
        <time>2013-08-18T08:36:12.000Z</time>
      </trkpt>
      <trkpt lat="46.08236" lon="3.48491">
        <ele>430</ele>
        <time>2013-08-18T08:36:14.000Z</time>
      </trkpt>
      <trkpt lat="46.08265" lon="3.48489">
        <ele>429</ele>
        <time>2013-08-18T08:36:18.000Z</time>
      </trkpt>
      <trkpt lat="46.08276" lon="3.48493">
        <ele>428</ele>
        <time>2013-08-18T08:36:24.000Z</time>
      </trkpt>
      <trkpt lat="46.08276" lon="3.48493">
        <ele>428</ele>
        <time>2013-08-18T08:36:26.000Z</time>
      </trkpt>
      <trkpt lat="46.08276" lon="3.48493">
        <ele>428</ele>
        <time>2013-08-18T08:36:28.000Z</time>
      </trkpt>
      <trkpt lat="46.08276" lon="3.48493">
        <ele>428</ele>
        <time>2013-08-18T08:36:30.000Z</time>
      </trkpt>
      <trkpt lat="46.08276" lon="3.48493">
        <ele>428</ele>
        <time>2013-08-18T08:36:32.000Z</time>
      </trkpt>
      <trkpt lat="46.08276" lon="3.48493">
        <ele>428</ele>
        <time>2013-08-18T08:36:34.000Z</time>
      </trkpt>
      <trkpt lat="46.08276" lon="3.48493">
        <ele>428</ele>
        <time>2013-08-18T08:36:36.000Z</time>
      </trkpt>
      <trkpt lat="46.08276" lon="3.48493">
        <ele>428</ele>
        <time>2013-08-18T08:36:38.000Z</time>
      </trkpt>
      <trkpt lat="46.08276" lon="3.48493">
        <ele>428</ele>
        <time>2013-08-18T08:36:40.000Z</time>
      </trkpt>
      <trkpt lat="46.08276" lon="3.48493">
        <ele>428</ele>
        <time>2013-08-18T08:36:46.000Z</time>
      </trkpt>
      <trkpt lat="46.08276" lon="3.48493">
        <ele>428</ele>
        <time>2013-08-18T08:36:48.000Z</time>
      </trkpt>
      <trkpt lat="46.08276" lon="3.48493">
        <ele>428</ele>
        <time>2013-08-18T08:36:50.000Z</time>
      </trkpt>
      <trkpt lat="46.08276" lon="3.48493">
        <ele>428</ele>
        <time>2013-08-18T08:36:52.000Z</time>
      </trkpt>
      <trkpt lat="46.08276" lon="3.48493">
        <ele>428</ele>
        <time>2013-08-18T08:36:54.000Z</time>
      </trkpt>
      <trkpt lat="46.08276" lon="3.48493">
        <ele>428</ele>
        <time>2013-08-18T08:36:56.000Z</time>
      </trkpt>
      <trkpt lat="46.08276" lon="3.48493">
        <ele>428</ele>
        <time>2013-08-18T08:36:58.000Z</time>
      </trkpt>
      <trkpt lat="46.08276" lon="3.48493">
        <ele>428</ele>
        <time>2013-08-18T08:37:00.000Z</time>
      </trkpt>
      <trkpt lat="46.08276" lon="3.48493">
        <ele>428</ele>
        <time>2013-08-18T08:37:02.000Z</time>
      </trkpt>
      <trkpt lat="46.08279" lon="3.48543">
        <ele>427</ele>
        <time>2013-08-18T08:37:06.000Z</time>
      </trkpt>
      <trkpt lat="46.08281" lon="3.48574">
        <ele>427</ele>
        <time>2013-08-18T08:37:08.000Z</time>
      </trkpt>
      <trkpt lat="46.08285" lon="3.48593">
        <ele>427</ele>
        <time>2013-08-18T08:37:10.000Z</time>
      </trkpt>
      <trkpt lat="46.08286" lon="3.48608">
        <ele>426</ele>
        <time>2013-08-18T08:37:12.000Z</time>
      </trkpt>
      <trkpt lat="46.08288" lon="3.48618">
        <ele>426</ele>
        <time>2013-08-18T08:37:14.000Z</time>
      </trkpt>
      <trkpt lat="46.08295" lon="3.48644">
        <ele>425</ele>
        <time>2013-08-18T08:37:18.000Z</time>
      </trkpt>
      <trkpt lat="46.08295" lon="3.48644">
        <ele>425</ele>
        <time>2013-08-18T08:37:20.000Z</time>
      </trkpt>
      <trkpt lat="46.08295" lon="3.48644">
        <ele>425</ele>
        <time>2013-08-18T08:37:22.000Z</time>
      </trkpt>
      <trkpt lat="46.08295" lon="3.48644">
        <ele>425</ele>
        <time>2013-08-18T08:37:24.000Z</time>
      </trkpt>
      <trkpt lat="46.08295" lon="3.48644">
        <ele>425</ele>
        <time>2013-08-18T08:37:26.000Z</time>
      </trkpt>
      <trkpt lat="46.08295" lon="3.48644">
        <ele>425</ele>
        <time>2013-08-18T08:37:28.000Z</time>
      </trkpt>
      <trkpt lat="46.08295" lon="3.48644">
        <ele>425</ele>
        <time>2013-08-18T08:37:32.000Z</time>
      </trkpt>
      <trkpt lat="46.08295" lon="3.48644">
        <ele>425</ele>
        <time>2013-08-18T08:37:34.000Z</time>
      </trkpt>
      <trkpt lat="46.08295" lon="3.48644">
        <ele>425</ele>
        <time>2013-08-18T08:37:36.000Z</time>
      </trkpt>
      <trkpt lat="46.08295" lon="3.48644">
        <ele>425</ele>
        <time>2013-08-18T08:37:38.000Z</time>
      </trkpt>
      <trkpt lat="46.08347" lon="3.48621">
        <ele>420</ele>
        <time>2013-08-18T08:38:09.000Z</time>
      </trkpt>
      <trkpt lat="46.08347" lon="3.48621">
        <ele>420</ele>
        <time>2013-08-18T08:38:11.000Z</time>
      </trkpt>
      <trkpt lat="46.08347" lon="3.48621">
        <ele>420</ele>
        <time>2013-08-18T08:38:13.000Z</time>
      </trkpt>
      <trkpt lat="46.08347" lon="3.48621">
        <ele>420</ele>
        <time>2013-08-18T08:38:19.000Z</time>
      </trkpt>
      <trkpt lat="46.08347" lon="3.48621">
        <ele>420</ele>
        <time>2013-08-18T08:38:21.000Z</time>
      </trkpt>
      <trkpt lat="46.08347" lon="3.48621">
        <ele>420</ele>
        <time>2013-08-18T08:38:23.000Z</time>
      </trkpt>
      <trkpt lat="46.08364" lon="3.48584">
        <ele>417</ele>
        <time>2013-08-18T08:38:28.000Z</time>
      </trkpt>
      <trkpt lat="46.08378" lon="3.48588">
        <ele>413</ele>
        <time>2013-08-18T08:38:33.000Z</time>
      </trkpt>
      <trkpt lat="46.08378" lon="3.48588">
        <ele>413</ele>
        <time>2013-08-18T08:38:37.000Z</time>
      </trkpt>
      <trkpt lat="46.08378" lon="3.48588">
        <ele>413</ele>
        <time>2013-08-18T08:38:39.000Z</time>
      </trkpt>
      <trkpt lat="46.08378" lon="3.48588">
        <ele>413</ele>
        <time>2013-08-18T08:38:41.000Z</time>
      </trkpt>
      <trkpt lat="46.08378" lon="3.48588">
        <ele>413</ele>
        <time>2013-08-18T08:38:43.000Z</time>
      </trkpt>
      <trkpt lat="46.08378" lon="3.48588">
        <ele>413</ele>
        <time>2013-08-18T08:38:45.000Z</time>
      </trkpt>
      <trkpt lat="46.08388" lon="3.48569">
        <ele>410</ele>
        <time>2013-08-18T08:39:34.000Z</time>
      </trkpt>
      <trkpt lat="46.08392" lon="3.48557">
        <ele>412</ele>
        <time>2013-08-18T08:39:37.000Z</time>
      </trkpt>
      <trkpt lat="46.08394" lon="3.48547">
        <ele>411</ele>
        <time>2013-08-18T08:39:39.000Z</time>
      </trkpt>
      <trkpt lat="46.08396" lon="3.48539">
        <ele>411</ele>
        <time>2013-08-18T08:39:41.000Z</time>
      </trkpt>
      <trkpt lat="46.08398" lon="3.48532">
        <ele>410</ele>
        <time>2013-08-18T08:39:43.000Z</time>
      </trkpt>
      <trkpt lat="46.08398" lon="3.48532">
        <ele>410</ele>
        <time>2013-08-18T08:39:45.000Z</time>
      </trkpt>
      <trkpt lat="46.08398" lon="3.48532">
        <ele>410</ele>
        <time>2013-08-18T08:39:47.000Z</time>
      </trkpt>
      <trkpt lat="46.08398" lon="3.48532">
        <ele>410</ele>
        <time>2013-08-18T08:39:49.000Z</time>
      </trkpt>
      <trkpt lat="46.08398" lon="3.48532">
        <ele>410</ele>
        <time>2013-08-18T08:39:51.000Z</time>
      </trkpt>
      <trkpt lat="46.08398" lon="3.48532">
        <ele>410</ele>
        <time>2013-08-18T08:39:53.000Z</time>
      </trkpt>
      <trkpt lat="46.08398" lon="3.48532">
        <ele>410</ele>
        <time>2013-08-18T08:39:55.000Z</time>
      </trkpt>
      <trkpt lat="46.08398" lon="3.48532">
        <ele>410</ele>
        <time>2013-08-18T08:39:57.000Z</time>
      </trkpt>
      <trkpt lat="46.08398" lon="3.48532">
        <ele>410</ele>
        <time>2013-08-18T08:39:59.000Z</time>
      </trkpt>
      <trkpt lat="46.08415" lon="3.48481">
        <ele>411</ele>
        <time>2013-08-18T08:40:03.000Z</time>
      </trkpt>
      <trkpt lat="46.08421" lon="3.48466">
        <ele>412</ele>
        <time>2013-08-18T08:40:09.000Z</time>
      </trkpt>
      <trkpt lat="46.08421" lon="3.48466">
        <ele>412</ele>
        <time>2013-08-18T08:40:15.000Z</time>
      </trkpt>
      <trkpt lat="46.08421" lon="3.48466">
        <ele>412</ele>
        <time>2013-08-18T08:40:17.000Z</time>
      </trkpt>
      <trkpt lat="46.08421" lon="3.48466">
        <ele>412</ele>
        <time>2013-08-18T08:40:19.000Z</time>
      </trkpt>
      <trkpt lat="46.08421" lon="3.48466">
        <ele>412</ele>
        <time>2013-08-18T08:40:21.000Z</time>
      </trkpt>
      <trkpt lat="46.0843" lon="3.48422">
        <ele>416</ele>
        <time>2013-08-18T08:40:29.000Z</time>
      </trkpt>
      <trkpt lat="46.08434" lon="3.48406">
        <ele>417</ele>
        <time>2013-08-18T08:40:35.000Z</time>
      </trkpt>
      <trkpt lat="46.08434" lon="3.48406">
        <ele>417</ele>
        <time>2013-08-18T08:40:39.000Z</time>
      </trkpt>
      <trkpt lat="46.08434" lon="3.48406">
        <ele>417</ele>
        <time>2013-08-18T08:40:41.000Z</time>
      </trkpt>
      <trkpt lat="46.08434" lon="3.48406">
        <ele>417</ele>
        <time>2013-08-18T08:40:43.000Z</time>
      </trkpt>
      <trkpt lat="46.08434" lon="3.48406">
        <ele>417</ele>
        <time>2013-08-18T08:40:45.000Z</time>
      </trkpt>
      <trkpt lat="46.08434" lon="3.48406">
        <ele>417</ele>
        <time>2013-08-18T08:40:47.000Z</time>
      </trkpt>
      <trkpt lat="46.08434" lon="3.48406">
        <ele>417</ele>
        <time>2013-08-18T08:40:49.000Z</time>
      </trkpt>
      <trkpt lat="46.08416" lon="3.48383">
        <ele>423</ele>
        <time>2013-08-18T08:42:27.000Z</time>
      </trkpt>
      <trkpt lat="46.08407" lon="3.48371">
        <ele>423</ele>
        <time>2013-08-18T08:42:29.000Z</time>
      </trkpt>
      <trkpt lat="46.08401" lon="3.48364">
        <ele>423</ele>
        <time>2013-08-18T08:42:31.000Z</time>
      </trkpt>
      <trkpt lat="46.08395" lon="3.48354">
        <ele>424</ele>
        <time>2013-08-18T08:42:39.000Z</time>
      </trkpt>
      <trkpt lat="46.08391" lon="3.48349">
        <ele>423</ele>
        <time>2013-08-18T08:42:42.000Z</time>
      </trkpt>
      <trkpt lat="46.08389" lon="3.48343">
        <ele>423</ele>
        <time>2013-08-18T08:42:44.000Z</time>
      </trkpt>
      <trkpt lat="46.08389" lon="3.48343">
        <ele>423</ele>
        <time>2013-08-18T08:42:46.000Z</time>
      </trkpt>
      <trkpt lat="46.08389" lon="3.48343">
        <ele>423</ele>
        <time>2013-08-18T08:42:48.000Z</time>
      </trkpt>
      <trkpt lat="46.08389" lon="3.48343">
        <ele>423</ele>
        <time>2013-08-18T08:42:50.000Z</time>
      </trkpt>
      <trkpt lat="46.08385" lon="3.48328">
        <ele>423</ele>
        <time>2013-08-18T08:42:54.000Z</time>
      </trkpt>
      <trkpt lat="46.08383" lon="3.48319">
        <ele>424</ele>
        <time>2013-08-18T08:42:56.000Z</time>
      </trkpt>
      <trkpt lat="46.08382" lon="3.48312">
        <ele>425</ele>
        <time>2013-08-18T08:42:58.000Z</time>
      </trkpt>
      <trkpt lat="46.08382" lon="3.48312">
        <ele>425</ele>
        <time>2013-08-18T08:43:00.000Z</time>
      </trkpt>
      <trkpt lat="46.08382" lon="3.48312">
        <ele>425</ele>
        <time>2013-08-18T08:43:02.000Z</time>
      </trkpt>
      <trkpt lat="46.08382" lon="3.48312">
        <ele>425</ele>
        <time>2013-08-18T08:43:04.000Z</time>
      </trkpt>
      <trkpt lat="46.08381" lon="3.483">
        <ele>424</ele>
        <time>2013-08-18T08:43:06.000Z</time>
      </trkpt>
      <trkpt lat="46.08381" lon="3.48293">
        <ele>423</ele>
        <time>2013-08-18T08:43:08.000Z</time>
      </trkpt>
      <trkpt lat="46.08381" lon="3.48293">
        <ele>423</ele>
        <time>2013-08-18T08:43:10.000Z</time>
      </trkpt>
      <trkpt lat="46.08381" lon="3.48293">
        <ele>423</ele>
        <time>2013-08-18T08:43:12.000Z</time>
      </trkpt>
      <trkpt lat="46.08381" lon="3.48293">
        <ele>423</ele>
        <time>2013-08-18T08:43:14.000Z</time>
      </trkpt>
      <trkpt lat="46.08381" lon="3.48293">
        <ele>423</ele>
        <time>2013-08-18T08:43:16.000Z</time>
      </trkpt>
      <trkpt lat="46.08379" lon="3.48276">
        <ele>422</ele>
        <time>2013-08-18T08:43:24.000Z</time>
      </trkpt>
      <trkpt lat="46.08379" lon="3.48265">
        <ele>421</ele>
        <time>2013-08-18T08:43:26.000Z</time>
      </trkpt>
      <trkpt lat="46.08379" lon="3.48256">
        <ele>422</ele>
        <time>2013-08-18T08:43:28.000Z</time>
      </trkpt>
      <trkpt lat="46.08379" lon="3.4825">
        <ele>422</ele>
        <time>2013-08-18T08:43:30.000Z</time>
      </trkpt>
      <trkpt lat="46.08379" lon="3.48241">
        <ele>421</ele>
        <time>2013-08-18T08:43:34.000Z</time>
      </trkpt>
      <trkpt lat="46.0838" lon="3.48235">
        <ele>422</ele>
        <time>2013-08-18T08:43:36.000Z</time>
      </trkpt>
      <trkpt lat="46.0838" lon="3.48235">
        <ele>422</ele>
        <time>2013-08-18T08:43:40.000Z</time>
      </trkpt>
      <trkpt lat="46.0838" lon="3.48235">
        <ele>422</ele>
        <time>2013-08-18T08:43:42.000Z</time>
      </trkpt>
      <trkpt lat="46.0838" lon="3.48235">
        <ele>422</ele>
        <time>2013-08-18T08:43:44.000Z</time>
      </trkpt>
      <trkpt lat="46.0838" lon="3.48235">
        <ele>422</ele>
        <time>2013-08-18T08:43:46.000Z</time>
      </trkpt>
      <trkpt lat="46.08383" lon="3.4822">
        <ele>416</ele>
        <time>2013-08-18T08:43:50.000Z</time>
      </trkpt>
      <trkpt lat="46.08385" lon="3.4821">
        <ele>418</ele>
        <time>2013-08-18T08:43:52.000Z</time>
      </trkpt>
      <trkpt lat="46.08386" lon="3.48202">
        <ele>419</ele>
        <time>2013-08-18T08:43:54.000Z</time>
      </trkpt>
      <trkpt lat="46.08388" lon="3.48194">
        <ele>418</ele>
        <time>2013-08-18T08:43:58.000Z</time>
      </trkpt>
      <trkpt lat="46.08389" lon="3.48187">
        <ele>418</ele>
        <time>2013-08-18T08:44:00.000Z</time>
      </trkpt>
      <trkpt lat="46.0839" lon="3.48181">
        <ele>417</ele>
        <time>2013-08-18T08:44:02.000Z</time>
      </trkpt>
      <trkpt lat="46.08388" lon="3.48174">
        <ele>416</ele>
        <time>2013-08-18T08:44:04.000Z</time>
      </trkpt>
      <trkpt lat="46.08385" lon="3.48169">
        <ele>417</ele>
        <time>2013-08-18T08:44:06.000Z</time>
      </trkpt>
      <trkpt lat="46.08382" lon="3.48149">
        <ele>417</ele>
        <time>2013-08-18T08:44:10.000Z</time>
      </trkpt>
      <trkpt lat="46.08383" lon="3.48134">
        <ele>417</ele>
        <time>2013-08-18T08:44:12.000Z</time>
      </trkpt>
      <trkpt lat="46.0838" lon="3.48118">
        <ele>414</ele>
        <time>2013-08-18T08:44:17.000Z</time>
      </trkpt>
      <trkpt lat="46.08373" lon="3.48106">
        <ele>415</ele>
        <time>2013-08-18T08:44:21.000Z</time>
      </trkpt>
      <trkpt lat="46.08373" lon="3.48106">
        <ele>415</ele>
        <time>2013-08-18T08:44:23.000Z</time>
      </trkpt>
      <trkpt lat="46.08373" lon="3.48106">
        <ele>415</ele>
        <time>2013-08-18T08:44:25.000Z</time>
      </trkpt>
      <trkpt lat="46.08373" lon="3.48106">
        <ele>415</ele>
        <time>2013-08-18T08:44:27.000Z</time>
      </trkpt>
      <trkpt lat="46.08373" lon="3.48106">
        <ele>415</ele>
        <time>2013-08-18T08:44:29.000Z</time>
      </trkpt>
      <trkpt lat="46.08373" lon="3.48106">
        <ele>415</ele>
        <time>2013-08-18T08:44:31.000Z</time>
      </trkpt>
      <trkpt lat="46.08373" lon="3.48106">
        <ele>415</ele>
        <time>2013-08-18T08:44:33.000Z</time>
      </trkpt>
      <trkpt lat="46.08373" lon="3.48106">
        <ele>415</ele>
        <time>2013-08-18T08:44:35.000Z</time>
      </trkpt>
      <trkpt lat="46.08352" lon="3.48063">
        <ele>407</ele>
        <time>2013-08-18T08:44:39.000Z</time>
      </trkpt>
      <trkpt lat="46.08342" lon="3.48054">
        <ele>407</ele>
        <time>2013-08-18T08:44:43.000Z</time>
      </trkpt>
      <trkpt lat="46.08342" lon="3.48054">
        <ele>407</ele>
        <time>2013-08-18T08:44:45.000Z</time>
      </trkpt>
      <trkpt lat="46.08332" lon="3.48045">
        <ele>405</ele>
        <time>2013-08-18T08:44:47.000Z</time>
      </trkpt>
      <trkpt lat="46.08332" lon="3.48045">
        <ele>405</ele>
        <time>2013-08-18T08:44:49.000Z</time>
      </trkpt>
      <trkpt lat="46.08332" lon="3.48045">
        <ele>405</ele>
        <time>2013-08-18T08:44:51.000Z</time>
      </trkpt>
      <trkpt lat="46.08332" lon="3.48045">
        <ele>405</ele>
        <time>2013-08-18T08:44:53.000Z</time>
      </trkpt>
      <trkpt lat="46.08332" lon="3.48045">
        <ele>405</ele>
        <time>2013-08-18T08:44:55.000Z</time>
      </trkpt>
      <trkpt lat="46.08299" lon="3.48">
        <ele>398</ele>
        <time>2013-08-18T08:45:05.000Z</time>
      </trkpt>
      <trkpt lat="46.08299" lon="3.48">
        <ele>398</ele>
        <time>2013-08-18T08:45:09.000Z</time>
      </trkpt>
      <trkpt lat="46.08299" lon="3.48">
        <ele>398</ele>
        <time>2013-08-18T08:45:11.000Z</time>
      </trkpt>
      <trkpt lat="46.08299" lon="3.48">
        <ele>398</ele>
        <time>2013-08-18T08:45:13.000Z</time>
      </trkpt>
      <trkpt lat="46.08299" lon="3.48">
        <ele>398</ele>
        <time>2013-08-18T08:45:15.000Z</time>
      </trkpt>
      <trkpt lat="46.08299" lon="3.48">
        <ele>398</ele>
        <time>2013-08-18T08:45:17.000Z</time>
      </trkpt>
      <trkpt lat="46.08299" lon="3.48">
        <ele>398</ele>
        <time>2013-08-18T08:45:19.000Z</time>
      </trkpt>
      <trkpt lat="46.08299" lon="3.48">
        <ele>398</ele>
        <time>2013-08-18T08:45:21.000Z</time>
      </trkpt>
      <trkpt lat="46.08299" lon="3.48">
        <ele>398</ele>
        <time>2013-08-18T08:45:23.000Z</time>
      </trkpt>
      <trkpt lat="46.08299" lon="3.48">
        <ele>398</ele>
        <time>2013-08-18T08:45:25.000Z</time>
      </trkpt>
      <trkpt lat="46.08299" lon="3.48">
        <ele>398</ele>
        <time>2013-08-18T08:45:27.000Z</time>
      </trkpt>
      <trkpt lat="46.08299" lon="3.48">
        <ele>398</ele>
        <time>2013-08-18T08:45:31.000Z</time>
      </trkpt>
      <trkpt lat="46.08293" lon="3.47966">
        <ele>387</ele>
        <time>2013-08-18T08:45:33.000Z</time>
      </trkpt>
      <trkpt lat="46.08291" lon="3.47947">
        <ele>386</ele>
        <time>2013-08-18T08:45:35.000Z</time>
      </trkpt>
      <trkpt lat="46.08291" lon="3.47935">
        <ele>386</ele>
        <time>2013-08-18T08:45:37.000Z</time>
      </trkpt>
      <trkpt lat="46.08293" lon="3.47926">
        <ele>385</ele>
        <time>2013-08-18T08:45:39.000Z</time>
      </trkpt>
      <trkpt lat="46.08293" lon="3.47926">
        <ele>385</ele>
        <time>2013-08-18T08:45:41.000Z</time>
      </trkpt>
      <trkpt lat="46.08297" lon="3.4792">
        <ele>381</ele>
        <time>2013-08-18T08:45:43.000Z</time>
      </trkpt>
      <trkpt lat="46.08323" lon="3.47896">
        <ele>380</ele>
        <time>2013-08-18T08:46:14.000Z</time>
      </trkpt>
      <trkpt lat="46.08336" lon="3.47879">
        <ele>382</ele>
        <time>2013-08-18T08:46:15.000Z</time>
      </trkpt>
      <trkpt lat="46.08344" lon="3.47868">
        <ele>382</ele>
        <time>2013-08-18T08:46:17.000Z</time>
      </trkpt>
      <trkpt lat="46.08344" lon="3.47868">
        <ele>382</ele>
        <time>2013-08-18T08:46:19.000Z</time>
      </trkpt>
      <trkpt lat="46.08344" lon="3.47868">
        <ele>382</ele>
        <time>2013-08-18T08:46:21.000Z</time>
      </trkpt>
      <trkpt lat="46.08344" lon="3.47868">
        <ele>382</ele>
        <time>2013-08-18T08:46:23.000Z</time>
      </trkpt>
      <trkpt lat="46.08344" lon="3.47868">
        <ele>382</ele>
        <time>2013-08-18T08:46:25.000Z</time>
      </trkpt>
      <trkpt lat="46.08344" lon="3.47868">
        <ele>382</ele>
        <time>2013-08-18T08:46:27.000Z</time>
      </trkpt>
      <trkpt lat="46.08344" lon="3.47868">
        <ele>382</ele>
        <time>2013-08-18T08:46:29.000Z</time>
      </trkpt>
      <trkpt lat="46.08344" lon="3.47868">
        <ele>382</ele>
        <time>2013-08-18T08:46:31.000Z</time>
      </trkpt>
      <trkpt lat="46.08344" lon="3.47868">
        <ele>382</ele>
        <time>2013-08-18T08:46:33.000Z</time>
      </trkpt>
      <trkpt lat="46.08332" lon="3.47844">
        <ele>377</ele>
        <time>2013-08-18T08:46:39.000Z</time>
      </trkpt>
      <trkpt lat="46.08324" lon="3.47829">
        <ele>377</ele>
        <time>2013-08-18T08:46:41.000Z</time>
      </trkpt>
      <trkpt lat="46.08319" lon="3.47821">
        <ele>377</ele>
        <time>2013-08-18T08:46:43.000Z</time>
      </trkpt>
      <trkpt lat="46.08316" lon="3.47815">
        <ele>377</ele>
        <time>2013-08-18T08:46:45.000Z</time>
      </trkpt>
      <trkpt lat="46.08313" lon="3.47807">
        <ele>374</ele>
        <time>2013-08-18T08:46:49.000Z</time>
      </trkpt>
      <trkpt lat="46.08313" lon="3.47807">
        <ele>374</ele>
        <time>2013-08-18T08:46:51.000Z</time>
      </trkpt>
      <trkpt lat="46.08313" lon="3.47807">
        <ele>374</ele>
        <time>2013-08-18T08:46:53.000Z</time>
      </trkpt>
      <trkpt lat="46.0831" lon="3.47785">
        <ele>373</ele>
        <time>2013-08-18T08:46:57.000Z</time>
      </trkpt>
      <trkpt lat="46.0831" lon="3.47771">
        <ele>373</ele>
        <time>2013-08-18T08:46:59.000Z</time>
      </trkpt>
      <trkpt lat="46.08309" lon="3.4776">
        <ele>373</ele>
        <time>2013-08-18T08:47:01.000Z</time>
      </trkpt>
      <trkpt lat="46.08308" lon="3.47753">
        <ele>374</ele>
        <time>2013-08-18T08:47:03.000Z</time>
      </trkpt>
      <trkpt lat="46.08306" lon="3.47744">
        <ele>374</ele>
        <time>2013-08-18T08:47:05.000Z</time>
      </trkpt>
      <trkpt lat="46.08303" lon="3.47727">
        <ele>374</ele>
        <time>2013-08-18T08:47:07.000Z</time>
      </trkpt>
      <trkpt lat="46.08305" lon="3.47711">
        <ele>374</ele>
        <time>2013-08-18T08:47:11.000Z</time>
      </trkpt>
      <trkpt lat="46.08305" lon="3.47711">
        <ele>374</ele>
        <time>2013-08-18T08:47:13.000Z</time>
      </trkpt>
      <trkpt lat="46.08306" lon="3.47697">
        <ele>374</ele>
        <time>2013-08-18T08:47:15.000Z</time>
      </trkpt>
      <trkpt lat="46.08302" lon="3.4768">
        <ele>374</ele>
        <time>2013-08-18T08:47:19.000Z</time>
      </trkpt>
      <trkpt lat="46.08298" lon="3.47665">
        <ele>374</ele>
        <time>2013-08-18T08:47:23.000Z</time>
      </trkpt>
      <trkpt lat="46.08297" lon="3.47648">
        <ele>375</ele>
        <time>2013-08-18T08:47:27.000Z</time>
      </trkpt>
      <trkpt lat="46.08297" lon="3.47648">
        <ele>375</ele>
        <time>2013-08-18T08:47:31.000Z</time>
      </trkpt>
      <trkpt lat="46.08297" lon="3.47648">
        <ele>375</ele>
        <time>2013-08-18T08:47:33.000Z</time>
      </trkpt>
      <trkpt lat="46.08297" lon="3.47648">
        <ele>375</ele>
        <time>2013-08-18T08:47:35.000Z</time>
      </trkpt>
      <trkpt lat="46.08297" lon="3.47648">
        <ele>375</ele>
        <time>2013-08-18T08:47:41.000Z</time>
      </trkpt>
      <trkpt lat="46.08297" lon="3.47648">
        <ele>375</ele>
        <time>2013-08-18T08:47:43.000Z</time>
      </trkpt>
      <trkpt lat="46.08289" lon="3.47583">
        <ele>373</ele>
        <time>2013-08-18T08:47:47.000Z</time>
      </trkpt>
      <trkpt lat="46.08289" lon="3.47583">
        <ele>373</ele>
        <time>2013-08-18T08:47:51.000Z</time>
      </trkpt>
      <trkpt lat="46.08282" lon="3.47556">
        <ele>373</ele>
        <time>2013-08-18T08:47:53.000Z</time>
      </trkpt>
      <trkpt lat="46.08281" lon="3.4754">
        <ele>375</ele>
        <time>2013-08-18T08:47:57.000Z</time>
      </trkpt>
      <trkpt lat="46.08277" lon="3.47525">
        <ele>374</ele>
        <time>2013-08-18T08:48:01.000Z</time>
      </trkpt>
      <trkpt lat="46.08277" lon="3.47525">
        <ele>374</ele>
        <time>2013-08-18T08:48:03.000Z</time>
      </trkpt>
      <trkpt lat="46.08276" lon="3.47511">
        <ele>374</ele>
        <time>2013-08-18T08:48:05.000Z</time>
      </trkpt>
      <trkpt lat="46.08276" lon="3.47511">
        <ele>374</ele>
        <time>2013-08-18T08:48:07.000Z</time>
      </trkpt>
      <trkpt lat="46.08276" lon="3.47511">
        <ele>374</ele>
        <time>2013-08-18T08:48:09.000Z</time>
      </trkpt>
      <trkpt lat="46.08276" lon="3.47511">
        <ele>374</ele>
        <time>2013-08-18T08:48:11.000Z</time>
      </trkpt>
      <trkpt lat="46.08276" lon="3.47511">
        <ele>374</ele>
        <time>2013-08-18T08:48:13.000Z</time>
      </trkpt>
      <trkpt lat="46.08276" lon="3.47511">
        <ele>374</ele>
        <time>2013-08-18T08:48:15.000Z</time>
      </trkpt>
      <trkpt lat="46.08276" lon="3.47511">
        <ele>374</ele>
        <time>2013-08-18T08:48:17.000Z</time>
      </trkpt>
      <trkpt lat="46.08276" lon="3.47511">
        <ele>374</ele>
        <time>2013-08-18T08:48:19.000Z</time>
      </trkpt>
      <trkpt lat="46.08276" lon="3.47511">
        <ele>374</ele>
        <time>2013-08-18T08:48:21.000Z</time>
      </trkpt>
      <trkpt lat="46.08276" lon="3.47511">
        <ele>374</ele>
        <time>2013-08-18T08:48:23.000Z</time>
      </trkpt>
      <trkpt lat="46.08276" lon="3.47511">
        <ele>374</ele>
        <time>2013-08-18T08:48:25.000Z</time>
      </trkpt>
      <trkpt lat="46.08257" lon="3.47481">
        <ele>377</ele>
        <time>2013-08-18T08:48:31.000Z</time>
      </trkpt>
      <trkpt lat="46.08246" lon="3.47463">
        <ele>376</ele>
        <time>2013-08-18T08:48:33.000Z</time>
      </trkpt>
      <trkpt lat="46.08239" lon="3.47453">
        <ele>375</ele>
        <time>2013-08-18T08:48:35.000Z</time>
      </trkpt>
      <trkpt lat="46.08233" lon="3.47446">
        <ele>374</ele>
        <time>2013-08-18T08:48:37.000Z</time>
      </trkpt>
      <trkpt lat="46.08229" lon="3.4744">
        <ele>374</ele>
        <time>2013-08-18T08:48:39.000Z</time>
      </trkpt>
      <trkpt lat="46.08221" lon="3.47429">
        <ele>373</ele>
        <time>2013-08-18T08:48:41.000Z</time>
      </trkpt>
      <trkpt lat="46.08216" lon="3.47417">
        <ele>370</ele>
        <time>2013-08-18T08:48:45.000Z</time>
      </trkpt>
      <trkpt lat="46.08216" lon="3.47417">
        <ele>370</ele>
        <time>2013-08-18T08:48:49.000Z</time>
      </trkpt>
      <trkpt lat="46.08216" lon="3.47417">
        <ele>370</ele>
        <time>2013-08-18T08:48:51.000Z</time>
      </trkpt>
      <trkpt lat="46.0821" lon="3.47384">
        <ele>370</ele>
        <time>2013-08-18T08:48:55.000Z</time>
      </trkpt>
      <trkpt lat="46.08205" lon="3.4737">
        <ele>368</ele>
        <time>2013-08-18T08:49:01.000Z</time>
      </trkpt>
      <trkpt lat="46.08205" lon="3.4737">
        <ele>368</ele>
        <time>2013-08-18T08:49:03.000Z</time>
      </trkpt>
      <trkpt lat="46.08205" lon="3.4737">
        <ele>368</ele>
        <time>2013-08-18T08:49:05.000Z</time>
      </trkpt>
      <trkpt lat="46.08195" lon="3.47358">
        <ele>358</ele>
        <time>2013-08-18T08:49:07.000Z</time>
      </trkpt>
      <trkpt lat="46.0819" lon="3.47343">
        <ele>359</ele>
        <time>2013-08-18T08:49:11.000Z</time>
      </trkpt>
      <trkpt lat="46.08185" lon="3.47332">
        <ele>357</ele>
        <time>2013-08-18T08:49:15.000Z</time>
      </trkpt>
      <trkpt lat="46.08185" lon="3.47332">
        <ele>357</ele>
        <time>2013-08-18T08:49:17.000Z</time>
      </trkpt>
      <trkpt lat="46.08185" lon="3.47332">
        <ele>357</ele>
        <time>2013-08-18T08:49:19.000Z</time>
      </trkpt>
      <trkpt lat="46.08185" lon="3.47332">
        <ele>357</ele>
        <time>2013-08-18T08:49:21.000Z</time>
      </trkpt>
      <trkpt lat="46.08185" lon="3.47332">
        <ele>357</ele>
        <time>2013-08-18T08:49:23.000Z</time>
      </trkpt>
      <trkpt lat="46.08165" lon="3.47295">
        <ele>357</ele>
        <time>2013-08-18T08:49:29.000Z</time>
      </trkpt>
      <trkpt lat="46.08154" lon="3.47289">
        <ele>356</ele>
        <time>2013-08-18T08:49:33.000Z</time>
      </trkpt>
      <trkpt lat="46.08146" lon="3.47277">
        <ele>358</ele>
        <time>2013-08-18T08:49:39.000Z</time>
      </trkpt>
      <trkpt lat="46.08146" lon="3.47277">
        <ele>358</ele>
        <time>2013-08-18T08:49:41.000Z</time>
      </trkpt>
      <trkpt lat="46.08146" lon="3.47277">
        <ele>358</ele>
        <time>2013-08-18T08:49:43.000Z</time>
      </trkpt>
      <trkpt lat="46.08146" lon="3.47277">
        <ele>358</ele>
        <time>2013-08-18T08:49:45.000Z</time>
      </trkpt>
      <trkpt lat="46.08146" lon="3.47277">
        <ele>358</ele>
        <time>2013-08-18T08:49:47.000Z</time>
      </trkpt>
      <trkpt lat="46.08146" lon="3.47277">
        <ele>358</ele>
        <time>2013-08-18T08:49:49.000Z</time>
      </trkpt>
      <trkpt lat="46.08114" lon="3.47252">
        <ele>358</ele>
        <time>2013-08-18T08:49:53.000Z</time>
      </trkpt>
      <trkpt lat="46.08105" lon="3.47242">
        <ele>357</ele>
        <time>2013-08-18T08:49:57.000Z</time>
      </trkpt>
      <trkpt lat="46.081" lon="3.47227">
        <ele>358</ele>
        <time>2013-08-18T08:50:01.000Z</time>
      </trkpt>
      <trkpt lat="46.08094" lon="3.47211">
        <ele>356</ele>
        <time>2013-08-18T08:50:05.000Z</time>
      </trkpt>
      <trkpt lat="46.08094" lon="3.47211">
        <ele>356</ele>
        <time>2013-08-18T08:50:07.000Z</time>
      </trkpt>
      <trkpt lat="46.08094" lon="3.47211">
        <ele>356</ele>
        <time>2013-08-18T08:50:09.000Z</time>
      </trkpt>
      <trkpt lat="46.08094" lon="3.47211">
        <ele>356</ele>
        <time>2013-08-18T08:50:11.000Z</time>
      </trkpt>
      <trkpt lat="46.08094" lon="3.47211">
        <ele>356</ele>
        <time>2013-08-18T08:50:13.000Z</time>
      </trkpt>
      <trkpt lat="46.08091" lon="3.47192">
        <ele>357</ele>
        <time>2013-08-18T08:50:17.000Z</time>
      </trkpt>
      <trkpt lat="46.08089" lon="3.47177">
        <ele>357</ele>
        <time>2013-08-18T08:50:19.000Z</time>
      </trkpt>
      <trkpt lat="46.08088" lon="3.47166">
        <ele>358</ele>
        <time>2013-08-18T08:50:21.000Z</time>
      </trkpt>
      <trkpt lat="46.08086" lon="3.4716">
        <ele>356</ele>
        <time>2013-08-18T08:50:23.000Z</time>
      </trkpt>
      <trkpt lat="46.08086" lon="3.4716">
        <ele>356</ele>
        <time>2013-08-18T08:50:25.000Z</time>
      </trkpt>
      <trkpt lat="46.08084" lon="3.47142">
        <ele>360</ele>
        <time>2013-08-18T08:50:28.000Z</time>
      </trkpt>
      <trkpt lat="46.08081" lon="3.47129">
        <ele>360</ele>
        <time>2013-08-18T08:50:31.000Z</time>
      </trkpt>
      <trkpt lat="46.08077" lon="3.47122">
        <ele>361</ele>
        <time>2013-08-18T08:50:33.000Z</time>
      </trkpt>
      <trkpt lat="46.08077" lon="3.47122">
        <ele>361</ele>
        <time>2013-08-18T08:50:35.000Z</time>
      </trkpt>
      <trkpt lat="46.08077" lon="3.47122">
        <ele>361</ele>
        <time>2013-08-18T08:50:37.000Z</time>
      </trkpt>
      <trkpt lat="46.08077" lon="3.47122">
        <ele>361</ele>
        <time>2013-08-18T08:50:39.000Z</time>
      </trkpt>
      <trkpt lat="46.08077" lon="3.47122">
        <ele>361</ele>
        <time>2013-08-18T08:50:41.000Z</time>
      </trkpt>
      <trkpt lat="46.08077" lon="3.47122">
        <ele>361</ele>
        <time>2013-08-18T08:50:43.000Z</time>
      </trkpt>
      <trkpt lat="46.08077" lon="3.47122">
        <ele>361</ele>
        <time>2013-08-18T08:50:45.000Z</time>
      </trkpt>
      <trkpt lat="46.08039" lon="3.47074">
        <ele>354</ele>
        <time>2013-08-18T08:51:15.000Z</time>
      </trkpt>
      <trkpt lat="46.08039" lon="3.47074">
        <ele>354</ele>
        <time>2013-08-18T08:51:16.000Z</time>
      </trkpt>
      <trkpt lat="46.08015" lon="3.47045">
        <ele>355</ele>
        <time>2013-08-18T08:51:20.000Z</time>
      </trkpt>
      <trkpt lat="46.08" lon="3.47029">
        <ele>355</ele>
        <time>2013-08-18T08:51:22.000Z</time>
      </trkpt>
      <trkpt lat="46.08" lon="3.47029">
        <ele>355</ele>
        <time>2013-08-18T08:51:24.000Z</time>
      </trkpt>
      <trkpt lat="46.08" lon="3.47029">
        <ele>355</ele>
        <time>2013-08-18T08:51:26.000Z</time>
      </trkpt>
      <trkpt lat="46.08" lon="3.47029">
        <ele>355</ele>
        <time>2013-08-18T08:51:28.000Z</time>
      </trkpt>
      <trkpt lat="46.08" lon="3.47029">
        <ele>355</ele>
        <time>2013-08-18T08:51:30.000Z</time>
      </trkpt>
      <trkpt lat="46.07975" lon="3.47013">
        <ele>357</ele>
        <time>2013-08-18T08:51:38.000Z</time>
      </trkpt>
      <trkpt lat="46.07961" lon="3.47002">
        <ele>358</ele>
        <time>2013-08-18T08:51:40.000Z</time>
      </trkpt>
      <trkpt lat="46.07952" lon="3.46994">
        <ele>359</ele>
        <time>2013-08-18T08:51:42.000Z</time>
      </trkpt>
      <trkpt lat="46.07952" lon="3.46994">
        <ele>359</ele>
        <time>2013-08-18T08:51:44.000Z</time>
      </trkpt>
      <trkpt lat="46.07952" lon="3.46994">
        <ele>359</ele>
        <time>2013-08-18T08:51:46.000Z</time>
      </trkpt>
      <trkpt lat="46.07952" lon="3.46994">
        <ele>359</ele>
        <time>2013-08-18T08:51:48.000Z</time>
      </trkpt>
      <trkpt lat="46.0794" lon="3.46975">
        <ele>368</ele>
        <time>2013-08-18T08:51:54.000Z</time>
      </trkpt>
      <trkpt lat="46.07931" lon="3.46963">
        <ele>366</ele>
        <time>2013-08-18T08:51:56.000Z</time>
      </trkpt>
      <trkpt lat="46.07924" lon="3.46954">
        <ele>365</ele>
        <time>2013-08-18T08:51:58.000Z</time>
      </trkpt>
      <trkpt lat="46.07917" lon="3.46949">
        <ele>363</ele>
        <time>2013-08-18T08:52:00.000Z</time>
      </trkpt>
      <trkpt lat="46.07912" lon="3.46945">
        <ele>362</ele>
        <time>2013-08-18T08:52:02.000Z</time>
      </trkpt>
      <trkpt lat="46.07902" lon="3.46939">
        <ele>362</ele>
        <time>2013-08-18T08:52:04.000Z</time>
      </trkpt>
      <trkpt lat="46.07902" lon="3.46939">
        <ele>362</ele>
        <time>2013-08-18T08:52:06.000Z</time>
      </trkpt>
      <trkpt lat="46.07902" lon="3.46939">
        <ele>362</ele>
        <time>2013-08-18T08:52:08.000Z</time>
      </trkpt>
      <trkpt lat="46.07902" lon="3.46939">
        <ele>362</ele>
        <time>2013-08-18T08:52:10.000Z</time>
      </trkpt>
      <trkpt lat="46.07902" lon="3.46939">
        <ele>362</ele>
        <time>2013-08-18T08:52:12.000Z</time>
      </trkpt>
      <trkpt lat="46.07902" lon="3.46939">
        <ele>362</ele>
        <time>2013-08-18T08:52:14.000Z</time>
      </trkpt>
      <trkpt lat="46.07902" lon="3.46939">
        <ele>362</ele>
        <time>2013-08-18T08:52:16.000Z</time>
      </trkpt>
      <trkpt lat="46.07868" lon="3.46912">
        <ele>356</ele>
        <time>2013-08-18T08:52:22.000Z</time>
      </trkpt>
      <trkpt lat="46.07868" lon="3.46912">
        <ele>356</ele>
        <time>2013-08-18T08:52:24.000Z</time>
      </trkpt>
      <trkpt lat="46.07868" lon="3.46912">
        <ele>356</ele>
        <time>2013-08-18T08:52:26.000Z</time>
      </trkpt>
      <trkpt lat="46.07868" lon="3.46912">
        <ele>356</ele>
        <time>2013-08-18T08:52:34.000Z</time>
      </trkpt>
      <trkpt lat="46.07868" lon="3.46912">
        <ele>356</ele>
        <time>2013-08-18T08:52:36.000Z</time>
      </trkpt>
      <trkpt lat="46.07832" lon="3.46899">
        <ele>358</ele>
        <time>2013-08-18T08:52:40.000Z</time>
      </trkpt>
      <trkpt lat="46.0782" lon="3.46902">
        <ele>357</ele>
        <time>2013-08-18T08:52:46.000Z</time>
      </trkpt>
      <trkpt lat="46.07811" lon="3.46898">
        <ele>358</ele>
        <time>2013-08-18T08:52:50.000Z</time>
      </trkpt>
      <trkpt lat="46.07811" lon="3.46898">
        <ele>358</ele>
        <time>2013-08-18T08:52:52.000Z</time>
      </trkpt>
      <trkpt lat="46.07811" lon="3.46898">
        <ele>358</ele>
        <time>2013-08-18T08:52:54.000Z</time>
      </trkpt>
      <trkpt lat="46.07811" lon="3.46898">
        <ele>358</ele>
        <time>2013-08-18T08:52:56.000Z</time>
      </trkpt>
      <trkpt lat="46.07791" lon="3.46892">
        <ele>358</ele>
        <time>2013-08-18T08:53:00.000Z</time>
      </trkpt>
      <trkpt lat="46.07781" lon="3.46889">
        <ele>360</ele>
        <time>2013-08-18T08:53:04.000Z</time>
      </trkpt>
      <trkpt lat="46.07772" lon="3.46887">
        <ele>361</ele>
        <time>2013-08-18T08:53:08.000Z</time>
      </trkpt>
      <trkpt lat="46.07763" lon="3.46886">
        <ele>362</ele>
        <time>2013-08-18T08:53:12.000Z</time>
      </trkpt>
      <trkpt lat="46.07763" lon="3.46886">
        <ele>362</ele>
        <time>2013-08-18T08:53:14.000Z</time>
      </trkpt>
      <trkpt lat="46.07763" lon="3.46886">
        <ele>362</ele>
        <time>2013-08-18T08:53:16.000Z</time>
      </trkpt>
      <trkpt lat="46.07763" lon="3.46886">
        <ele>362</ele>
        <time>2013-08-18T08:53:18.000Z</time>
      </trkpt>
      <trkpt lat="46.07751" lon="3.46884">
        <ele>360</ele>
        <time>2013-08-18T08:53:22.000Z</time>
      </trkpt>
      <trkpt lat="46.07751" lon="3.46884">
        <ele>360</ele>
        <time>2013-08-18T08:53:24.000Z</time>
      </trkpt>
      <trkpt lat="46.07751" lon="3.46884">
        <ele>360</ele>
        <time>2013-08-18T08:53:26.000Z</time>
      </trkpt>
      <trkpt lat="46.07751" lon="3.46884">
        <ele>360</ele>
        <time>2013-08-18T08:53:28.000Z</time>
      </trkpt>
      <trkpt lat="46.07751" lon="3.46884">
        <ele>360</ele>
        <time>2013-08-18T08:53:30.000Z</time>
      </trkpt>
      <trkpt lat="46.07751" lon="3.46884">
        <ele>360</ele>
        <time>2013-08-18T08:53:32.000Z</time>
      </trkpt>
      <trkpt lat="46.07751" lon="3.46884">
        <ele>360</ele>
        <time>2013-08-18T08:53:42.000Z</time>
      </trkpt>
      <trkpt lat="46.07721" lon="3.46879">
        <ele>364</ele>
        <time>2013-08-18T08:53:44.000Z</time>
      </trkpt>
      <trkpt lat="46.07704" lon="3.46877">
        <ele>363</ele>
        <time>2013-08-18T08:53:46.000Z</time>
      </trkpt>
      <trkpt lat="46.07694" lon="3.46876">
        <ele>363</ele>
        <time>2013-08-18T08:53:48.000Z</time>
      </trkpt>
      <trkpt lat="46.07687" lon="3.46876">
        <ele>363</ele>
        <time>2013-08-18T08:53:50.000Z</time>
      </trkpt>
      <trkpt lat="46.07687" lon="3.46876">
        <ele>363</ele>
        <time>2013-08-18T08:53:52.000Z</time>
      </trkpt>
      <trkpt lat="46.07687" lon="3.46876">
        <ele>363</ele>
        <time>2013-08-18T08:53:54.000Z</time>
      </trkpt>
      <trkpt lat="46.07687" lon="3.46876">
        <ele>363</ele>
        <time>2013-08-18T08:53:56.000Z</time>
      </trkpt>
      <trkpt lat="46.07687" lon="3.46876">
        <ele>363</ele>
        <time>2013-08-18T08:53:58.000Z</time>
      </trkpt>
      <trkpt lat="46.07687" lon="3.46876">
        <ele>363</ele>
        <time>2013-08-18T08:54:00.000Z</time>
      </trkpt>
      <trkpt lat="46.07687" lon="3.46876">
        <ele>363</ele>
        <time>2013-08-18T08:54:02.000Z</time>
      </trkpt>
      <trkpt lat="46.07687" lon="3.46876">
        <ele>363</ele>
        <time>2013-08-18T08:54:04.000Z</time>
      </trkpt>
      <trkpt lat="46.07664" lon="3.46877">
        <ele>366</ele>
        <time>2013-08-18T08:54:08.000Z</time>
      </trkpt>
      <trkpt lat="46.07652" lon="3.46877">
        <ele>366</ele>
        <time>2013-08-18T08:54:10.000Z</time>
      </trkpt>
      <trkpt lat="46.07643" lon="3.46878">
        <ele>366</ele>
        <time>2013-08-18T08:54:12.000Z</time>
      </trkpt>
      <trkpt lat="46.07636" lon="3.46879">
        <ele>367</ele>
        <time>2013-08-18T08:54:14.000Z</time>
      </trkpt>
      <trkpt lat="46.07631" lon="3.4688">
        <ele>368</ele>
        <time>2013-08-18T08:54:16.000Z</time>
      </trkpt>
      <trkpt lat="46.07631" lon="3.4688">
        <ele>368</ele>
        <time>2013-08-18T08:54:20.000Z</time>
      </trkpt>
      <trkpt lat="46.07631" lon="3.4688">
        <ele>368</ele>
        <time>2013-08-18T08:54:22.000Z</time>
      </trkpt>
      <trkpt lat="46.07631" lon="3.4688">
        <ele>368</ele>
        <time>2013-08-18T08:54:24.000Z</time>
      </trkpt>
      <trkpt lat="46.07631" lon="3.4688">
        <ele>368</ele>
        <time>2013-08-18T08:54:28.000Z</time>
      </trkpt>
      <trkpt lat="46.07631" lon="3.4688">
        <ele>368</ele>
        <time>2013-08-18T08:54:30.000Z</time>
      </trkpt>
      <trkpt lat="46.07587" lon="3.46899">
        <ele>364</ele>
        <time>2013-08-18T08:54:34.000Z</time>
      </trkpt>
      <trkpt lat="46.07587" lon="3.46899">
        <ele>364</ele>
        <time>2013-08-18T08:54:38.000Z</time>
      </trkpt>
      <trkpt lat="46.07587" lon="3.46899">
        <ele>364</ele>
        <time>2013-08-18T08:54:40.000Z</time>
      </trkpt>
      <trkpt lat="46.07587" lon="3.46899">
        <ele>364</ele>
        <time>2013-08-18T08:54:42.000Z</time>
      </trkpt>
      <trkpt lat="46.07587" lon="3.46899">
        <ele>364</ele>
        <time>2013-08-18T08:54:44.000Z</time>
      </trkpt>
      <trkpt lat="46.07587" lon="3.46899">
        <ele>364</ele>
        <time>2013-08-18T08:54:48.000Z</time>
      </trkpt>
      <trkpt lat="46.07578" lon="3.46934">
        <ele>369</ele>
        <time>2013-08-18T08:55:17.000Z</time>
      </trkpt>
      <trkpt lat="46.07576" lon="3.46942">
        <ele>368</ele>
        <time>2013-08-18T08:55:23.000Z</time>
      </trkpt>
      <trkpt lat="46.07573" lon="3.46948">
        <ele>371</ele>
        <time>2013-08-18T08:55:25.000Z</time>
      </trkpt>
      <trkpt lat="46.0757" lon="3.46954">
        <ele>373</ele>
        <time>2013-08-18T08:55:27.000Z</time>
      </trkpt>
      <trkpt lat="46.07569" lon="3.46962">
        <ele>373</ele>
        <time>2013-08-18T08:55:29.000Z</time>
      </trkpt>
      <trkpt lat="46.07566" lon="3.46967">
        <ele>376</ele>
        <time>2013-08-18T08:55:31.000Z</time>
      </trkpt>
      <trkpt lat="46.07569" lon="3.46992">
        <ele>369</ele>
        <time>2013-08-18T08:55:34.000Z</time>
      </trkpt>
      <trkpt lat="46.07568" lon="3.47006">
        <ele>369</ele>
        <time>2013-08-18T08:55:38.000Z</time>
      </trkpt>
      <trkpt lat="46.07575" lon="3.47016">
        <ele>370</ele>
        <time>2013-08-18T08:55:40.000Z</time>
      </trkpt>
      <trkpt lat="46.07575" lon="3.47016">
        <ele>370</ele>
        <time>2013-08-18T08:55:44.000Z</time>
      </trkpt>
      <trkpt lat="46.07575" lon="3.47016">
        <ele>370</ele>
        <time>2013-08-18T08:55:46.000Z</time>
      </trkpt>
      <trkpt lat="46.07575" lon="3.47016">
        <ele>370</ele>
        <time>2013-08-18T08:55:48.000Z</time>
      </trkpt>
      <trkpt lat="46.07575" lon="3.47016">
        <ele>370</ele>
        <time>2013-08-18T08:55:50.000Z</time>
      </trkpt>
      <trkpt lat="46.07563" lon="3.47061">
        <ele>369</ele>
        <time>2013-08-18T08:55:56.000Z</time>
      </trkpt>
      <trkpt lat="46.07563" lon="3.47061">
        <ele>369</ele>
        <time>2013-08-18T08:55:58.000Z</time>
      </trkpt>
      <trkpt lat="46.07563" lon="3.47061">
        <ele>369</ele>
        <time>2013-08-18T08:56:00.000Z</time>
      </trkpt>
      <trkpt lat="46.07563" lon="3.47061">
        <ele>369</ele>
        <time>2013-08-18T08:56:02.000Z</time>
      </trkpt>
      <trkpt lat="46.07563" lon="3.47061">
        <ele>369</ele>
        <time>2013-08-18T08:56:04.000Z</time>
      </trkpt>
      <trkpt lat="46.07563" lon="3.47061">
        <ele>369</ele>
        <time>2013-08-18T08:56:06.000Z</time>
      </trkpt>
      <trkpt lat="46.07561" lon="3.47082">
        <ele>372</ele>
        <time>2013-08-18T08:56:10.000Z</time>
      </trkpt>
      <trkpt lat="46.0756" lon="3.47096">
        <ele>372</ele>
        <time>2013-08-18T08:56:14.000Z</time>
      </trkpt>
      <trkpt lat="46.07561" lon="3.47116">
        <ele>372</ele>
        <time>2013-08-18T08:56:20.000Z</time>
      </trkpt>
      <trkpt lat="46.0756" lon="3.47135">
        <ele>373</ele>
        <time>2013-08-18T08:56:24.000Z</time>
      </trkpt>
      <trkpt lat="46.07561" lon="3.4715">
        <ele>373</ele>
        <time>2013-08-18T08:56:28.000Z</time>
      </trkpt>
      <trkpt lat="46.07561" lon="3.4715">
        <ele>373</ele>
        <time>2013-08-18T08:56:30.000Z</time>
      </trkpt>
      <trkpt lat="46.07561" lon="3.4715">
        <ele>373</ele>
        <time>2013-08-18T08:56:32.000Z</time>
      </trkpt>
      <trkpt lat="46.07585" lon="3.47261">
        <ele>370</ele>
        <time>2013-08-18T08:57:04.000Z</time>
      </trkpt>
      <trkpt lat="46.07585" lon="3.47261">
        <ele>370</ele>
        <time>2013-08-18T08:57:05.000Z</time>
      </trkpt>
      <trkpt lat="46.07585" lon="3.47261">
        <ele>370</ele>
        <time>2013-08-18T08:57:07.000Z</time>
      </trkpt>
      <trkpt lat="46.07585" lon="3.47261">
        <ele>370</ele>
        <time>2013-08-18T08:57:09.000Z</time>
      </trkpt>
      <trkpt lat="46.07585" lon="3.47261">
        <ele>370</ele>
        <time>2013-08-18T08:57:11.000Z</time>
      </trkpt>
      <trkpt lat="46.07585" lon="3.47261">
        <ele>370</ele>
        <time>2013-08-18T08:57:13.000Z</time>
      </trkpt>
      <trkpt lat="46.07585" lon="3.47261">
        <ele>370</ele>
        <time>2013-08-18T08:57:15.000Z</time>
      </trkpt>
      <trkpt lat="46.07585" lon="3.47261">
        <ele>370</ele>
        <time>2013-08-18T08:57:23.000Z</time>
      </trkpt>
      <trkpt lat="46.07585" lon="3.47261">
        <ele>370</ele>
        <time>2013-08-18T08:57:26.000Z</time>
      </trkpt>
      <trkpt lat="46.0758" lon="3.47304">
        <ele>368</ele>
        <time>2013-08-18T08:57:32.000Z</time>
      </trkpt>
      <trkpt lat="46.0758" lon="3.47304">
        <ele>368</ele>
        <time>2013-08-18T08:57:34.000Z</time>
      </trkpt>
      <trkpt lat="46.0758" lon="3.47304">
        <ele>368</ele>
        <time>2013-08-18T08:57:36.000Z</time>
      </trkpt>
      <trkpt lat="46.0758" lon="3.47304">
        <ele>368</ele>
        <time>2013-08-18T08:57:38.000Z</time>
      </trkpt>
      <trkpt lat="46.0758" lon="3.47304">
        <ele>368</ele>
        <time>2013-08-18T08:57:40.000Z</time>
      </trkpt>
      <trkpt lat="46.0758" lon="3.47304">
        <ele>368</ele>
        <time>2013-08-18T08:57:42.000Z</time>
      </trkpt>
      <trkpt lat="46.07569" lon="3.47337">
        <ele>366</ele>
        <time>2013-08-18T08:57:46.000Z</time>
      </trkpt>
      <trkpt lat="46.07561" lon="3.47354">
        <ele>366</ele>
        <time>2013-08-18T08:57:48.000Z</time>
      </trkpt>
      <trkpt lat="46.07557" lon="3.47369">
        <ele>365</ele>
        <time>2013-08-18T08:57:50.000Z</time>
      </trkpt>
      <trkpt lat="46.07552" lon="3.47381">
        <ele>364</ele>
        <time>2013-08-18T08:57:52.000Z</time>
      </trkpt>
      <trkpt lat="46.07547" lon="3.47387">
        <ele>364</ele>
        <time>2013-08-18T08:57:54.000Z</time>
      </trkpt>
      <trkpt lat="46.07537" lon="3.47397">
        <ele>363</ele>
        <time>2013-08-18T08:57:56.000Z</time>
      </trkpt>
      <trkpt lat="46.07537" lon="3.47397">
        <ele>363</ele>
        <time>2013-08-18T08:57:58.000Z</time>
      </trkpt>
      <trkpt lat="46.07537" lon="3.47397">
        <ele>363</ele>
        <time>2013-08-18T08:58:00.000Z</time>
      </trkpt>
      <trkpt lat="46.07537" lon="3.47397">
        <ele>363</ele>
        <time>2013-08-18T08:58:04.000Z</time>
      </trkpt>
      <trkpt lat="46.07537" lon="3.47397">
        <ele>363</ele>
        <time>2013-08-18T08:58:06.000Z</time>
      </trkpt>
      <trkpt lat="46.07505" lon="3.47439">
        <ele>362</ele>
        <time>2013-08-18T08:58:12.000Z</time>
      </trkpt>
      <trkpt lat="46.07495" lon="3.47446">
        <ele>361</ele>
        <time>2013-08-18T08:58:16.000Z</time>
      </trkpt>
      <trkpt lat="46.07485" lon="3.47451">
        <ele>361</ele>
        <time>2013-08-18T08:58:20.000Z</time>
      </trkpt>
      <trkpt lat="46.07485" lon="3.47451">
        <ele>361</ele>
        <time>2013-08-18T08:58:22.000Z</time>
      </trkpt>
      <trkpt lat="46.07471" lon="3.47454">
        <ele>360</ele>
        <time>2013-08-18T08:58:24.000Z</time>
      </trkpt>
      <trkpt lat="46.07457" lon="3.47451">
        <ele>363</ele>
        <time>2013-08-18T08:58:28.000Z</time>
      </trkpt>
      <trkpt lat="46.0744" lon="3.47458">
        <ele>365</ele>
        <time>2013-08-18T08:58:33.000Z</time>
      </trkpt>
      <trkpt lat="46.0744" lon="3.47458">
        <ele>365</ele>
        <time>2013-08-18T08:58:36.000Z</time>
      </trkpt>
      <trkpt lat="46.0744" lon="3.47458">
        <ele>365</ele>
        <time>2013-08-18T08:58:38.000Z</time>
      </trkpt>
      <trkpt lat="46.0744" lon="3.47458">
        <ele>365</ele>
        <time>2013-08-18T08:58:40.000Z</time>
      </trkpt>
      <trkpt lat="46.0744" lon="3.47458">
        <ele>365</ele>
        <time>2013-08-18T08:58:42.000Z</time>
      </trkpt>
      <trkpt lat="46.0744" lon="3.47458">
        <ele>365</ele>
        <time>2013-08-18T08:58:44.000Z</time>
      </trkpt>
      <trkpt lat="46.0744" lon="3.47458">
        <ele>365</ele>
        <time>2013-08-18T08:58:46.000Z</time>
      </trkpt>
      <trkpt lat="46.07399" lon="3.47478">
        <ele>366</ele>
        <time>2013-08-18T08:58:50.000Z</time>
      </trkpt>
      <trkpt lat="46.07389" lon="3.4748">
        <ele>364</ele>
        <time>2013-08-18T08:58:54.000Z</time>
      </trkpt>
      <trkpt lat="46.07378" lon="3.47484">
        <ele>367</ele>
        <time>2013-08-18T08:58:58.000Z</time>
      </trkpt>
      <trkpt lat="46.07378" lon="3.47484">
        <ele>367</ele>
        <time>2013-08-18T08:59:02.000Z</time>
      </trkpt>
      <trkpt lat="46.07378" lon="3.47484">
        <ele>367</ele>
        <time>2013-08-18T08:59:05.000Z</time>
      </trkpt>
      <trkpt lat="46.07378" lon="3.47484">
        <ele>367</ele>
        <time>2013-08-18T08:59:07.000Z</time>
      </trkpt>
      <trkpt lat="46.07378" lon="3.47484">
        <ele>367</ele>
        <time>2013-08-18T08:59:09.000Z</time>
      </trkpt>
      <trkpt lat="46.07339" lon="3.47493">
        <ele>372</ele>
        <time>2013-08-18T08:59:17.000Z</time>
      </trkpt>
      <trkpt lat="46.07335" lon="3.47505">
        <ele>374</ele>
        <time>2013-08-18T08:59:21.000Z</time>
      </trkpt>
      <trkpt lat="46.07335" lon="3.47505">
        <ele>374</ele>
        <time>2013-08-18T08:59:23.000Z</time>
      </trkpt>
      <trkpt lat="46.07335" lon="3.47505">
        <ele>374</ele>
        <time>2013-08-18T08:59:25.000Z</time>
      </trkpt>
      <trkpt lat="46.07335" lon="3.47505">
        <ele>374</ele>
        <time>2013-08-18T08:59:27.000Z</time>
      </trkpt>
      <trkpt lat="46.07335" lon="3.47505">
        <ele>374</ele>
        <time>2013-08-18T08:59:29.000Z</time>
      </trkpt>
      <trkpt lat="46.07335" lon="3.47505">
        <ele>374</ele>
        <time>2013-08-18T08:59:31.000Z</time>
      </trkpt>
      <trkpt lat="46.07323" lon="3.47523">
        <ele>375</ele>
        <time>2013-08-18T08:59:59.000Z</time>
      </trkpt>
      <trkpt lat="46.07316" lon="3.47536">
        <ele>371</ele>
        <time>2013-08-18T09:00:01.000Z</time>
      </trkpt>
      <trkpt lat="46.07311" lon="3.47547">
        <ele>368</ele>
        <time>2013-08-18T09:00:03.000Z</time>
      </trkpt>
      <trkpt lat="46.07309" lon="3.47555">
        <ele>366</ele>
        <time>2013-08-18T09:00:05.000Z</time>
      </trkpt>
      <trkpt lat="46.07309" lon="3.47565">
        <ele>364</ele>
        <time>2013-08-18T09:00:07.000Z</time>
      </trkpt>
      <trkpt lat="46.07304" lon="3.47578">
        <ele>362</ele>
        <time>2013-08-18T09:00:09.000Z</time>
      </trkpt>
      <trkpt lat="46.07304" lon="3.47578">
        <ele>362</ele>
        <time>2013-08-18T09:00:11.000Z</time>
      </trkpt>
      <trkpt lat="46.07304" lon="3.47578">
        <ele>362</ele>
        <time>2013-08-18T09:00:13.000Z</time>
      </trkpt>
      <trkpt lat="46.07304" lon="3.47578">
        <ele>362</ele>
        <time>2013-08-18T09:00:15.000Z</time>
      </trkpt>
      <trkpt lat="46.07304" lon="3.47578">
        <ele>362</ele>
        <time>2013-08-18T09:00:21.000Z</time>
      </trkpt>
      <trkpt lat="46.07304" lon="3.47578">
        <ele>362</ele>
        <time>2013-08-18T09:00:23.000Z</time>
      </trkpt>
      <trkpt lat="46.07304" lon="3.47578">
        <ele>362</ele>
        <time>2013-08-18T09:00:25.000Z</time>
      </trkpt>
      <trkpt lat="46.07304" lon="3.47578">
        <ele>362</ele>
        <time>2013-08-18T09:00:27.000Z</time>
      </trkpt>
      <trkpt lat="46.07304" lon="3.47578">
        <ele>362</ele>
        <time>2013-08-18T09:00:29.000Z</time>
      </trkpt>
    </trkseg>
  </trk>
</gpx>